PWSweather.com
Personal Weather Stations
Station Observations
HVALPSUND
Hvalpsund, FarsoeDK 9640

HvalpsundFarsoeDK 9640

Lat: 56.705311, Lon: 9.203638

Elevation: 5

Station Type: Vantage Pro2

http://hvalpsundvejr.dk

Latest ConditionsUpdated 6:10:00 PM GMT+01:01 Monday, Jan 21, 2019
Currently Today's Max Today's Min Today's Average
Temperature 35.4°F1.9°C 39.5°F4.2°C 35.4°F1.9°C 37.5°F3.1°C
Dew Point 30.8°F-0.7°C 35.1°F1.7°C 30.8°F-0.7°C 32.9°F0.5°C
Winds 6.0 mph W9.7 kmh W 24.2 mph -38.9 kmh - - 12.7 mph 20.4 kmh
Wind Gusts 7.0 mph11.3 kmh 28.0 mph45.1 kmh - -
Humidity 83% 91% 78% 84%
Pressure 29.91 in1012.9 mb 30.03 in1016.9 mb 29.88 in1011.9 mb -
Precipitation - 0.10 in2.5 mm - -
Hour Temp Dew Point Humidity Winds Wind Gusts Pressure Precip Precip Rate Daily Precip Total
06:10 PM 35.4°F1.9°C 30.8°F-0.7°C 83% 6.0 mph W9.7 kmh W 7.0 mph11.3 kmh 29.91 in1012.9 mb 0.00 in0.0 mm 0.00 in0.0 mm 0.10 in2.5 mm
06:09 PM 35.4°F1.9°C 30.8°F-0.7°C 83% 6.3 mph W10.1 kmh W 7.0 mph11.3 kmh 29.91 in1012.9 mb 0.00 in0.0 mm 0.00 in0.0 mm 0.10 in2.5 mm
06:08 PM 35.4°F1.9°C 30.8°F-0.7°C 83% 6.4 mph W10.3 kmh W 7.0 mph11.3 kmh 29.91 in1012.9 mb 0.00 in0.0 mm 0.00 in0.0 mm 0.10 in2.5 mm
06:07 PM 35.5°F1.9°C 30.9°F-0.6°C 83% 6.4 mph W10.3 kmh W 7.0 mph11.3 kmh 29.91 in1012.9 mb 0.00 in0.0 mm 0.00 in0.0 mm 0.10 in2.5 mm
06:06 PM 35.4°F1.9°C 30.8°F-0.7°C 83% 6.7 mph W10.8 kmh W 7.0 mph11.3 kmh 29.91 in1012.9 mb 0.00 in0.0 mm 0.00 in0.0 mm 0.10 in2.5 mm
06:05 PM 35.4°F1.9°C 30.8°F-0.7°C 83% 6.9 mph W11.1 kmh W 8.0 mph12.9 kmh 29.91 in1012.9 mb 0.00 in0.0 mm 0.00 in0.0 mm 0.10 in2.5 mm
06:04 PM 35.4°F1.9°C 30.8°F-0.7°C 83% 7.4 mph W11.9 kmh W 8.0 mph12.9 kmh 29.91 in1012.9 mb 0.00 in0.0 mm 0.00 in0.0 mm 0.10 in2.5 mm
06:03 PM 35.4°F1.9°C 30.8°F-0.7°C 83% 7.2 mph W11.6 kmh W 8.0 mph12.9 kmh 29.91 in1012.9 mb 0.00 in0.0 mm 0.00 in0.0 mm 0.10 in2.5 mm
06:02 PM 35.4°F1.9°C 30.8°F-0.7°C 83% 7.1 mph W11.4 kmh W 8.0 mph12.9 kmh 29.91 in1012.9 mb 0.00 in0.0 mm 0.00 in0.0 mm 0.10 in2.5 mm
06:01 PM 35.4°F1.9°C 30.8°F-0.7°C 83% 7.1 mph W11.4 kmh W 8.0 mph12.9 kmh 29.91 in1012.9 mb 0.00 in0.0 mm 0.00 in0.0 mm 0.10 in2.5 mm
06:00 PM 35.5°F1.9°C 30.9°F-0.6°C 83% 6.7 mph W10.8 kmh W 8.0 mph12.9 kmh 29.91 in1012.9 mb 0.00 in0.0 mm 0.00 in0.0 mm 0.10 in2.5 mm
05:59 PM 35.5°F1.9°C 30.9°F-0.6°C 83% 7.1 mph W11.4 kmh W 8.0 mph12.9 kmh 29.91 in1012.9 mb 0.00 in0.0 mm 0.00 in0.0 mm 0.10 in2.5 mm
05:58 PM 35.5°F1.9°C 30.9°F-0.6°C 83% 6.8 mph W10.9 kmh W 8.0 mph12.9 kmh 29.91 in1012.9 mb 0.00 in0.0 mm 0.00 in0.0 mm 0.10 in2.5 mm
05:57 PM 35.5°F1.9°C 30.9°F-0.6°C 83% 6.7 mph W10.8 kmh W 8.0 mph12.9 kmh 29.91 in1012.9 mb 0.00 in0.0 mm 0.00 in0.0 mm 0.10 in2.5 mm
05:56 PM 35.5°F1.9°C 30.9°F-0.6°C 83% 6.9 mph W11.1 kmh W 8.0 mph12.9 kmh 29.91 in1012.9 mb 0.00 in0.0 mm 0.00 in0.0 mm 0.10 in2.5 mm
05:55 PM 35.5°F1.9°C 30.9°F-0.6°C 83% 7.0 mph W11.3 kmh W 8.0 mph12.9 kmh 29.91 in1012.9 mb 0.00 in0.0 mm 0.00 in0.0 mm 0.10 in2.5 mm
05:54 PM 35.5°F1.9°C 30.9°F-0.6°C 83% 7.3 mph W11.7 kmh W 8.0 mph12.9 kmh 29.91 in1012.9 mb 0.00 in0.0 mm 0.00 in0.0 mm 0.10 in2.5 mm
05:53 PM 35.5°F1.9°C 30.9°F-0.6°C 83% 7.2 mph W11.6 kmh W 8.0 mph12.9 kmh 29.91 in1012.9 mb 0.00 in0.0 mm 0.00 in0.0 mm 0.10 in2.5 mm
05:52 PM 35.5°F1.9°C 30.9°F-0.6°C 83% 7.2 mph W11.6 kmh W 8.0 mph12.9 kmh 29.91 in1012.9 mb 0.00 in0.0 mm 0.00 in0.0 mm 0.10 in2.5 mm
05:51 PM 35.5°F1.9°C 30.9°F-0.6°C 83% 7.4 mph W11.9 kmh W 8.0 mph12.9 kmh 29.91 in1012.9 mb 0.00 in0.0 mm 0.00 in0.0 mm 0.10 in2.5 mm
05:50 PM 35.5°F1.9°C 30.9°F-0.6°C 83% 7.3 mph W11.7 kmh W 8.0 mph12.9 kmh 29.91 in1012.9 mb 0.00 in0.0 mm 0.00 in0.0 mm 0.10 in2.5 mm
05:49 PM 35.5°F1.9°C 31.2°F-0.4°C 84% 7.0 mph W11.3 kmh W 9.0 mph14.5 kmh 29.91 in1012.9 mb 0.00 in0.0 mm 0.00 in0.0 mm 0.10 in2.5 mm
05:48 PM 35.5°F1.9°C 30.9°F-0.6°C 83% 7.2 mph W11.6 kmh W 9.0 mph14.5 kmh 29.91 in1012.9 mb 0.00 in0.0 mm 0.00 in0.0 mm 0.10 in2.5 mm
05:47 PM 35.5°F1.9°C 30.9°F-0.6°C 83% 7.0 mph W11.3 kmh W 8.0 mph12.9 kmh 29.91 in1012.9 mb 0.00 in0.0 mm 0.00 in0.0 mm 0.10 in2.5 mm
05:46 PM 35.6°F2.0°C 31.0°F-0.6°C 83% 7.0 mph W11.3 kmh W 7.0 mph11.3 kmh 29.91 in1012.9 mb 0.00 in0.0 mm 0.00 in0.0 mm 0.10 in2.5 mm
05:45 PM 35.5°F1.9°C 30.9°F-0.6°C 83% 6.0 mph W9.7 kmh W 7.0 mph11.3 kmh 29.91 in1012.9 mb 0.00 in0.0 mm 0.00 in0.0 mm 0.10 in2.5 mm
05:44 PM 35.5°F1.9°C 30.9°F-0.6°C 83% 7.0 mph WNW11.3 kmh WNW 8.0 mph12.9 kmh 29.91 in1012.9 mb 0.00 in0.0 mm 0.00 in0.0 mm 0.10 in2.5 mm
05:43 PM 35.5°F1.9°C 30.9°F-0.6°C 83% 7.2 mph W11.6 kmh W 8.0 mph12.9 kmh 29.91 in1012.9 mb 0.00 in0.0 mm 0.00 in0.0 mm 0.10 in2.5 mm
05:42 PM 35.5°F1.9°C 30.9°F-0.6°C 83% 6.7 mph W10.8 kmh W 8.0 mph12.9 kmh 29.91 in1012.9 mb 0.00 in0.0 mm 0.00 in0.0 mm 0.10 in2.5 mm
05:41 PM 35.5°F1.9°C 30.9°F-0.6°C 83% 6.5 mph W10.5 kmh W 7.0 mph11.3 kmh 29.91 in1012.9 mb 0.00 in0.0 mm 0.00 in0.0 mm 0.10 in2.5 mm
05:40 PM 35.6°F2.0°C 31.0°F-0.6°C 83% 6.6 mph W10.6 kmh W 7.0 mph11.3 kmh 29.91 in1012.9 mb 0.00 in0.0 mm 0.00 in0.0 mm 0.10 in2.5 mm
05:39 PM 35.7°F2.1°C 31.1°F-0.5°C 83% 6.7 mph W10.8 kmh W 7.0 mph11.3 kmh 29.91 in1012.9 mb 0.00 in0.0 mm 0.00 in0.0 mm 0.10 in2.5 mm
05:38 PM 35.6°F2.0°C 31.0°F-0.6°C 83% 6.7 mph W10.8 kmh W 8.0 mph12.9 kmh 29.91 in1012.9 mb 0.00 in0.0 mm 0.00 in0.0 mm 0.10 in2.5 mm
05:37 PM 35.7°F2.1°C 31.1°F-0.5°C 83% 6.6 mph W10.6 kmh W 8.0 mph12.9 kmh 29.91 in1012.9 mb 0.00 in0.0 mm 0.00 in0.0 mm 0.10 in2.5 mm
05:36 PM 35.8°F2.1°C 31.2°F-0.4°C 83% 6.9 mph W11.1 kmh W 8.0 mph12.9 kmh 29.91 in1012.9 mb 0.00 in0.0 mm 0.00 in0.0 mm 0.10 in2.5 mm
05:35 PM 35.8°F2.1°C 31.2°F-0.4°C 83% 6.8 mph W10.9 kmh W 8.0 mph12.9 kmh 29.91 in1012.9 mb 0.00 in0.0 mm 0.00 in0.0 mm 0.10 in2.5 mm
05:34 PM 35.8°F2.1°C 31.2°F-0.4°C 83% 7.1 mph W11.4 kmh W 8.0 mph12.9 kmh 29.91 in1012.9 mb 0.00 in0.0 mm 0.00 in0.0 mm 0.10 in2.5 mm
05:33 PM 35.9°F2.2°C 31.2°F-0.4°C 83% 7.2 mph W11.6 kmh W 8.0 mph12.9 kmh 29.91 in1012.9 mb 0.00 in0.0 mm 0.00 in0.0 mm 0.10 in2.5 mm
05:32 PM 35.9°F2.2°C 31.2°F-0.4°C 83% 6.5 mph W10.5 kmh W 7.0 mph11.3 kmh 29.91 in1012.9 mb 0.00 in0.0 mm 0.00 in0.0 mm 0.10 in2.5 mm
05:31 PM 35.9°F2.2°C 31.2°F-0.4°C 83% 5.6 mph WNW9.0 kmh WNW 7.0 mph11.3 kmh 29.91 in1012.9 mb 0.00 in0.0 mm 0.00 in0.0 mm 0.10 in2.5 mm
05:30 PM 35.9°F2.2°C 31.2°F-0.4°C 83% 5.7 mph WNW9.2 kmh WNW 7.0 mph11.3 kmh 29.91 in1012.9 mb 0.00 in0.0 mm 0.00 in0.0 mm 0.10 in2.5 mm
05:29 PM 36.0°F2.2°C 31.3°F-0.4°C 83% 6.1 mph WNW9.8 kmh WNW 7.0 mph11.3 kmh 29.91 in1012.9 mb 0.00 in0.0 mm 0.00 in0.0 mm 0.10 in2.5 mm
05:28 PM 36.0°F2.2°C 31.3°F-0.4°C 83% 6.9 mph W11.1 kmh W 8.0 mph12.9 kmh 29.91 in1012.9 mb 0.00 in0.0 mm 0.00 in0.0 mm 0.10 in2.5 mm
05:27 PM 36.0°F2.2°C 31.3°F-0.4°C 83% 6.9 mph W11.1 kmh W 8.0 mph12.9 kmh 29.91 in1012.9 mb 0.00 in0.0 mm 0.00 in0.0 mm 0.10 in2.5 mm
05:26 PM 36.1°F2.3°C 31.1°F-0.5°C 82% 6.9 mph W11.1 kmh W 8.0 mph12.9 kmh 29.91 in1012.9 mb 0.00 in0.0 mm 0.00 in0.0 mm 0.10 in2.5 mm
05:25 PM 36.1°F2.3°C 31.1°F-0.5°C 82% 7.1 mph W11.4 kmh W 8.0 mph12.9 kmh 29.91 in1012.9 mb 0.00 in0.0 mm 0.00 in0.0 mm 0.10 in2.5 mm
05:24 PM 36.2°F2.3°C 31.2°F-0.4°C 82% 7.5 mph W12.1 kmh W 8.0 mph12.9 kmh 29.91 in1012.9 mb 0.00 in0.0 mm 0.00 in0.0 mm 0.10 in2.5 mm
05:23 PM 36.2°F2.3°C 31.5°F-0.3°C 83% 7.3 mph W11.7 kmh W 8.0 mph12.9 kmh 29.91 in1012.9 mb 0.00 in0.0 mm 0.00 in0.0 mm 0.10 in2.5 mm
05:22 PM 36.3°F2.4°C 31.6°F-0.2°C 83% 7.0 mph W11.3 kmh W 9.0 mph14.5 kmh 29.91 in1012.9 mb 0.00 in0.0 mm 0.00 in0.0 mm 0.10 in2.5 mm
05:21 PM 36.2°F2.3°C 31.5°F-0.3°C 83% 7.3 mph W11.7 kmh W 9.0 mph14.5 kmh 29.91 in1012.9 mb 0.00 in0.0 mm 0.00 in0.0 mm 0.10 in2.5 mm
05:20 PM 36.2°F2.3°C 31.5°F-0.3°C 83% 7.7 mph W12.4 kmh W 9.0 mph14.5 kmh 29.91 in1012.9 mb 0.00 in0.0 mm 0.00 in0.0 mm 0.10 in2.5 mm
05:19 PM 36.1°F2.3°C 31.1°F-0.5°C 82% 7.0 mph W11.3 kmh W 8.0 mph12.9 kmh 29.91 in1012.9 mb 0.00 in0.0 mm 0.00 in0.0 mm 0.10 in2.5 mm
05:18 PM 36.2°F2.3°C 31.2°F-0.4°C 82% 7.0 mph W11.3 kmh W 8.0 mph12.9 kmh 29.91 in1012.9 mb 0.00 in0.0 mm 0.00 in0.0 mm 0.10 in2.5 mm
05:17 PM 36.2°F2.3°C 31.2°F-0.4°C 82% 6.7 mph W10.8 kmh W 8.0 mph12.9 kmh 29.91 in1012.9 mb 0.00 in0.0 mm 0.00 in0.0 mm 0.10 in2.5 mm
05:16 PM 36.2°F2.3°C 31.2°F-0.4°C 82% 6.8 mph W10.9 kmh W 8.0 mph12.9 kmh 29.91 in1012.9 mb 0.00 in0.0 mm 0.00 in0.0 mm 0.10 in2.5 mm
05:15 PM 36.2°F2.3°C 31.2°F-0.4°C 82% 5.9 mph WNW9.5 kmh WNW 7.0 mph11.3 kmh 29.91 in1012.9 mb 0.00 in0.0 mm 0.00 in0.0 mm 0.10 in2.5 mm
05:14 PM 36.3°F2.4°C 31.3°F-0.4°C 82% 5.5 mph WNW8.9 kmh WNW 7.0 mph11.3 kmh 29.91 in1012.9 mb 0.00 in0.0 mm 0.00 in0.0 mm 0.10 in2.5 mm
05:13 PM 36.3°F2.4°C 31.3°F-0.4°C 82% 4.9 mph WNW7.9 kmh WNW 7.0 mph11.3 kmh 29.91 in1012.9 mb 0.00 in0.0 mm 0.00 in0.0 mm 0.10 in2.5 mm
05:12 PM 36.3°F2.4°C 31.3°F-0.4°C 82% 5.2 mph WNW8.4 kmh WNW 7.0 mph11.3 kmh 29.91 in1012.9 mb 0.00 in0.0 mm 0.00 in0.0 mm 0.10 in2.5 mm
05:11 PM 36.3°F2.4°C 31.3°F-0.4°C 82% 5.3 mph WNW8.5 kmh WNW 7.0 mph11.3 kmh 29.91 in1012.9 mb 0.00 in0.0 mm 0.00 in0.0 mm 0.10 in2.5 mm
05:10 PM 36.4°F2.4°C 31.4°F-0.3°C 82% 5.0 mph WNW8.0 kmh WNW 7.0 mph11.3 kmh 29.91 in1012.9 mb 0.00 in0.0 mm 0.00 in0.0 mm 0.10 in2.5 mm
05:09 PM 36.3°F2.4°C 31.3°F-0.4°C 82% 5.5 mph WNW8.9 kmh WNW 7.0 mph11.3 kmh 29.91 in1012.9 mb 0.00 in0.0 mm 0.00 in0.0 mm 0.10 in2.5 mm
05:08 PM 36.4°F2.4°C 31.4°F-0.3°C 82% 5.7 mph WNW9.2 kmh WNW 8.0 mph12.9 kmh 29.91 in1012.9 mb 0.00 in0.0 mm 0.00 in0.0 mm 0.10 in2.5 mm
05:07 PM 36.4°F2.4°C 31.4°F-0.3°C 82% 6.5 mph WNW10.5 kmh WNW 8.0 mph12.9 kmh 29.91 in1012.9 mb 0.00 in0.0 mm 0.00 in0.0 mm 0.10 in2.5 mm
05:06 PM 36.4°F2.4°C 31.4°F-0.3°C 82% 6.9 mph WNW11.1 kmh WNW 8.0 mph12.9 kmh 29.91 in1012.9 mb 0.00 in0.0 mm 0.00 in0.0 mm 0.10 in2.5 mm
05:05 PM 36.4°F2.4°C 31.4°F-0.3°C 82% 6.9 mph WNW11.1 kmh WNW 8.0 mph12.9 kmh 29.91 in1012.9 mb 0.00 in0.0 mm 0.00 in0.0 mm 0.10 in2.5 mm
05:04 PM 36.4°F2.4°C 31.4°F-0.3°C 82% 7.0 mph WNW11.3 kmh WNW 8.0 mph12.9 kmh 29.91 in1012.9 mb 0.00 in0.0 mm 0.00 in0.0 mm 0.10 in2.5 mm
05:03 PM 36.4°F2.4°C 31.4°F-0.3°C 82% 7.0 mph WNW11.3 kmh WNW 7.0 mph11.3 kmh 29.91 in1012.9 mb 0.00 in0.0 mm 0.00 in0.0 mm 0.10 in2.5 mm
05:02 PM 36.4°F2.4°C 31.4°F-0.3°C 82% 6.0 mph WNW9.7 kmh WNW 7.0 mph11.3 kmh 29.91 in1012.9 mb 0.00 in0.0 mm 0.00 in0.0 mm 0.10 in2.5 mm
05:01 PM 36.4°F2.4°C 31.4°F-0.3°C 82% 7.0 mph WNW11.3 kmh WNW 8.0 mph12.9 kmh 29.91 in1012.9 mb 0.00 in0.0 mm 0.00 in0.0 mm 0.10 in2.5 mm
05:00 PM 36.5°F2.5°C 31.5°F-0.3°C 82% 6.3 mph WNW10.1 kmh WNW 8.0 mph12.9 kmh 29.91 in1012.9 mb 0.00 in0.0 mm 0.00 in0.0 mm 0.10 in2.5 mm
04:59 PM 36.4°F2.4°C 31.4°F-0.3°C 82% 6.8 mph WNW10.9 kmh WNW 8.0 mph12.9 kmh 29.91 in1012.9 mb 0.00 in0.0 mm 0.00 in0.0 mm 0.10 in2.5 mm
04:58 PM 36.4°F2.4°C 31.4°F-0.3°C 82% 7.1 mph WNW11.4 kmh WNW 8.0 mph12.9 kmh 29.91 in1012.9 mb 0.00 in0.0 mm 0.00 in0.0 mm 0.10 in2.5 mm
04:57 PM 36.5°F2.5°C 31.5°F-0.3°C 82% 7.0 mph WNW11.3 kmh WNW 8.0 mph12.9 kmh 29.91 in1012.9 mb 0.00 in0.0 mm 0.00 in0.0 mm 0.10 in2.5 mm
04:56 PM 36.5°F2.5°C 31.5°F-0.3°C 82% 6.8 mph WNW10.9 kmh WNW 8.0 mph12.9 kmh 29.91 in1012.9 mb 0.00 in0.0 mm 0.00 in0.0 mm 0.10 in2.5 mm
04:55 PM 36.4°F2.4°C 31.7°F-0.2°C 83% 6.5 mph WNW10.5 kmh WNW 8.0 mph12.9 kmh 29.91 in1012.9 mb 0.00 in0.0 mm 0.00 in0.0 mm 0.10 in2.5 mm
04:54 PM 36.4°F2.4°C 31.4°F-0.3°C 82% 6.9 mph WNW11.1 kmh WNW 8.0 mph12.9 kmh 29.91 in1012.9 mb 0.00 in0.0 mm 0.00 in0.0 mm 0.10 in2.5 mm
04:53 PM 36.4°F2.4°C 31.4°F-0.3°C 82% 6.1 mph WNW9.8 kmh WNW 8.0 mph12.9 kmh 29.91 in1012.9 mb 0.00 in0.0 mm 0.00 in0.0 mm 0.10 in2.5 mm
04:52 PM 36.4°F2.4°C 31.4°F-0.3°C 82% 7.1 mph WNW11.4 kmh WNW 8.0 mph12.9 kmh 29.91 in1012.9 mb 0.00 in0.0 mm 0.00 in0.0 mm 0.10 in2.5 mm
04:51 PM 36.4°F2.4°C 31.4°F-0.3°C 82% 6.3 mph WNW10.1 kmh WNW 8.0 mph12.9 kmh 29.92 in1013.2 mb 0.00 in0.0 mm 0.00 in0.0 mm 0.10 in2.5 mm
04:50 PM 36.4°F2.4°C 31.4°F-0.3°C 82% 5.3 mph WNW8.5 kmh WNW 7.0 mph11.3 kmh 29.91 in1012.9 mb 0.00 in0.0 mm 0.00 in0.0 mm 0.10 in2.5 mm
04:49 PM 36.4°F2.4°C 31.4°F-0.3°C 82% 6.0 mph WNW9.7 kmh WNW 7.0 mph11.3 kmh 29.91 in1012.9 mb 0.00 in0.0 mm 0.00 in0.0 mm 0.10 in2.5 mm
04:48 PM 36.4°F2.4°C 31.4°F-0.3°C 82% 6.0 mph WNW9.7 kmh WNW 7.0 mph11.3 kmh 29.91 in1012.9 mb 0.00 in0.0 mm 0.00 in0.0 mm 0.10 in2.5 mm
04:47 PM 36.5°F2.5°C 31.5°F-0.3°C 82% 6.2 mph W10.0 kmh W 7.0 mph11.3 kmh 29.91 in1012.9 mb 0.00 in0.0 mm 0.00 in0.0 mm 0.10 in2.5 mm
04:46 PM 36.5°F2.5°C 31.5°F-0.3°C 82% 6.0 mph W9.7 kmh W 7.0 mph11.3 kmh 29.91 in1012.9 mb 0.00 in0.0 mm 0.00 in0.0 mm 0.10 in2.5 mm
04:45 PM 36.6°F2.6°C 31.6°F-0.2°C 82% 6.0 mph W9.7 kmh W 8.0 mph12.9 kmh 29.91 in1012.9 mb 0.00 in0.0 mm 0.00 in0.0 mm 0.10 in2.5 mm
04:44 PM 36.6°F2.6°C 31.6°F-0.2°C 82% 7.3 mph W11.7 kmh W 8.0 mph12.9 kmh 29.91 in1012.9 mb 0.00 in0.0 mm 0.00 in0.0 mm 0.10 in2.5 mm
04:43 PM 36.6°F2.6°C 31.6°F-0.2°C 82% 7.2 mph W11.6 kmh W 8.0 mph12.9 kmh 29.91 in1012.9 mb 0.00 in0.0 mm 0.00 in0.0 mm 0.10 in2.5 mm
04:42 PM 36.7°F2.6°C 31.7°F-0.2°C 82% 7.4 mph W11.9 kmh W 8.0 mph12.9 kmh 29.91 in1012.9 mb 0.00 in0.0 mm 0.00 in0.0 mm 0.10 in2.5 mm
04:41 PM 36.8°F2.7°C 31.5°F-0.3°C 81% 7.0 mph W11.3 kmh W 8.0 mph12.9 kmh 29.91 in1012.9 mb 0.00 in0.0 mm 0.00 in0.0 mm 0.10 in2.5 mm
04:40 PM 36.8°F2.7°C 31.5°F-0.3°C 81% 6.9 mph W11.1 kmh W 8.0 mph12.9 kmh 29.91 in1012.9 mb 0.00 in0.0 mm 0.00 in0.0 mm 0.10 in2.5 mm
04:39 PM 36.9°F2.7°C 31.6°F-0.2°C 81% 7.0 mph W11.3 kmh W 9.0 mph14.5 kmh 29.92 in1013.2 mb 0.00 in0.0 mm 0.00 in0.0 mm 0.10 in2.5 mm
04:38 PM 37.0°F2.8°C 31.7°F-0.2°C 81% 7.0 mph W11.3 kmh W 9.0 mph14.5 kmh 29.92 in1013.2 mb 0.00 in0.0 mm 0.00 in0.0 mm 0.10 in2.5 mm
04:37 PM 37.0°F2.8°C 31.7°F-0.2°C 81% 7.4 mph WNW11.9 kmh WNW 9.0 mph14.5 kmh 29.92 in1013.2 mb 0.00 in0.0 mm 0.00 in0.0 mm 0.10 in2.5 mm
04:36 PM 37.0°F2.8°C 31.7°F-0.2°C 81% 7.1 mph WNW11.4 kmh WNW 9.0 mph14.5 kmh 29.92 in1013.2 mb 0.00 in0.0 mm 0.00 in0.0 mm 0.10 in2.5 mm
04:35 PM 37.0°F2.8°C 31.7°F-0.2°C 81% 8.2 mph WNW13.2 kmh WNW 10.0 mph16.1 kmh 29.91 in1012.9 mb 0.00 in0.0 mm 0.00 in0.0 mm 0.10 in2.5 mm
04:34 PM 37.0°F2.8°C 31.7°F-0.2°C 81% 8.2 mph WNW13.2 kmh WNW 10.0 mph16.1 kmh 29.91 in1012.9 mb 0.00 in0.0 mm 0.00 in0.0 mm 0.10 in2.5 mm
04:33 PM 37.0°F2.8°C 31.7°F-0.2°C 81% 7.9 mph WNW12.7 kmh WNW 9.0 mph14.5 kmh 29.91 in1012.9 mb 0.00 in0.0 mm 0.00 in0.0 mm 0.10 in2.5 mm
04:32 PM 37.0°F2.8°C 31.7°F-0.2°C 81% 7.5 mph WNW12.1 kmh WNW 9.0 mph14.5 kmh 29.91 in1012.9 mb 0.00 in0.0 mm 0.00 in0.0 mm 0.10 in2.5 mm
04:31 PM 37.0°F2.8°C 31.7°F-0.2°C 81% 7.7 mph WNW12.4 kmh WNW 10.0 mph16.1 kmh 29.91 in1012.9 mb 0.00 in0.0 mm 0.00 in0.0 mm 0.10 in2.5 mm
04:30 PM 37.0°F2.8°C 31.7°F-0.2°C 81% 7.8 mph WNW12.6 kmh WNW 10.0 mph16.1 kmh 29.92 in1013.2 mb 0.00 in0.0 mm 0.00 in0.0 mm 0.10 in2.5 mm
04:29 PM 37.0°F2.8°C 31.7°F-0.2°C 81% 8.0 mph WNW12.9 kmh WNW 9.0 mph14.5 kmh 29.91 in1012.9 mb 0.00 in0.0 mm 0.00 in0.0 mm 0.10 in2.5 mm
04:28 PM 37.0°F2.8°C 31.7°F-0.2°C 81% 7.6 mph WNW12.2 kmh WNW 9.0 mph14.5 kmh 29.91 in1012.9 mb 0.00 in0.0 mm 0.00 in0.0 mm 0.10 in2.5 mm
04:27 PM 37.0°F2.8°C 31.7°F-0.2°C 81% 7.4 mph WNW11.9 kmh WNW 8.0 mph12.9 kmh 29.91 in1012.9 mb 0.00 in0.0 mm 0.00 in0.0 mm 0.10 in2.5 mm
04:26 PM 37.0°F2.8°C 31.7°F-0.2°C 81% 7.4 mph W11.9 kmh W 9.0 mph14.5 kmh 29.91 in1012.9 mb 0.00 in0.0 mm 0.00 in0.0 mm 0.10 in2.5 mm
04:25 PM 37.0°F2.8°C 31.7°F-0.2°C 81% 7.2 mph W11.6 kmh W 9.0 mph14.5 kmh 29.91 in1012.9 mb 0.00 in0.0 mm 0.00 in0.0 mm 0.10 in2.5 mm
04:24 PM 37.0°F2.8°C 31.7°F-0.2°C 81% 7.0 mph WNW11.3 kmh WNW 8.0 mph12.9 kmh 29.91 in1012.9 mb 0.00 in0.0 mm 0.00 in0.0 mm 0.10 in2.5 mm
04:23 PM 37.0°F2.8°C 31.7°F-0.2°C 81% 7.0 mph W11.3 kmh W 8.0 mph12.9 kmh 29.91 in1012.9 mb 0.00 in0.0 mm 0.00 in0.0 mm 0.10 in2.5 mm
04:22 PM 37.0°F2.8°C 31.7°F-0.2°C 81% 7.3 mph W11.7 kmh W 8.0 mph12.9 kmh 29.91 in1012.9 mb 0.00 in0.0 mm 0.00 in0.0 mm 0.10 in2.5 mm
04:21 PM 37.1°F2.8°C 31.8°F-0.1°C 81% 7.2 mph W11.6 kmh W 8.0 mph12.9 kmh 29.91 in1012.9 mb 0.00 in0.0 mm 0.00 in0.0 mm 0.10 in2.5 mm
04:20 PM 37.2°F2.9°C 31.9°F-0.1°C 81% 7.2 mph W11.6 kmh W 8.0 mph12.9 kmh 29.91 in1012.9 mb 0.00 in0.0 mm 0.00 in0.0 mm 0.10 in2.5 mm
04:19 PM 37.2°F2.9°C 31.9°F-0.1°C 81% 7.2 mph W11.6 kmh W 9.0 mph14.5 kmh 29.91 in1012.9 mb 0.00 in0.0 mm 0.00 in0.0 mm 0.10 in2.5 mm
04:18 PM 37.3°F2.9°C 32.0°F0.0°C 81% 7.4 mph W11.9 kmh W 9.0 mph14.5 kmh 29.91 in1012.9 mb 0.00 in0.0 mm 0.00 in0.0 mm 0.10 in2.5 mm
04:17 PM 37.3°F2.9°C 32.0°F0.0°C 81% 7.3 mph W11.7 kmh W 9.0 mph14.5 kmh 29.91 in1012.9 mb 0.00 in0.0 mm 0.00 in0.0 mm 0.10 in2.5 mm
04:16 PM 37.3°F2.9°C 32.0°F0.0°C 81% 8.1 mph W13.0 kmh W 9.0 mph14.5 kmh 29.91 in1012.9 mb 0.00 in0.0 mm 0.00 in0.0 mm 0.10 in2.5 mm
04:15 PM 37.4°F3.0°C 32.1°F0.1°C 81% 8.0 mph W12.9 kmh W 9.0 mph14.5 kmh 29.91 in1012.9 mb 0.00 in0.0 mm 0.00 in0.0 mm 0.10 in2.5 mm
04:14 PM 37.4°F3.0°C 32.1°F0.1°C 81% 8.0 mph W12.9 kmh W 9.0 mph14.5 kmh 29.91 in1012.9 mb 0.00 in0.0 mm 0.00 in0.0 mm 0.10 in2.5 mm
04:13 PM 37.4°F3.0°C 32.1°F0.1°C 81% 8.1 mph WNW13.0 kmh WNW 9.0 mph14.5 kmh 29.91 in1012.9 mb 0.00 in0.0 mm 0.00 in0.0 mm 0.10 in2.5 mm
04:12 PM 37.4°F3.0°C 32.1°F0.1°C 81% 8.0 mph WNW12.9 kmh WNW 9.0 mph14.5 kmh 29.91 in1012.9 mb 0.00 in0.0 mm 0.00 in0.0 mm 0.10 in2.5 mm
04:11 PM 37.4°F3.0°C 32.1°F0.1°C 81% 7.7 mph WNW12.4 kmh WNW 9.0 mph14.5 kmh 29.91 in1012.9 mb 0.00 in0.0 mm 0.00 in0.0 mm 0.10 in2.5 mm
04:10 PM 37.5°F3.1°C 32.2°F0.1°C 81% 8.0 mph WNW12.9 kmh WNW 9.0 mph14.5 kmh 29.91 in1012.9 mb 0.00 in0.0 mm 0.00 in0.0 mm 0.10 in2.5 mm
04:09 PM 37.5°F3.1°C 32.2°F0.1°C 81% 7.9 mph WNW12.7 kmh WNW 9.0 mph14.5 kmh 29.91 in1012.9 mb 0.00 in0.0 mm 0.00 in0.0 mm 0.10 in2.5 mm
04:08 PM 37.6°F3.1°C 32.3°F0.2°C 81% 8.0 mph WNW12.9 kmh WNW 9.0 mph14.5 kmh 29.91 in1012.9 mb 0.00 in0.0 mm 0.00 in0.0 mm 0.10 in2.5 mm
04:07 PM 37.6°F3.1°C 32.0°F0.0°C 80% 8.3 mph WNW13.4 kmh WNW 9.0 mph14.5 kmh 29.91 in1012.9 mb 0.00 in0.0 mm 0.00 in0.0 mm 0.10 in2.5 mm
04:06 PM 37.7°F3.2°C 32.1°F0.1°C 80% 8.2 mph NW13.2 kmh NW 9.0 mph14.5 kmh 29.91 in1012.9 mb 0.00 in0.0 mm 0.00 in0.0 mm 0.10 in2.5 mm
04:05 PM 37.7°F3.2°C 32.1°F0.1°C 80% 8.0 mph NW12.9 kmh NW 8.0 mph12.9 kmh 29.91 in1012.9 mb 0.00 in0.0 mm 0.00 in0.0 mm 0.10 in2.5 mm
04:04 PM 37.7°F3.2°C 32.1°F0.1°C 80% 8.0 mph NW12.9 kmh NW 9.0 mph14.5 kmh 29.91 in1012.9 mb 0.00 in0.0 mm 0.00 in0.0 mm 0.10 in2.5 mm
04:03 PM 37.8°F3.2°C 32.2°F0.1°C 80% 9.0 mph NW14.5 kmh NW 9.0 mph14.5 kmh 29.91 in1012.9 mb 0.00 in0.0 mm 0.00 in0.0 mm 0.10 in2.5 mm
04:02 PM 37.9°F3.3°C 32.3°F0.2°C 80% 9.4 mph NW15.1 kmh NW 11.0 mph17.7 kmh 29.91 in1012.9 mb 0.00 in0.0 mm 0.00 in0.0 mm 0.10 in2.5 mm
04:01 PM 37.9°F3.3°C 32.3°F0.2°C 80% 8.5 mph NW13.7 kmh NW 9.0 mph14.5 kmh 29.91 in1012.9 mb 0.00 in0.0 mm 0.00 in0.0 mm 0.10 in2.5 mm
04:00 PM 37.9°F3.3°C 32.3°F0.2°C 80% 9.0 mph NW14.5 kmh NW 10.0 mph16.1 kmh 29.91 in1012.9 mb 0.00 in0.0 mm 0.00 in0.0 mm 0.10 in2.5 mm
03:59 PM 38.0°F3.3°C 32.4°F0.2°C 80% 9.0 mph NW14.5 kmh NW 10.0 mph16.1 kmh 29.91 in1012.9 mb 0.00 in0.0 mm 0.00 in0.0 mm 0.10 in2.5 mm
03:58 PM 38.0°F3.3°C 32.4°F0.2°C 80% 8.6 mph NW13.8 kmh NW 10.0 mph16.1 kmh 29.91 in1012.9 mb 0.00 in0.0 mm 0.00 in0.0 mm 0.10 in2.5 mm
03:57 PM 38.0°F3.3°C 32.4°F0.2°C 80% 9.2 mph NW14.8 kmh NW 10.0 mph16.1 kmh 29.91 in1012.9 mb 0.00 in0.0 mm 0.00 in0.0 mm 0.10 in2.5 mm
03:56 PM 38.0°F3.3°C 32.4°F0.2°C 80% 9.2 mph NW14.8 kmh NW 10.0 mph16.1 kmh 29.91 in1012.9 mb 0.00 in0.0 mm 0.00 in0.0 mm 0.10 in2.5 mm
03:55 PM 38.0°F3.3°C 32.4°F0.2°C 80% 9.0 mph NW14.5 kmh NW 10.0 mph16.1 kmh 29.91 in1012.9 mb 0.00 in0.0 mm 0.00 in0.0 mm 0.10 in2.5 mm
03:54 PM 38.1°F3.4°C 32.2°F0.1°C 79% 9.0 mph NW14.5 kmh NW 11.0 mph17.7 kmh 29.91 in1012.9 mb 0.00 in0.0 mm 0.00 in0.0 mm 0.10 in2.5 mm
03:53 PM 38.1°F3.4°C 32.2°F0.1°C 79% 9.3 mph NW15.0 kmh NW 11.0 mph17.7 kmh 29.91 in1012.9 mb 0.00 in0.0 mm 0.00 in0.0 mm 0.10 in2.5 mm
03:52 PM 38.1°F3.4°C 32.2°F0.1°C 79% 9.4 mph NW15.1 kmh NW 11.0 mph17.7 kmh 29.91 in1012.9 mb 0.00 in0.0 mm 0.00 in0.0 mm 0.10 in2.5 mm
03:51 PM 38.1°F3.4°C 32.2°F0.1°C 79% 9.6 mph NW15.4 kmh NW 11.0 mph17.7 kmh 29.91 in1012.9 mb 0.00 in0.0 mm 0.00 in0.0 mm 0.10 in2.5 mm
03:50 PM 38.2°F3.4°C 32.3°F0.2°C 79% 9.6 mph NW15.4 kmh NW 11.0 mph17.7 kmh 29.91 in1012.9 mb 0.00 in0.0 mm 0.00 in0.0 mm 0.10 in2.5 mm
03:49 PM 38.1°F3.4°C 32.2°F0.1°C 79% 9.6 mph NW15.4 kmh NW 11.0 mph17.7 kmh 29.91 in1012.9 mb 0.00 in0.0 mm 0.00 in0.0 mm 0.10 in2.5 mm
03:48 PM 38.2°F3.4°C 32.3°F0.2°C 79% 9.9 mph NW15.9 kmh NW 11.0 mph17.7 kmh 29.91 in1012.9 mb 0.00 in0.0 mm 0.00 in0.0 mm 0.10 in2.5 mm
03:47 PM 38.3°F3.5°C 32.4°F0.2°C 79% 9.4 mph NW15.1 kmh NW 11.0 mph17.7 kmh 29.91 in1012.9 mb 0.00 in0.0 mm 0.00 in0.0 mm 0.10 in2.5 mm
03:46 PM 38.3°F3.5°C 32.4°F0.2°C 79% 9.8 mph NW15.8 kmh NW 11.0 mph17.7 kmh 29.91 in1012.9 mb 0.00 in0.0 mm 0.00 in0.0 mm 0.10 in2.5 mm
03:45 PM 38.3°F3.5°C 32.4°F0.2°C 79% 10.1 mph NW16.3 kmh NW 11.0 mph17.7 kmh 29.91 in1012.9 mb 0.00 in0.0 mm 0.00 in0.0 mm 0.10 in2.5 mm
03:44 PM 38.3°F3.5°C 32.4°F0.2°C 79% 9.7 mph NW15.6 kmh NW 11.0 mph17.7 kmh 29.91 in1012.9 mb 0.00 in0.0 mm 0.00 in0.0 mm 0.10 in2.5 mm
03:43 PM 38.3°F3.5°C 32.4°F0.2°C 79% 10.3 mph NW16.6 kmh NW 12.0 mph19.3 kmh 29.91 in1012.9 mb 0.00 in0.0 mm 0.00 in0.0 mm 0.10 in2.5 mm
03:42 PM 38.4°F3.6°C 32.5°F0.3°C 79% 10.8 mph NW17.4 kmh NW 12.0 mph19.3 kmh 29.91 in1012.9 mb 0.00 in0.0 mm 0.00 in0.0 mm 0.10 in2.5 mm
03:41 PM 38.4°F3.6°C 32.5°F0.3°C 79% 10.0 mph WNW16.1 kmh WNW 11.0 mph17.7 kmh 29.91 in1012.9 mb 0.00 in0.0 mm 0.00 in0.0 mm 0.10 in2.5 mm
03:40 PM 38.4°F3.6°C 32.5°F0.3°C 79% 11.0 mph WNW17.7 kmh WNW 12.0 mph19.3 kmh 29.91 in1012.9 mb 0.00 in0.0 mm 0.00 in0.0 mm 0.10 in2.5 mm
03:39 PM 38.4°F3.6°C 32.5°F0.3°C 79% 10.5 mph NW16.9 kmh NW 11.0 mph17.7 kmh 29.91 in1012.9 mb 0.00 in0.0 mm 0.00 in0.0 mm 0.10 in2.5 mm
03:38 PM 38.5°F3.6°C 32.6°F0.3°C 79% 10.1 mph NW16.3 kmh NW 13.0 mph20.9 kmh 29.91 in1012.9 mb 0.00 in0.0 mm 0.00 in0.0 mm 0.10 in2.5 mm
03:37 PM 38.6°F3.7°C 32.7°F0.4°C 79% 11.1 mph NW17.9 kmh NW 13.0 mph20.9 kmh 29.91 in1012.9 mb 0.00 in0.0 mm 0.00 in0.0 mm 0.10 in2.5 mm
03:36 PM 38.6°F3.7°C 32.7°F0.4°C 79% 10.7 mph NW17.2 kmh NW 12.0 mph19.3 kmh 29.91 in1012.9 mb 0.00 in0.0 mm 0.00 in0.0 mm 0.10 in2.5 mm
03:35 PM 38.6°F3.7°C 32.7°F0.4°C 79% 10.8 mph NW17.4 kmh NW 12.0 mph19.3 kmh 29.91 in1012.9 mb 0.00 in0.0 mm 0.00 in0.0 mm 0.10 in2.5 mm
03:34 PM 38.6°F3.7°C 32.7°F0.4°C 79% 10.6 mph NW17.1 kmh NW 12.0 mph19.3 kmh 29.91 in1012.9 mb 0.00 in0.0 mm 0.00 in0.0 mm 0.10 in2.5 mm
03:33 PM 38.6°F3.7°C 32.7°F0.4°C 79% 11.2 mph NW18.0 kmh NW 12.0 mph19.3 kmh 29.91 in1012.9 mb 0.00 in0.0 mm 0.00 in0.0 mm 0.10 in2.5 mm
03:32 PM 38.6°F3.7°C 32.7°F0.4°C 79% 11.0 mph NW17.7 kmh NW 12.0 mph19.3 kmh 29.91 in1012.9 mb 0.00 in0.0 mm 0.00 in0.0 mm 0.10 in2.5 mm
03:31 PM 38.6°F3.7°C 32.7°F0.4°C 79% 11.0 mph WNW17.7 kmh WNW 12.0 mph19.3 kmh 29.91 in1012.9 mb 0.00 in0.0 mm 0.00 in0.0 mm 0.10 in2.5 mm
03:30 PM 38.6°F3.7°C 32.7°F0.4°C 79% 10.9 mph NW17.5 kmh NW 12.0 mph19.3 kmh 29.91 in1012.9 mb 0.00 in0.0 mm 0.00 in0.0 mm 0.10 in2.5 mm
03:29 PM 38.7°F3.7°C 32.8°F0.4°C 79% 10.9 mph NW17.5 kmh NW 12.0 mph19.3 kmh 29.91 in1012.9 mb 0.00 in0.0 mm 0.00 in0.0 mm 0.10 in2.5 mm
03:28 PM 38.6°F3.7°C 32.7°F0.4°C 79% 10.9 mph NW17.5 kmh NW 12.0 mph19.3 kmh 29.91 in1012.9 mb 0.00 in0.0 mm 0.00 in0.0 mm 0.10 in2.5 mm
03:27 PM 38.6°F3.7°C 32.7°F0.4°C 79% 11.0 mph NW17.7 kmh NW 12.0 mph19.3 kmh 29.91 in1012.9 mb 0.00 in0.0 mm 0.00 in0.0 mm 0.10 in2.5 mm
03:26 PM 38.7°F3.7°C 32.4°F0.2°C 78% 11.0 mph NW17.7 kmh NW 12.0 mph19.3 kmh 29.91 in1012.9 mb 0.00 in0.0 mm 0.00 in0.0 mm 0.10 in2.5 mm
03:25 PM 38.6°F3.7°C 32.3°F0.2°C 78% 11.0 mph NW17.7 kmh NW 12.0 mph19.3 kmh 29.91 in1012.9 mb 0.00 in0.0 mm 0.00 in0.0 mm 0.10 in2.5 mm
03:24 PM 38.7°F3.7°C 32.4°F0.2°C 78% 11.1 mph NW17.9 kmh NW 13.0 mph20.9 kmh 29.91 in1012.9 mb 0.00 in0.0 mm 0.00 in0.0 mm 0.10 in2.5 mm
03:23 PM 38.7°F3.7°C 32.8°F0.4°C 79% 11.1 mph NW17.9 kmh NW 12.0 mph19.3 kmh 29.91 in1012.9 mb 0.00 in0.0 mm 0.00 in0.0 mm 0.10 in2.5 mm
03:22 PM 38.7°F3.7°C 32.8°F0.4°C 79% 10.8 mph NW17.4 kmh NW 12.0 mph19.3 kmh 29.91 in1012.9 mb 0.00 in0.0 mm 0.00 in0.0 mm 0.10 in2.5 mm
03:21 PM 38.7°F3.7°C 32.8°F0.4°C 79% 10.3 mph NW16.6 kmh NW 13.0 mph20.9 kmh 29.91 in1012.9 mb 0.00 in0.0 mm 0.00 in0.0 mm 0.10 in2.5 mm
03:20 PM 38.6°F3.7°C 32.7°F0.4°C 79% 10.4 mph NW16.7 kmh NW 13.0 mph20.9 kmh 29.91 in1012.9 mb 0.00 in0.0 mm 0.00 in0.0 mm 0.10 in2.5 mm
03:19 PM 38.6°F3.7°C 32.7°F0.4°C 79% 10.1 mph NW16.3 kmh NW 13.0 mph20.9 kmh 29.91 in1012.9 mb 0.00 in0.0 mm 0.00 in0.0 mm 0.10 in2.5 mm
03:18 PM 38.6°F3.7°C 32.7°F0.4°C 79% 10.6 mph NW17.1 kmh NW 13.0 mph20.9 kmh 29.91 in1012.9 mb 0.00 in0.0 mm 0.00 in0.0 mm 0.10 in2.5 mm
03:17 PM 38.6°F3.7°C 32.7°F0.4°C 79% 9.9 mph NW15.9 kmh NW 12.0 mph19.3 kmh 29.91 in1012.9 mb 0.00 in0.0 mm 0.00 in0.0 mm 0.10 in2.5 mm
03:16 PM 38.6°F3.7°C 32.7°F0.4°C 79% 10.4 mph NW16.7 kmh NW 12.0 mph19.3 kmh 29.91 in1012.9 mb 0.00 in0.0 mm 0.00 in0.0 mm 0.10 in2.5 mm
03:15 PM 38.6°F3.7°C 32.7°F0.4°C 79% 10.2 mph NW16.4 kmh NW 13.0 mph20.9 kmh 29.91 in1012.9 mb 0.00 in0.0 mm 0.00 in0.0 mm 0.10 in2.5 mm
03:14 PM 38.6°F3.7°C 32.7°F0.4°C 79% 11.5 mph NW18.5 kmh NW 13.0 mph20.9 kmh 29.91 in1012.9 mb 0.00 in0.0 mm 0.00 in0.0 mm 0.10 in2.5 mm
03:13 PM 38.5°F3.6°C 32.9°F0.5°C 80% 11.0 mph NW17.7 kmh NW 11.0 mph17.7 kmh 29.91 in1012.9 mb 0.00 in0.0 mm 0.00 in0.0 mm 0.10 in2.5 mm
03:12 PM 38.5°F3.6°C 32.9°F0.5°C 80% 12.0 mph NW19.3 kmh NW 13.0 mph20.9 kmh 29.91 in1012.9 mb 0.00 in0.0 mm 0.00 in0.0 mm 0.10 in2.5 mm
03:11 PM 38.5°F3.6°C 32.9°F0.5°C 80% 12.0 mph NW19.3 kmh NW 13.0 mph20.9 kmh 29.91 in1012.9 mb 0.00 in0.0 mm 0.00 in0.0 mm 0.10 in2.5 mm
03:10 PM 38.6°F3.7°C 33.0°F0.6°C 80% 11.4 mph NW18.3 kmh NW 13.0 mph20.9 kmh 29.91 in1012.9 mb 0.00 in0.0 mm 0.00 in0.0 mm 0.10 in2.5 mm
03:09 PM 38.6°F3.7°C 33.0°F0.6°C 80% 11.9 mph NW19.2 kmh NW 13.0 mph20.9 kmh 29.91 in1012.9 mb 0.00 in0.0 mm 0.00 in0.0 mm 0.10 in2.5 mm
03:08 PM 38.6°F3.7°C 33.0°F0.6°C 80% 12.1 mph NW19.5 kmh NW 13.0 mph20.9 kmh 29.91 in1012.9 mb 0.00 in0.0 mm 0.00 in0.0 mm 0.10 in2.5 mm
03:07 PM 38.6°F3.7°C 33.0°F0.6°C 80% 12.0 mph NW19.3 kmh NW 13.0 mph20.9 kmh 29.91 in1012.9 mb 0.00 in0.0 mm 0.00 in0.0 mm 0.10 in2.5 mm
03:06 PM 38.6°F3.7°C 33.0°F0.6°C 80% 11.0 mph NW17.7 kmh NW 13.0 mph20.9 kmh 29.91 in1012.9 mb 0.00 in0.0 mm 0.00 in0.0 mm 0.10 in2.5 mm
03:05 PM 38.6°F3.7°C 33.0°F0.6°C 80% 12.0 mph NW19.3 kmh NW 13.0 mph20.9 kmh 29.91 in1012.9 mb 0.00 in0.0 mm 0.00 in0.0 mm 0.10 in2.5 mm
03:04 PM 38.6°F3.7°C 33.0°F0.6°C 80% 11.5 mph NW18.5 kmh NW 13.0 mph20.9 kmh 29.91 in1012.9 mb 0.00 in0.0 mm 0.00 in0.0 mm 0.10 in2.5 mm
03:03 PM 38.6°F3.7°C 33.0°F0.6°C 80% 11.8 mph NW19.0 kmh NW 13.0 mph20.9 kmh 29.91 in1012.9 mb 0.00 in0.0 mm 0.00 in0.0 mm 0.10 in2.5 mm
03:02 PM 38.6°F3.7°C 33.0°F0.6°C 80% 11.6 mph NW18.7 kmh NW 14.0 mph22.5 kmh 29.91 in1012.9 mb 0.00 in0.0 mm 0.00 in0.0 mm 0.10 in2.5 mm
03:01 PM 38.6°F3.7°C 33.0°F0.6°C 80% 12.3 mph NW19.8 kmh NW 14.0 mph22.5 kmh 29.91 in1012.9 mb 0.00 in0.0 mm 0.00 in0.0 mm 0.10 in2.5 mm
03:00 PM 38.7°F3.7°C 32.8°F0.4°C 79% 11.5 mph NW18.5 kmh NW 12.0 mph19.3 kmh 29.91 in1012.9 mb 0.00 in0.0 mm 0.00 in0.0 mm 0.10 in2.5 mm
02:59 PM 38.7°F3.7°C 32.8°F0.4°C 79% 11.2 mph NW18.0 kmh NW 13.0 mph20.9 kmh 29.91 in1012.9 mb 0.00 in0.0 mm 0.00 in0.0 mm 0.10 in2.5 mm
02:58 PM 38.7°F3.7°C 32.8°F0.4°C 79% 11.5 mph NW18.5 kmh NW 13.0 mph20.9 kmh 29.91 in1012.9 mb 0.00 in0.0 mm 0.00 in0.0 mm 0.10 in2.5 mm
02:57 PM 38.8°F3.8°C 32.9°F0.5°C 79% 11.8 mph NW19.0 kmh NW 13.0 mph20.9 kmh 29.91 in1012.9 mb 0.00 in0.0 mm 0.00 in0.0 mm 0.10 in2.5 mm
02:56 PM 38.7°F3.7°C 32.8°F0.4°C 79% 12.2 mph NW19.6 kmh NW 13.0 mph20.9 kmh 29.91 in1012.9 mb 0.00 in0.0 mm 0.00 in0.0 mm 0.10 in2.5 mm
02:55 PM 38.8°F3.8°C 32.9°F0.5°C 79% 12.0 mph NW19.3 kmh NW 14.0 mph22.5 kmh 29.91 in1012.9 mb 0.00 in0.0 mm 0.00 in0.0 mm 0.10 in2.5 mm
02:54 PM 38.8°F3.8°C 32.9°F0.5°C 79% 12.1 mph NW19.5 kmh NW 14.0 mph22.5 kmh 29.91 in1012.9 mb 0.00 in0.0 mm 0.00 in0.0 mm 0.10 in2.5 mm
02:53 PM 38.8°F3.8°C 32.9°F0.5°C 79% 12.0 mph NW19.3 kmh NW 13.0 mph20.9 kmh 29.91 in1012.9 mb 0.00 in0.0 mm 0.00 in0.0 mm 0.10 in2.5 mm
02:52 PM 38.8°F3.8°C 32.9°F0.5°C 79% 12.0 mph NW19.3 kmh NW 13.0 mph20.9 kmh 29.91 in1012.9 mb 0.00 in0.0 mm 0.00 in0.0 mm 0.10 in2.5 mm
02:51 PM 38.9°F3.8°C 33.0°F0.6°C 79% 13.0 mph NW20.9 kmh NW 14.0 mph22.5 kmh 29.91 in1012.9 mb 0.00 in0.0 mm 0.00 in0.0 mm 0.10 in2.5 mm
02:50 PM 38.9°F3.8°C 33.0°F0.6°C 79% 11.3 mph NW18.2 kmh NW 13.0 mph20.9 kmh 29.91 in1012.9 mb 0.00 in0.0 mm 0.00 in0.0 mm 0.10 in2.5 mm
02:49 PM 38.9°F3.8°C 33.0°F0.6°C 79% 12.4 mph NW20.0 kmh NW 14.0 mph22.5 kmh 29.91 in1012.9 mb 0.00 in0.0 mm 0.00 in0.0 mm 0.10 in2.5 mm
02:48 PM 38.9°F3.8°C 33.0°F0.6°C 79% 12.7 mph NW20.4 kmh NW 14.0 mph22.5 kmh 29.91 in1012.9 mb 0.00 in0.0 mm 0.00 in0.0 mm 0.10 in2.5 mm
02:47 PM 38.9°F3.8°C 33.0°F0.6°C 79% 12.5 mph NW20.1 kmh NW 13.0 mph20.9 kmh 29.91 in1012.9 mb 0.00 in0.0 mm 0.00 in0.0 mm 0.10 in2.5 mm
02:46 PM 38.9°F3.8°C 33.0°F0.6°C 79% 12.0 mph NW19.3 kmh NW 14.0 mph22.5 kmh 29.91 in1012.9 mb 0.00 in0.0 mm 0.00 in0.0 mm 0.10 in2.5 mm
02:45 PM 38.9°F3.8°C 32.6°F0.3°C 78% 12.0 mph NW19.3 kmh NW 13.0 mph20.9 kmh 29.91 in1012.9 mb 0.00 in0.0 mm 0.00 in0.0 mm 0.10 in2.5 mm
02:44 PM 39.0°F3.9°C 32.7°F0.4°C 78% 13.0 mph NW20.9 kmh NW 13.0 mph20.9 kmh 29.91 in1012.9 mb 0.00 in0.0 mm 0.00 in0.0 mm 0.10 in2.5 mm
02:43 PM 39.0°F3.9°C 32.7°F0.4°C 78% 13.7 mph NW22.0 kmh NW 16.0 mph25.7 kmh 29.91 in1012.9 mb 0.00 in0.0 mm 0.00 in0.0 mm 0.10 in2.5 mm
02:42 PM 39.0°F3.9°C 32.7°F0.4°C 78% 13.1 mph NW21.1 kmh NW 16.0 mph25.7 kmh 29.91 in1012.9 mb 0.00 in0.0 mm 0.00 in0.0 mm 0.10 in2.5 mm
02:41 PM 39.0°F3.9°C 32.7°F0.4°C 78% 12.6 mph NW20.3 kmh NW 16.0 mph25.7 kmh 29.91 in1012.9 mb 0.00 in0.0 mm 0.00 in0.0 mm 0.10 in2.5 mm
02:40 PM 39.0°F3.9°C 32.7°F0.4°C 78% 12.9 mph NW20.8 kmh NW 16.0 mph25.7 kmh 29.91 in1012.9 mb 0.00 in0.0 mm 0.00 in0.0 mm 0.10 in2.5 mm
02:39 PM 39.0°F3.9°C 32.7°F0.4°C 78% 14.3 mph NW23.0 kmh NW 16.0 mph25.7 kmh 29.91 in1012.9 mb 0.00 in0.0 mm 0.00 in0.0 mm 0.10 in2.5 mm
02:38 PM 39.0°F3.9°C 32.7°F0.4°C 78% 14.2 mph NW22.9 kmh NW 16.0 mph25.7 kmh 29.91 in1012.9 mb 0.00 in0.0 mm 0.00 in0.0 mm 0.10 in2.5 mm
02:37 PM 38.9°F3.8°C 32.6°F0.3°C 78% 13.5 mph NW21.7 kmh NW 16.0 mph25.7 kmh 29.91 in1012.9 mb 0.00 in0.0 mm 0.00 in0.0 mm 0.10 in2.5 mm
02:36 PM 38.9°F3.8°C 32.6°F0.3°C 78% 14.9 mph NW24.0 kmh NW 17.0 mph27.4 kmh 29.91 in1012.9 mb 0.00 in0.0 mm 0.00 in0.0 mm 0.10 in2.5 mm
02:35 PM 38.9°F3.8°C 33.0°F0.6°C 79% 13.5 mph NW21.7 kmh NW 17.0 mph27.4 kmh 29.91 in1012.9 mb 0.00 in0.0 mm 0.00 in0.0 mm 0.10 in2.5 mm
02:34 PM 39.0°F3.9°C 32.7°F0.4°C 78% 13.3 mph NW21.4 kmh NW 15.0 mph24.1 kmh 29.91 in1012.9 mb 0.00 in0.0 mm 0.00 in0.0 mm 0.10 in2.5 mm
02:33 PM 39.1°F3.9°C 32.8°F0.4°C 78% 13.5 mph NW21.7 kmh NW 15.0 mph24.1 kmh 29.91 in1012.9 mb 0.00 in0.0 mm 0.00 in0.0 mm 0.10 in2.5 mm
02:32 PM 39.1°F3.9°C 32.8°F0.4°C 78% 13.1 mph NW21.1 kmh NW 15.0 mph24.1 kmh 29.91 in1012.9 mb 0.00 in0.0 mm 0.00 in0.0 mm 0.10 in2.5 mm
02:31 PM 39.1°F3.9°C 32.8°F0.4°C 78% 14.0 mph NW22.5 kmh NW 16.0 mph25.7 kmh 29.91 in1012.9 mb 0.00 in0.0 mm 0.00 in0.0 mm 0.10 in2.5 mm
02:30 PM 39.2°F4.0°C 32.9°F0.5°C 78% 14.0 mph NW22.5 kmh NW 16.0 mph25.7 kmh 29.91 in1012.9 mb 0.00 in0.0 mm 0.00 in0.0 mm 0.10 in2.5 mm
02:29 PM 39.1°F3.9°C 32.8°F0.4°C 78% 16.0 mph NW25.7 kmh NW 18.0 mph29.0 kmh 29.91 in1012.9 mb 0.00 in0.0 mm 0.00 in0.0 mm 0.10 in2.5 mm
02:28 PM 39.1°F3.9°C 32.8°F0.4°C 78% 14.6 mph NW23.5 kmh NW 17.0 mph27.4 kmh 29.91 in1012.9 mb 0.00 in0.0 mm 0.00 in0.0 mm 0.10 in2.5 mm
02:27 PM 39.2°F4.0°C 32.9°F0.5°C 78% 15.3 mph NW24.6 kmh NW 18.0 mph29.0 kmh 29.91 in1012.9 mb 0.00 in0.0 mm 0.00 in0.0 mm 0.10 in2.5 mm
02:26 PM 39.2°F4.0°C 32.9°F0.5°C 78% 15.6 mph NW25.1 kmh NW 18.0 mph29.0 kmh 29.91 in1012.9 mb 0.00 in0.0 mm 0.00 in0.0 mm 0.10 in2.5 mm
02:25 PM 39.2°F4.0°C 32.9°F0.5°C 78% 15.6 mph NW25.1 kmh NW 18.0 mph29.0 kmh 29.91 in1012.9 mb 0.00 in0.0 mm 0.00 in0.0 mm 0.10 in2.5 mm
02:24 PM 39.2°F4.0°C 32.9°F0.5°C 78% 15.1 mph NW24.3 kmh NW 18.0 mph29.0 kmh 29.91 in1012.9 mb 0.00 in0.0 mm 0.00 in0.0 mm 0.10 in2.5 mm
02:23 PM 39.2°F4.0°C 32.9°F0.5°C 78% 14.6 mph NW23.5 kmh NW 16.0 mph25.7 kmh 29.91 in1012.9 mb 0.00 in0.0 mm 0.00 in0.0 mm 0.10 in2.5 mm
02:22 PM 39.2°F4.0°C 32.9°F0.5°C 78% 13.9 mph NW22.4 kmh NW 17.0 mph27.4 kmh 29.91 in1012.9 mb 0.00 in0.0 mm 0.00 in0.0 mm 0.10 in2.5 mm
02:21 PM 39.3°F4.1°C 33.0°F0.6°C 78% 14.6 mph NW23.5 kmh NW 17.0 mph27.4 kmh 29.91 in1012.9 mb 0.00 in0.0 mm 0.00 in0.0 mm 0.10 in2.5 mm
02:20 PM 39.2°F4.0°C 32.9°F0.5°C 78% 15.4 mph NW24.8 kmh NW 17.0 mph27.4 kmh 29.91 in1012.9 mb 0.00 in0.0 mm 0.00 in0.0 mm 0.10 in2.5 mm
02:19 PM 39.2°F4.0°C 32.9°F0.5°C 78% 15.1 mph NW24.3 kmh NW 17.0 mph27.4 kmh 29.91 in1012.9 mb 0.00 in0.0 mm 0.00 in0.0 mm 0.10 in2.5 mm
02:18 PM 39.2°F4.0°C 32.9°F0.5°C 78% 14.0 mph NW22.5 kmh NW 16.0 mph25.7 kmh 29.91 in1012.9 mb 0.00 in0.0 mm 0.00 in0.0 mm 0.10 in2.5 mm
02:17 PM 39.3°F4.1°C 33.0°F0.6°C 78% 14.2 mph NW22.9 kmh NW 16.0 mph25.7 kmh 29.91 in1012.9 mb 0.00 in0.0 mm 0.00 in0.0 mm 0.10 in2.5 mm
02:16 PM 39.3°F4.1°C 33.0°F0.6°C 78% 13.8 mph NW22.2 kmh NW 17.0 mph27.4 kmh 29.91 in1012.9 mb 0.00 in0.0 mm 0.00 in0.0 mm 0.10 in2.5 mm
02:15 PM 39.3°F4.1°C 33.0°F0.6°C 78% 14.4 mph NW23.2 kmh NW 17.0 mph27.4 kmh 29.91 in1012.9 mb 0.00 in0.0 mm 0.00 in0.0 mm 0.10 in2.5 mm
02:14 PM 39.3°F4.1°C 33.0°F0.6°C 78% 14.4 mph NW23.2 kmh NW 17.0 mph27.4 kmh 29.91 in1012.9 mb 0.00 in0.0 mm 0.00 in0.0 mm 0.10 in2.5 mm
02:13 PM 39.3°F4.1°C 33.0°F0.6°C 78% 13.4 mph NW21.6 kmh NW 16.0 mph25.7 kmh 29.91 in1012.9 mb 0.00 in0.0 mm 0.00 in0.0 mm 0.10 in2.5 mm
02:12 PM 39.3°F4.1°C 33.0°F0.6°C 78% 13.4 mph NW21.6 kmh NW 16.0 mph25.7 kmh 29.91 in1012.9 mb 0.00 in0.0 mm 0.00 in0.0 mm 0.10 in2.5 mm
02:11 PM 39.3°F4.1°C 33.0°F0.6°C 78% 13.1 mph NW21.1 kmh NW 16.0 mph25.7 kmh 29.91 in1012.9 mb 0.00 in0.0 mm 0.00 in0.0 mm 0.10 in2.5 mm
02:10 PM 39.3°F4.1°C 33.0°F0.6°C 78% 13.8 mph NW22.2 kmh NW 19.0 mph30.6 kmh 29.91 in1012.9 mb 0.00 in0.0 mm 0.00 in0.0 mm 0.10 in2.5 mm
02:09 PM 39.2°F4.0°C 32.9°F0.5°C 78% 15.9 mph NW25.6 kmh NW 19.0 mph30.6 kmh 29.91 in1012.9 mb 0.00 in0.0 mm 0.00 in0.0 mm 0.10 in2.5 mm
02:08 PM 39.2°F4.0°C 32.9°F0.5°C 78% 14.0 mph NW22.5 kmh NW 16.0 mph25.7 kmh 29.91 in1012.9 mb 0.00 in0.0 mm 0.00 in0.0 mm 0.10 in2.5 mm
02:07 PM 39.2°F4.0°C 32.9°F0.5°C 78% 14.5 mph NW23.3 kmh NW 17.0 mph27.4 kmh 29.91 in1012.9 mb 0.00 in0.0 mm 0.00 in0.0 mm 0.10 in2.5 mm
02:06 PM 39.2°F4.0°C 32.9°F0.5°C 78% 14.3 mph NW23.0 kmh NW 17.0 mph27.4 kmh 29.91 in1012.9 mb 0.00 in0.0 mm 0.00 in0.0 mm 0.10 in2.5 mm
02:05 PM 39.2°F4.0°C 32.9°F0.5°C 78% 14.0 mph NW22.5 kmh NW 16.0 mph25.7 kmh 29.91 in1012.9 mb 0.00 in0.0 mm 0.00 in0.0 mm 0.10 in2.5 mm
02:04 PM 39.3°F4.1°C 33.0°F0.6°C 78% 15.0 mph NW24.1 kmh NW 16.0 mph25.7 kmh 29.91 in1012.9 mb 0.00 in0.0 mm 0.00 in0.0 mm 0.10 in2.5 mm
02:03 PM 39.3°F4.1°C 33.0°F0.6°C 78% 14.0 mph NW22.5 kmh NW 15.0 mph24.1 kmh 29.91 in1012.9 mb 0.00 in0.0 mm 0.00 in0.0 mm 0.10 in2.5 mm
02:02 PM 39.3°F4.1°C 33.0°F0.6°C 78% 15.0 mph NW24.1 kmh NW 17.0 mph27.4 kmh 29.91 in1012.9 mb 0.00 in0.0 mm 0.00 in0.0 mm 0.10 in2.5 mm
02:01 PM 39.3°F4.1°C 33.0°F0.6°C 78% 15.4 mph NW24.8 kmh NW 17.0 mph27.4 kmh 29.91 in1012.9 mb 0.00 in0.0 mm 0.00 in0.0 mm 0.10 in2.5 mm
02:00 PM 39.3°F4.1°C 33.0°F0.6°C 78% 14.4 mph NW23.2 kmh NW 17.0 mph27.4 kmh 29.91 in1012.9 mb 0.00 in0.0 mm 0.00 in0.0 mm 0.10 in2.5 mm
01:59 PM 39.3°F4.1°C 33.0°F0.6°C 78% 14.6 mph NW23.5 kmh NW 17.0 mph27.4 kmh 29.91 in1012.9 mb 0.00 in0.0 mm 0.00 in0.0 mm 0.10 in2.5 mm
01:58 PM 39.3°F4.1°C 33.0°F0.6°C 78% 13.7 mph NW22.0 kmh NW 16.0 mph25.7 kmh 29.91 in1012.9 mb 0.00 in0.0 mm 0.00 in0.0 mm 0.10 in2.5 mm
01:57 PM 39.2°F4.0°C 33.2°F0.7°C 79% 14.5 mph NW23.3 kmh NW 17.0 mph27.4 kmh 29.91 in1012.9 mb 0.00 in0.0 mm 0.00 in0.0 mm 0.10 in2.5 mm
01:56 PM 39.1°F3.9°C 33.1°F0.6°C 79% 15.3 mph NW24.6 kmh NW 17.0 mph27.4 kmh 29.91 in1012.9 mb 0.00 in0.0 mm 0.00 in0.0 mm 0.10 in2.5 mm
01:55 PM 39.1°F3.9°C 33.1°F0.6°C 79% 14.0 mph NW22.5 kmh NW 15.0 mph24.1 kmh 29.91 in1012.9 mb 0.00 in0.0 mm 0.00 in0.0 mm 0.10 in2.5 mm
01:54 PM 39.2°F4.0°C 33.2°F0.7°C 79% 13.0 mph NW20.9 kmh NW 15.0 mph24.1 kmh 29.91 in1012.9 mb 0.00 in0.0 mm 0.00 in0.0 mm 0.10 in2.5 mm
01:53 PM 39.1°F3.9°C 33.1°F0.6°C 79% 12.0 mph NW19.3 kmh NW 14.0 mph22.5 kmh 29.91 in1012.9 mb 0.00 in0.0 mm 0.00 in0.0 mm 0.10 in2.5 mm
01:52 PM 39.1°F3.9°C 33.1°F0.6°C 79% 13.7 mph NW22.0 kmh NW 16.0 mph25.7 kmh 29.91 in1012.9 mb 0.00 in0.0 mm 0.00 in0.0 mm 0.10 in2.5 mm
01:51 PM 39.1°F3.9°C 33.1°F0.6°C 79% 14.3 mph NW23.0 kmh NW 16.0 mph25.7 kmh 29.91 in1012.9 mb 0.00 in0.0 mm 0.00 in0.0 mm 0.10 in2.5 mm
01:50 PM 39.1°F3.9°C 33.1°F0.6°C 79% 13.5 mph NW21.7 kmh NW 15.0 mph24.1 kmh 29.91 in1012.9 mb 0.00 in0.0 mm 0.00 in0.0 mm 0.10 in2.5 mm
01:49 PM 39.2°F4.0°C 33.2°F0.7°C 79% 14.4 mph NW23.2 kmh NW 16.0 mph25.7 kmh 29.91 in1012.9 mb 0.00 in0.0 mm 0.00 in0.0 mm 0.10 in2.5 mm
01:48 PM 39.2°F4.0°C 33.2°F0.7°C 79% 14.4 mph NW23.2 kmh NW 16.0 mph25.7 kmh 29.91 in1012.9 mb 0.00 in0.0 mm 0.00 in0.0 mm 0.10 in2.5 mm
01:47 PM 39.1°F3.9°C 33.1°F0.6°C 79% 14.0 mph NW22.5 kmh NW 16.0 mph25.7 kmh 29.91 in1012.9 mb 0.00 in0.0 mm 0.00 in0.0 mm 0.10 in2.5 mm
01:46 PM 39.1°F3.9°C 33.1°F0.6°C 79% 14.3 mph NW23.0 kmh NW 16.0 mph25.7 kmh 29.91 in1012.9 mb 0.00 in0.0 mm 0.00 in0.0 mm 0.10 in2.5 mm
01:45 PM 39.2°F4.0°C 33.2°F0.7°C 79% 13.0 mph NW20.9 kmh NW 15.0 mph24.1 kmh 29.91 in1012.9 mb 0.00 in0.0 mm 0.00 in0.0 mm 0.10 in2.5 mm
01:44 PM 39.2°F4.0°C 33.2°F0.7°C 79% 13.1 mph NW21.1 kmh NW 14.0 mph22.5 kmh 29.91 in1012.9 mb 0.00 in0.0 mm 0.00 in0.0 mm 0.10 in2.5 mm
01:43 PM 39.2°F4.0°C 33.2°F0.7°C 79% 12.9 mph NW20.8 kmh NW 15.0 mph24.1 kmh 29.91 in1012.9 mb 0.00 in0.0 mm 0.00 in0.0 mm 0.10 in2.5 mm
01:42 PM 39.2°F4.0°C 33.2°F0.7°C 79% 13.5 mph NW21.7 kmh NW 15.0 mph24.1 kmh 29.91 in1012.9 mb 0.00 in0.0 mm 0.00 in0.0 mm 0.10 in2.5 mm
01:41 PM 39.2°F4.0°C 33.2°F0.7°C 79% 13.2 mph NW21.2 kmh NW 15.0 mph24.1 kmh 29.91 in1012.9 mb 0.00 in0.0 mm 0.00 in0.0 mm 0.10 in2.5 mm
01:40 PM 39.2°F4.0°C 33.2°F0.7°C 79% 13.4 mph NW21.6 kmh NW 15.0 mph24.1 kmh 29.91 in1012.9 mb 0.00 in0.0 mm 0.00 in0.0 mm 0.10 in2.5 mm
01:39 PM 39.2°F4.0°C 33.2°F0.7°C 79% 13.1 mph NW21.1 kmh NW 16.0 mph25.7 kmh 29.91 in1012.9 mb 0.00 in0.0 mm 0.00 in0.0 mm 0.10 in2.5 mm
01:38 PM 39.2°F4.0°C 33.2°F0.7°C 79% 14.8 mph NW23.8 kmh NW 16.0 mph25.7 kmh 29.91 in1012.9 mb 0.00 in0.0 mm 0.00 in0.0 mm 0.10 in2.5 mm
01:37 PM 39.2°F4.0°C 33.2°F0.7°C 79% 12.6 mph NW20.3 kmh NW 16.0 mph25.7 kmh 29.91 in1012.9 mb 0.00 in0.0 mm 0.00 in0.0 mm 0.10 in2.5 mm
01:36 PM 39.2°F4.0°C 33.2°F0.7°C 79% 12.7 mph NW20.4 kmh NW 14.0 mph22.5 kmh 29.91 in1012.9 mb 0.00 in0.0 mm 0.00 in0.0 mm 0.10 in2.5 mm
01:35 PM 39.2°F4.0°C 33.2°F0.7°C 79% 13.4 mph NW21.6 kmh NW 14.0 mph22.5 kmh 29.91 in1012.9 mb 0.00 in0.0 mm 0.00 in0.0 mm 0.10 in2.5 mm
01:34 PM 39.2°F4.0°C 33.2°F0.7°C 79% 13.4 mph NW21.6 kmh NW 15.0 mph24.1 kmh 29.91 in1012.9 mb 0.00 in0.0 mm 0.00 in0.0 mm 0.10 in2.5 mm
01:33 PM 39.2°F4.0°C 33.2°F0.7°C 79% 13.5 mph NW21.7 kmh NW 15.0 mph24.1 kmh 29.91 in1012.9 mb 0.00 in0.0 mm 0.00 in0.0 mm 0.10 in2.5 mm
01:32 PM 39.3°F4.1°C 33.3°F0.7°C 79% 12.5 mph NW20.1 kmh NW 14.0 mph22.5 kmh 29.91 in1012.9 mb 0.00 in0.0 mm 0.00 in0.0 mm 0.10 in2.5 mm
01:31 PM 39.3°F4.1°C 33.3°F0.7°C 79% 12.8 mph NW20.6 kmh NW 15.0 mph24.1 kmh 29.91 in1012.9 mb 0.00 in0.0 mm 0.00 in0.0 mm 0.10 in2.5 mm
01:30 PM 39.3°F4.1°C 33.3°F0.7°C 79% 13.4 mph NW21.6 kmh NW 15.0 mph24.1 kmh 29.91 in1012.9 mb 0.00 in0.0 mm 0.00 in0.0 mm 0.10 in2.5 mm
01:29 PM 39.3°F4.1°C 33.3°F0.7°C 79% 13.8 mph NW22.2 kmh NW 15.0 mph24.1 kmh 29.91 in1012.9 mb 0.00 in0.0 mm 0.00 in0.0 mm 0.10 in2.5 mm
01:28 PM 39.3°F4.1°C 33.3°F0.7°C 79% 13.2 mph NW21.2 kmh NW 15.0 mph24.1 kmh 29.91 in1012.9 mb 0.00 in0.0 mm 0.00 in0.0 mm 0.10 in2.5 mm
01:27 PM 39.3°F4.1°C 33.3°F0.7°C 79% 13.5 mph NW21.7 kmh NW 15.0 mph24.1 kmh 29.91 in1012.9 mb 0.00 in0.0 mm 0.00 in0.0 mm 0.10 in2.5 mm
01:26 PM 39.3°F4.1°C 33.3°F0.7°C 79% 13.9 mph NW22.4 kmh NW 16.0 mph25.7 kmh 29.91 in1012.9 mb 0.00 in0.0 mm 0.00 in0.0 mm 0.10 in2.5 mm
01:25 PM 39.3°F4.1°C 33.3°F0.7°C 79% 13.6 mph NW21.9 kmh NW 16.0 mph25.7 kmh 29.91 in1012.9 mb 0.00 in0.0 mm 0.00 in0.0 mm 0.10 in2.5 mm
01:24 PM 39.3°F4.1°C 33.3°F0.7°C 79% 13.8 mph NW22.2 kmh NW 16.0 mph25.7 kmh 29.91 in1012.9 mb 0.00 in0.0 mm 0.00 in0.0 mm 0.10 in2.5 mm
01:23 PM 39.3°F4.1°C 33.3°F0.7°C 79% 14.4 mph NW23.2 kmh NW 16.0 mph25.7 kmh 29.91 in1012.9 mb 0.00 in0.0 mm 0.00 in0.0 mm 0.10 in2.5 mm
01:22 PM 39.3°F4.1°C 33.3°F0.7°C 79% 12.9 mph NW20.8 kmh NW 15.0 mph24.1 kmh 29.91 in1012.9 mb 0.00 in0.0 mm 0.00 in0.0 mm 0.10 in2.5 mm
01:21 PM 39.3°F4.1°C 33.3°F0.7°C 79% 12.6 mph NW20.3 kmh NW 15.0 mph24.1 kmh 29.91 in1012.9 mb 0.00 in0.0 mm 0.00 in0.0 mm 0.10 in2.5 mm
01:20 PM 39.3°F4.1°C 33.3°F0.7°C 79% 12.9 mph NW20.8 kmh NW 15.0 mph24.1 kmh 29.91 in1012.9 mb 0.00 in0.0 mm 0.00 in0.0 mm 0.10 in2.5 mm
01:19 PM 39.4°F4.1°C 33.4°F0.8°C 79% 13.8 mph NW22.2 kmh NW 15.0 mph24.1 kmh 29.91 in1012.9 mb 0.00 in0.0 mm 0.00 in0.0 mm 0.10 in2.5 mm
01:18 PM 39.4°F4.1°C 33.4°F0.8°C 79% 13.5 mph NW21.7 kmh NW 16.0 mph25.7 kmh 29.91 in1012.9 mb 0.00 in0.0 mm 0.00 in0.0 mm 0.10 in2.5 mm
01:17 PM 39.4°F4.1°C 33.4°F0.8°C 79% 14.4 mph NW23.2 kmh NW 16.0 mph25.7 kmh 29.91 in1012.9 mb 0.00 in0.0 mm 0.00 in0.0 mm 0.10 in2.5 mm
01:16 PM 39.4°F4.1°C 33.4°F0.8°C 79% 14.8 mph NW23.8 kmh NW 17.0 mph27.4 kmh 29.91 in1012.9 mb 0.00 in0.0 mm 0.00 in0.0 mm 0.10 in2.5 mm
01:15 PM 39.4°F4.1°C 33.4°F0.8°C 79% 15.3 mph NW24.6 kmh NW 17.0 mph27.4 kmh 29.91 in1012.9 mb 0.00 in0.0 mm 0.00 in0.0 mm 0.10 in2.5 mm
01:14 PM 39.5°F4.2°C 33.5°F0.8°C 79% 15.1 mph NW24.3 kmh NW 17.0 mph27.4 kmh 29.91 in1012.9 mb 0.00 in0.0 mm 0.00 in0.0 mm 0.10 in2.5 mm
01:13 PM 39.5°F4.2°C 33.5°F0.8°C 79% 15.0 mph NW24.1 kmh NW 16.0 mph25.7 kmh 29.91 in1012.9 mb 0.00 in0.0 mm 0.00 in0.0 mm 0.10 in2.5 mm
01:12 PM 39.5°F4.2°C 33.5°F0.8°C 79% 14.0 mph NW22.5 kmh NW 15.0 mph24.1 kmh 29.91 in1012.9 mb 0.00 in0.0 mm 0.00 in0.0 mm 0.10 in2.5 mm
01:11 PM 39.5°F4.2°C 33.5°F0.8°C 79% 14.6 mph NW23.5 kmh NW 17.0 mph27.4 kmh 29.91 in1012.9 mb 0.00 in0.0 mm 0.00 in0.0 mm 0.10 in2.5 mm
01:10 PM 39.4°F4.1°C 33.4°F0.8°C 79% 15.0 mph NW24.1 kmh NW 17.0 mph27.4 kmh 29.91 in1012.9 mb 0.00 in0.0 mm 0.00 in0.0 mm 0.10 in2.5 mm
01:09 PM 39.5°F4.2°C 33.5°F0.8°C 79% 15.4 mph NW24.8 kmh NW 17.0 mph27.4 kmh 29.91 in1012.9 mb 0.00 in0.0 mm 0.00 in0.0 mm 0.10 in2.5 mm
01:08 PM 39.5°F4.2°C 33.5°F0.8°C 79% 15.4 mph NW24.8 kmh NW 17.0 mph27.4 kmh 29.91 in1012.9 mb 0.00 in0.0 mm 0.00 in0.0 mm 0.10 in2.5 mm
01:07 PM 39.4°F4.1°C 33.4°F0.8°C 79% 14.6 mph NW23.5 kmh NW 16.0 mph25.7 kmh 29.91 in1012.9 mb 0.00 in0.0 mm 0.00 in0.0 mm 0.10 in2.5 mm
01:06 PM 39.4°F4.1°C 33.4°F0.8°C 79% 15.2 mph NW24.5 kmh NW 17.0 mph27.4 kmh 29.91 in1012.9 mb 0.00 in0.0 mm 0.00 in0.0 mm 0.10 in2.5 mm
01:05 PM 39.4°F4.1°C 33.4°F0.8°C 79% 14.8 mph NW23.8 kmh NW 17.0 mph27.4 kmh 29.91 in1012.9 mb 0.00 in0.0 mm 0.00 in0.0 mm 0.10 in2.5 mm
01:04 PM 39.4°F4.1°C 33.8°F1.0°C 80% 14.2 mph NW22.9 kmh NW 16.0 mph25.7 kmh 29.91 in1012.9 mb 0.00 in0.0 mm 0.00 in0.0 mm 0.10 in2.5 mm
01:03 PM 39.4°F4.1°C 33.8°F1.0°C 80% 13.5 mph NW21.7 kmh NW 16.0 mph25.7 kmh 29.91 in1012.9 mb 0.00 in0.0 mm 0.00 in0.0 mm 0.10 in2.5 mm
01:02 PM 39.4°F4.1°C 33.8°F1.0°C 80% 14.5 mph NW23.3 kmh NW 17.0 mph27.4 kmh 29.91 in1012.9 mb 0.00 in0.0 mm 0.00 in0.0 mm 0.10 in2.5 mm
01:01 PM 39.4°F4.1°C 33.8°F1.0°C 80% 14.2 mph NW22.9 kmh NW 17.0 mph27.4 kmh 29.91 in1012.9 mb 0.00 in0.0 mm 0.00 in0.0 mm 0.10 in2.5 mm
01:00 PM 39.4°F4.1°C 33.8°F1.0°C 80% 13.6 mph NW21.9 kmh NW 15.0 mph24.1 kmh 29.91 in1012.9 mb 0.00 in0.0 mm 0.00 in0.0 mm 0.10 in2.5 mm
12:59 PM 39.4°F4.1°C 33.8°F1.0°C 80% 14.1 mph NW22.7 kmh NW 15.0 mph24.1 kmh 29.91 in1012.9 mb 0.00 in0.0 mm 0.00 in0.0 mm 0.10 in2.5 mm
12:58 PM 39.4°F4.1°C 33.8°F1.0°C 80% 13.9 mph NW22.4 kmh NW 15.0 mph24.1 kmh 29.91 in1012.9 mb 0.00 in0.0 mm 0.00 in0.0 mm 0.10 in2.5 mm
12:57 PM 39.4°F4.1°C 33.8°F1.0°C 80% 13.0 mph WNW20.9 kmh WNW 15.0 mph24.1 kmh 29.91 in1012.9 mb 0.00 in0.0 mm 0.00 in0.0 mm 0.10 in2.5 mm
12:56 PM 39.5°F4.2°C 33.9°F1.1°C 80% 12.0 mph WNW19.3 kmh WNW 13.0 mph20.9 kmh 29.91 in1012.9 mb 0.00 in0.0 mm 0.00 in0.0 mm 0.10 in2.5 mm
12:55 PM 39.5°F4.2°C 33.9°F1.1°C 80% 12.4 mph NW20.0 kmh NW 15.0 mph24.1 kmh 29.91 in1012.9 mb 0.00 in0.0 mm 0.00 in0.0 mm 0.10 in2.5 mm
12:54 PM 39.4°F4.1°C 33.8°F1.0°C 80% 13.7 mph NW22.0 kmh NW 16.0 mph25.7 kmh 29.91 in1012.9 mb 0.00 in0.0 mm 0.00 in0.0 mm 0.10 in2.5 mm
12:53 PM 39.5°F4.2°C 33.9°F1.1°C 80% 14.1 mph NW22.7 kmh NW 16.0 mph25.7 kmh 29.91 in1012.9 mb 0.00 in0.0 mm 0.00 in0.0 mm 0.10 in2.5 mm
12:52 PM 39.4°F4.1°C 33.8°F1.0°C 80% 14.8 mph NW23.8 kmh NW 16.0 mph25.7 kmh 29.91 in1012.9 mb 0.00 in0.0 mm 0.00 in0.0 mm 0.10 in2.5 mm
12:51 PM 39.3°F4.1°C 33.7°F0.9°C 80% 14.5 mph NW23.3 kmh NW 16.0 mph25.7 kmh 29.91 in1012.9 mb 0.00 in0.0 mm 0.00 in0.0 mm 0.10 in2.5 mm
12:50 PM 39.4°F4.1°C 33.8°F1.0°C 80% 13.6 mph NW21.9 kmh NW 16.0 mph25.7 kmh 29.91 in1012.9 mb 0.00 in0.0 mm 0.00 in0.0 mm 0.10 in2.5 mm
12:49 PM 39.3°F4.1°C 33.7°F0.9°C 80% 14.0 mph NW22.5 kmh NW 16.0 mph25.7 kmh 29.91 in1012.9 mb 0.00 in0.0 mm 0.00 in0.0 mm 0.10 in2.5 mm
12:48 PM 39.3°F4.1°C 34.0°F1.1°C 81% 13.8 mph NW22.2 kmh NW 15.0 mph24.1 kmh 29.91 in1012.9 mb 0.00 in0.0 mm 0.00 in0.0 mm 0.10 in2.5 mm
12:47 PM 39.3°F4.1°C 34.0°F1.1°C 81% 13.4 mph NW21.6 kmh NW 15.0 mph24.1 kmh 29.91 in1012.9 mb 0.00 in0.0 mm 0.00 in0.0 mm 0.10 in2.5 mm
12:46 PM 39.2°F4.0°C 33.9°F1.1°C 81% 13.2 mph NW21.2 kmh NW 15.0 mph24.1 kmh 29.91 in1012.9 mb 0.00 in0.0 mm 0.00 in0.0 mm 0.10 in2.5 mm
12:45 PM 39.2°F4.0°C 33.9°F1.1°C 81% 12.9 mph NW20.8 kmh NW 15.0 mph24.1 kmh 29.91 in1012.9 mb 0.00 in0.0 mm 0.00 in0.0 mm 0.10 in2.5 mm
12:44 PM 39.2°F4.0°C 33.9°F1.1°C 81% 12.7 mph NW20.4 kmh NW 14.0 mph22.5 kmh 29.91 in1012.9 mb 0.00 in0.0 mm 0.00 in0.0 mm 0.10 in2.5 mm
12:43 PM 39.2°F4.0°C 33.6°F0.9°C 80% 13.1 mph NW21.1 kmh NW 14.0 mph22.5 kmh 29.91 in1012.9 mb 0.00 in0.0 mm 0.00 in0.0 mm 0.10 in2.5 mm
12:42 PM 39.2°F4.0°C 33.6°F0.9°C 80% 13.0 mph NW20.9 kmh NW 15.0 mph24.1 kmh 29.91 in1012.9 mb 0.00 in0.0 mm 0.00 in0.0 mm 0.10 in2.5 mm
12:41 PM 39.2°F4.0°C 33.6°F0.9°C 80% 13.0 mph NW20.9 kmh NW 15.0 mph24.1 kmh 29.91 in1012.9 mb 0.00 in0.0 mm 0.00 in0.0 mm 0.10 in2.5 mm
12:40 PM 39.2°F4.0°C 33.6°F0.9°C 80% 13.0 mph NW20.9 kmh NW 15.0 mph24.1 kmh 29.91 in1012.9 mb 0.00 in0.0 mm 0.00 in0.0 mm 0.10 in2.5 mm
12:39 PM 39.3°F4.1°C 33.7°F0.9°C 80% 13.8 mph NW22.2 kmh NW 15.0 mph24.1 kmh 29.91 in1012.9 mb 0.00 in0.0 mm 0.00 in0.0 mm 0.10 in2.5 mm
12:38 PM 39.3°F4.1°C 33.7°F0.9°C 80% 13.3 mph NW21.4 kmh NW 16.0 mph25.7 kmh 29.91 in1012.9 mb 0.00 in0.0 mm 0.00 in0.0 mm 0.10 in2.5 mm
12:37 PM 39.3°F4.1°C 33.7°F0.9°C 80% 14.6 mph NW23.5 kmh NW 16.0 mph25.7 kmh 29.91 in1012.9 mb 0.00 in0.0 mm 0.00 in0.0 mm 0.10 in2.5 mm
12:36 PM 39.2°F4.0°C 33.6°F0.9°C 80% 14.0 mph NW22.5 kmh NW 16.0 mph25.7 kmh 29.91 in1012.9 mb 0.00 in0.0 mm 0.00 in0.0 mm 0.10 in2.5 mm
12:35 PM 39.3°F4.1°C 33.7°F0.9°C 80% 13.4 mph NW21.6 kmh NW 16.0 mph25.7 kmh 29.91 in1012.9 mb 0.00 in0.0 mm 0.00 in0.0 mm 0.10 in2.5 mm
12:34 PM 39.3°F4.1°C 33.7°F0.9°C 80% 14.5 mph NW23.3 kmh NW 16.0 mph25.7 kmh 29.91 in1012.9 mb 0.00 in0.0 mm 0.00 in0.0 mm 0.10 in2.5 mm
12:33 PM 39.3°F4.1°C 33.7°F0.9°C 80% 14.0 mph NW22.5 kmh NW 17.0 mph27.4 kmh 29.91 in1012.9 mb 0.00 in0.0 mm 0.00 in0.0 mm 0.10 in2.5 mm
12:32 PM 39.3°F4.1°C 33.7°F0.9°C 80% 14.7 mph NW23.7 kmh NW 17.0 mph27.4 kmh 29.91 in1012.9 mb 0.00 in0.0 mm 0.00 in0.0 mm 0.10 in2.5 mm
12:31 PM 39.2°F4.0°C 33.6°F0.9°C 80% 14.3 mph NW23.0 kmh NW 18.0 mph29.0 kmh 29.91 in1012.9 mb 0.00 in0.0 mm 0.00 in0.0 mm 0.10 in2.5 mm
12:30 PM 39.2°F4.0°C 33.9°F1.1°C 81% 15.5 mph NW24.9 kmh NW 18.0 mph29.0 kmh 29.90 in1012.5 mb 0.00 in0.0 mm 0.00 in0.0 mm 0.10 in2.5 mm
12:29 PM 39.2°F4.0°C 33.9°F1.1°C 81% 13.5 mph NW21.7 kmh NW 15.0 mph24.1 kmh 29.91 in1012.9 mb 0.00 in0.0 mm 0.00 in0.0 mm 0.10 in2.5 mm
12:28 PM 39.3°F4.1°C 34.0°F1.1°C 81% 14.0 mph NW22.5 kmh NW 16.0 mph25.7 kmh 29.90 in1012.5 mb 0.00 in0.0 mm 0.00 in0.0 mm 0.10 in2.5 mm
12:27 PM 39.3°F4.1°C 33.7°F0.9°C 80% 14.4 mph NW23.2 kmh NW 17.0 mph27.4 kmh 29.90 in1012.5 mb 0.00 in0.0 mm 0.00 in0.0 mm 0.10 in2.5 mm
12:26 PM 39.3°F4.1°C 34.0°F1.1°C 81% 15.4 mph NW24.8 kmh NW 17.0 mph27.4 kmh 29.91 in1012.9 mb 0.00 in0.0 mm 0.00 in0.0 mm 0.10 in2.5 mm
12:25 PM 39.3°F4.1°C 33.7°F0.9°C 80% 14.9 mph NW24.0 kmh NW 18.0 mph29.0 kmh 29.90 in1012.5 mb 0.00 in0.0 mm 0.00 in0.0 mm 0.10 in2.5 mm
12:24 PM 39.3°F4.1°C 34.0°F1.1°C 81% 16.4 mph NW26.4 kmh NW 18.0 mph29.0 kmh 29.90 in1012.5 mb 0.00 in0.0 mm 0.00 in0.0 mm 0.10 in2.5 mm
12:23 PM 39.3°F4.1°C 34.0°F1.1°C 81% 15.7 mph NW25.3 kmh NW 17.0 mph27.4 kmh 29.91 in1012.9 mb 0.00 in0.0 mm 0.00 in0.0 mm 0.10 in2.5 mm
12:22 PM 39.3°F4.1°C 34.0°F1.1°C 81% 15.4 mph NW24.8 kmh NW 18.0 mph29.0 kmh 29.90 in1012.5 mb 0.00 in0.0 mm 0.00 in0.0 mm 0.10 in2.5 mm
12:21 PM 39.3°F4.1°C 34.0°F1.1°C 81% 16.5 mph NW26.6 kmh NW 18.0 mph29.0 kmh 29.91 in1012.9 mb 0.00 in0.0 mm 0.00 in0.0 mm 0.10 in2.5 mm
12:20 PM 39.2°F4.0°C 33.9°F1.1°C 81% 16.2 mph NW26.1 kmh NW 19.0 mph30.6 kmh 29.91 in1012.9 mb 0.00 in0.0 mm 0.00 in0.0 mm 0.10 in2.5 mm
12:19 PM 39.2°F4.0°C 33.9°F1.1°C 81% 16.7 mph NW26.9 kmh NW 19.0 mph30.6 kmh 29.91 in1012.9 mb 0.00 in0.0 mm 0.00 in0.0 mm 0.10 in2.5 mm
12:18 PM 39.1°F3.9°C 34.1°F1.2°C 82% 16.3 mph NW26.2 kmh NW 18.0 mph29.0 kmh 29.91 in1012.9 mb 0.00 in0.0 mm 0.00 in0.0 mm 0.10 in2.5 mm
12:17 PM 39.1°F3.9°C 34.1°F1.2°C 82% 15.2 mph NW24.5 kmh NW 17.0 mph27.4 kmh 29.91 in1012.9 mb 0.00 in0.0 mm 0.00 in0.0 mm 0.10 in2.5 mm
12:16 PM 39.0°F3.9°C 34.0°F1.1°C 82% 14.7 mph NW23.7 kmh NW 17.0 mph27.4 kmh 29.91 in1012.9 mb 0.00 in0.0 mm 0.00 in0.0 mm 0.10 in2.5 mm
12:15 PM 39.1°F3.9°C 34.1°F1.2°C 82% 13.9 mph NW22.4 kmh NW 17.0 mph27.4 kmh 29.90 in1012.5 mb 0.00 in0.0 mm 0.00 in0.0 mm 0.10 in2.5 mm
12:14 PM 39.1°F3.9°C 34.1°F1.2°C 82% 13.9 mph NW22.4 kmh NW 15.0 mph24.1 kmh 29.91 in1012.9 mb 0.00 in0.0 mm 0.00 in0.0 mm 0.10 in2.5 mm
12:13 PM 39.1°F3.9°C 33.8°F1.0°C 81% 13.7 mph NW22.0 kmh NW 16.0 mph25.7 kmh 29.91 in1012.9 mb 0.00 in0.0 mm 0.00 in0.0 mm 0.10 in2.5 mm
12:12 PM 39.2°F4.0°C 33.9°F1.1°C 81% 14.6 mph NW23.5 kmh NW 17.0 mph27.4 kmh 29.91 in1012.9 mb 0.00 in0.0 mm 0.00 in0.0 mm 0.10 in2.5 mm
12:11 PM 39.2°F4.0°C 33.9°F1.1°C 81% 15.2 mph NW24.5 kmh NW 17.0 mph27.4 kmh 29.90 in1012.5 mb 0.00 in0.0 mm 0.00 in0.0 mm 0.10 in2.5 mm
12:10 PM 39.2°F4.0°C 33.9°F1.1°C 81% 14.9 mph NW24.0 kmh NW 18.0 mph29.0 kmh 29.91 in1012.9 mb 0.00 in0.0 mm 0.00 in0.0 mm 0.10 in2.5 mm
12:09 PM 39.1°F3.9°C 33.8°F1.0°C 81% 15.8 mph NW25.4 kmh NW 18.0 mph29.0 kmh 29.91 in1012.9 mb 0.00 in0.0 mm 0.00 in0.0 mm 0.10 in2.5 mm
12:08 PM 39.1°F3.9°C 33.8°F1.0°C 81% 15.0 mph NW24.1 kmh NW 16.0 mph25.7 kmh 29.91 in1012.9 mb 0.00 in0.0 mm 0.00 in0.0 mm 0.10 in2.5 mm
12:07 PM 39.1°F3.9°C 33.8°F1.0°C 81% 14.2 mph NW22.9 kmh NW 16.0 mph25.7 kmh 29.90 in1012.5 mb 0.00 in0.0 mm 0.00 in0.0 mm 0.10 in2.5 mm
12:06 PM 39.1°F3.9°C 33.8°F1.0°C 81% 14.0 mph NW22.5 kmh NW 16.0 mph25.7 kmh 29.90 in1012.5 mb 0.00 in0.0 mm 0.00 in0.0 mm 0.10 in2.5 mm
12:05 PM 39.2°F4.0°C 33.9°F1.1°C 81% 15.0 mph NW24.1 kmh NW 17.0 mph27.4 kmh 29.90 in1012.5 mb 0.00 in0.0 mm 0.00 in0.0 mm 0.10 in2.5 mm
12:04 PM 39.2°F4.0°C 33.9°F1.1°C 81% 15.0 mph NW24.1 kmh NW 17.0 mph27.4 kmh 29.91 in1012.9 mb 0.00 in0.0 mm 0.00 in0.0 mm 0.10 in2.5 mm
12:03 PM 39.2°F4.0°C 33.9°F1.1°C 81% 16.3 mph NW26.2 kmh NW 18.0 mph29.0 kmh 29.90 in1012.5 mb 0.00 in0.0 mm 0.00 in0.0 mm 0.10 in2.5 mm
12:02 PM 39.2°F4.0°C 33.9°F1.1°C 81% 15.7 mph NW25.3 kmh NW 18.0 mph29.0 kmh 29.90 in1012.5 mb 0.00 in0.0 mm 0.00 in0.0 mm 0.10 in2.5 mm
12:01 PM 39.2°F4.0°C 33.9°F1.1°C 81% 16.8 mph NW27.0 kmh NW 19.0 mph30.6 kmh 29.91 in1012.9 mb 0.00 in0.0 mm 0.00 in0.0 mm 0.10 in2.5 mm
12:00 PM 39.3°F4.1°C 34.0°F1.1°C 81% 17.2 mph NW27.7 kmh NW 19.0 mph30.6 kmh 29.91 in1012.9 mb 0.00 in0.0 mm 0.00 in0.0 mm 0.10 in2.5 mm
11:59 AM 39.3°F4.1°C 34.0°F1.1°C 81% 15.7 mph NW25.3 kmh NW 18.0 mph29.0 kmh 29.91 in1012.9 mb 0.00 in0.0 mm 0.00 in0.0 mm 0.10 in2.5 mm
11:58 AM 39.3°F4.1°C 34.0°F1.1°C 81% 17.1 mph NW27.5 kmh NW 18.0 mph29.0 kmh 29.90 in1012.5 mb 0.00 in0.0 mm 0.00 in0.0 mm 0.10 in2.5 mm
11:57 AM 39.3°F4.1°C 34.0°F1.1°C 81% 16.5 mph NW26.6 kmh NW 20.0 mph32.2 kmh 29.90 in1012.5 mb 0.00 in0.0 mm 0.00 in0.0 mm 0.10 in2.5 mm
11:56 AM 39.3°F4.1°C 34.0°F1.1°C 81% 16.3 mph NW26.2 kmh NW 20.0 mph32.2 kmh 29.90 in1012.5 mb 0.00 in0.0 mm 0.00 in0.0 mm 0.10 in2.5 mm
11:55 AM 39.3°F4.1°C 34.0°F1.1°C 81% 16.8 mph NW27.0 kmh NW 19.0 mph30.6 kmh 29.91 in1012.9 mb 0.00 in0.0 mm 0.00 in0.0 mm 0.10 in2.5 mm
11:54 AM 39.4°F4.1°C 34.1°F1.2°C 81% 17.0 mph NW27.4 kmh NW 20.0 mph32.2 kmh 29.91 in1012.9 mb 0.00 in0.0 mm 0.00 in0.0 mm 0.10 in2.5 mm
11:53 AM 39.3°F4.1°C 34.0°F1.1°C 81% 18.0 mph NW29.0 kmh NW 20.0 mph32.2 kmh 29.91 in1012.9 mb 0.00 in0.0 mm 0.00 in0.0 mm 0.10 in2.5 mm
11:52 AM 39.4°F4.1°C 34.1°F1.2°C 81% 17.0 mph NW27.4 kmh NW 18.0 mph29.0 kmh 29.91 in1012.9 mb 0.00 in0.0 mm 0.00 in0.0 mm 0.10 in2.5 mm
11:51 AM 39.4°F4.1°C 34.1°F1.2°C 81% 17.1 mph NW27.5 kmh NW 20.0 mph32.2 kmh 29.91 in1012.9 mb 0.00 in0.0 mm 0.00 in0.0 mm 0.10 in2.5 mm
11:50 AM 39.4°F4.1°C 34.1°F1.2°C 81% 17.3 mph NW27.8 kmh NW 20.0 mph32.2 kmh 29.91 in1012.9 mb 0.00 in0.0 mm 0.00 in0.0 mm 0.10 in2.5 mm
11:49 AM 39.4°F4.1°C 34.1°F1.2°C 81% 17.3 mph NW27.8 kmh NW 21.0 mph33.8 kmh 29.91 in1012.9 mb 0.00 in0.0 mm 0.00 in0.0 mm 0.10 in2.5 mm
11:48 AM 39.3°F4.1°C 34.0°F1.1°C 81% 18.0 mph NW29.0 kmh NW 21.0 mph33.8 kmh 29.91 in1012.9 mb 0.00 in0.0 mm 0.00 in0.0 mm 0.10 in2.5 mm
11:47 AM 39.3°F4.1°C 34.0°F1.1°C 81% 17.1 mph NW27.5 kmh NW 21.0 mph33.8 kmh 29.91 in1012.9 mb 0.00 in0.0 mm 0.00 in0.0 mm 0.10 in2.5 mm
11:46 AM 39.4°F4.1°C 34.1°F1.2°C 81% 17.0 mph NW27.4 kmh NW 20.0 mph32.2 kmh 29.91 in1012.9 mb 0.00 in0.0 mm 0.00 in0.0 mm 0.10 in2.5 mm
11:45 AM 39.4°F4.1°C 33.8°F1.0°C 80% 15.4 mph NW24.8 kmh NW 19.0 mph30.6 kmh 29.91 in1012.9 mb 0.00 in0.0 mm 0.00 in0.0 mm 0.10 in2.5 mm
11:44 AM 39.5°F4.2°C 33.9°F1.1°C 80% 17.4 mph NW28.0 kmh NW 19.0 mph30.6 kmh 29.91 in1012.9 mb 0.00 in0.0 mm 0.00 in0.0 mm 0.10 in2.5 mm
11:43 AM 39.5°F4.2°C 33.9°F1.1°C 80% 16.6 mph NW26.7 kmh NW 20.0 mph32.2 kmh 29.91 in1012.9 mb 0.00 in0.0 mm 0.00 in0.0 mm 0.10 in2.5 mm
11:42 AM 39.5°F4.2°C 33.9°F1.1°C 80% 17.7 mph NW28.5 kmh NW 20.0 mph32.2 kmh 29.91 in1012.9 mb 0.00 in0.0 mm 0.00 in0.0 mm 0.10 in2.5 mm
11:41 AM 39.4°F4.1°C 33.8°F1.0°C 80% 17.0 mph NW27.4 kmh NW 22.0 mph35.4 kmh 29.91 in1012.9 mb 0.00 in0.0 mm 0.00 in0.0 mm 0.10 in2.5 mm
11:40 AM 39.4°F4.1°C 33.8°F1.0°C 80% 15.0 mph NW24.1 kmh NW 18.0 mph29.0 kmh 29.91 in1012.9 mb 0.00 in0.0 mm 0.00 in0.0 mm 0.10 in2.5 mm
11:39 AM 39.4°F4.1°C 33.8°F1.0°C 80% 17.4 mph NW28.0 kmh NW 20.0 mph32.2 kmh 29.91 in1012.9 mb 0.00 in0.0 mm 0.00 in0.0 mm 0.10 in2.5 mm
11:38 AM 39.4°F4.1°C 33.8°F1.0°C 80% 16.6 mph NW26.7 kmh NW 19.0 mph30.6 kmh 29.91 in1012.9 mb 0.00 in0.0 mm 0.00 in0.0 mm 0.10 in2.5 mm
11:37 AM 39.4°F4.1°C 33.8°F1.0°C 80% 17.3 mph NW27.8 kmh NW 19.0 mph30.6 kmh 29.91 in1012.9 mb 0.00 in0.0 mm 0.00 in0.0 mm 0.10 in2.5 mm
11:36 AM 39.4°F4.1°C 33.8°F1.0°C 80% 16.9 mph NW27.2 kmh NW 20.0 mph32.2 kmh 29.90 in1012.5 mb 0.00 in0.0 mm 0.00 in0.0 mm 0.10 in2.5 mm
11:35 AM 39.4°F4.1°C 33.8°F1.0°C 80% 17.4 mph NW28.0 kmh NW 20.0 mph32.2 kmh 29.90 in1012.5 mb 0.00 in0.0 mm 0.00 in0.0 mm 0.10 in2.5 mm
11:34 AM 39.4°F4.1°C 33.8°F1.0°C 80% 17.3 mph NW27.8 kmh NW 23.0 mph37.0 kmh 29.90 in1012.5 mb 0.00 in0.0 mm 0.00 in0.0 mm 0.10 in2.5 mm
11:33 AM 39.4°F4.1°C 33.8°F1.0°C 80% 19.2 mph NW30.9 kmh NW 23.0 mph37.0 kmh 29.90 in1012.5 mb 0.00 in0.0 mm 0.00 in0.0 mm 0.10 in2.5 mm
11:32 AM 39.4°F4.1°C 33.8°F1.0°C 80% 17.9 mph NW28.8 kmh NW 21.0 mph33.8 kmh 29.90 in1012.5 mb 0.00 in0.0 mm 0.00 in0.0 mm 0.10 in2.5 mm
11:31 AM 39.5°F4.2°C 33.9°F1.1°C 80% 18.9 mph NW30.4 kmh NW 22.0 mph35.4 kmh 29.90 in1012.5 mb 0.00 in0.0 mm 0.00 in0.0 mm 0.10 in2.5 mm
11:30 AM 39.5°F4.2°C 33.9°F1.1°C 80% 19.0 mph NW30.6 kmh NW 22.0 mph35.4 kmh 29.90 in1012.5 mb 0.00 in0.0 mm 0.00 in0.0 mm 0.10 in2.5 mm
11:29 AM 39.5°F4.2°C 33.9°F1.1°C 80% 18.8 mph NW30.3 kmh NW 23.0 mph37.0 kmh 29.90 in1012.5 mb 0.00 in0.0 mm 0.00 in0.0 mm 0.10 in2.5 mm
11:28 AM 39.5°F4.2°C 33.9°F1.1°C 80% 19.8 mph NW31.9 kmh NW 23.0 mph37.0 kmh 29.90 in1012.5 mb 0.00 in0.0 mm 0.00 in0.0 mm 0.10 in2.5 mm
11:27 AM 39.4°F4.1°C 33.8°F1.0°C 80% 18.1 mph NW29.1 kmh NW 22.0 mph35.4 kmh 29.90 in1012.5 mb 0.00 in0.0 mm 0.00 in0.0 mm 0.10 in2.5 mm
11:26 AM 39.5°F4.2°C 33.9°F1.1°C 80% 19.2 mph NW30.9 kmh NW 22.0 mph35.4 kmh 29.90 in1012.5 mb 0.00 in0.0 mm 0.00 in0.0 mm 0.10 in2.5 mm
11:25 AM 39.5°F4.2°C 33.9°F1.1°C 80% 18.3 mph NW29.5 kmh NW 20.0 mph32.2 kmh 29.90 in1012.5 mb 0.00 in0.0 mm 0.00 in0.0 mm 0.10 in2.5 mm
11:24 AM 39.5°F4.2°C 33.9°F1.1°C 80% 17.5 mph NW28.2 kmh NW 20.0 mph32.2 kmh 29.90 in1012.5 mb 0.00 in0.0 mm 0.00 in0.0 mm 0.10 in2.5 mm
11:23 AM 39.5°F4.2°C 33.9°F1.1°C 80% 17.2 mph NW27.7 kmh NW 21.0 mph33.8 kmh 29.90 in1012.5 mb 0.00 in0.0 mm 0.00 in0.0 mm 0.10 in2.5 mm
11:22 AM 39.5°F4.2°C 33.9°F1.1°C 80% 18.5 mph NW29.8 kmh NW 21.0 mph33.8 kmh 29.90 in1012.5 mb 0.00 in0.0 mm 0.00 in0.0 mm 0.10 in2.5 mm
11:21 AM 39.5°F4.2°C 33.9°F1.1°C 80% 18.2 mph NW29.3 kmh NW 20.0 mph32.2 kmh 29.90 in1012.5 mb 0.00 in0.0 mm 0.00 in0.0 mm 0.10 in2.5 mm
11:20 AM 39.5°F4.2°C 33.9°F1.1°C 80% 18.1 mph NW29.1 kmh NW 19.0 mph30.6 kmh 29.90 in1012.5 mb 0.00 in0.0 mm 0.00 in0.0 mm 0.10 in2.5 mm
11:19 AM 39.5°F4.2°C 33.9°F1.1°C 80% 19.0 mph NW30.6 kmh NW 22.0 mph35.4 kmh 29.90 in1012.5 mb 0.00 in0.0 mm 0.00 in0.0 mm 0.10 in2.5 mm
11:18 AM 39.5°F4.2°C 33.9°F1.1°C 80% 19.0 mph NW30.6 kmh NW 21.0 mph33.8 kmh 29.90 in1012.5 mb 0.00 in0.0 mm 0.00 in0.0 mm 0.10 in2.5 mm
11:17 AM 39.5°F4.2°C 33.9°F1.1°C 80% 18.5 mph NW29.8 kmh NW 22.0 mph35.4 kmh 29.90 in1012.5 mb 0.00 in0.0 mm 0.00 in0.0 mm 0.10 in2.5 mm
11:16 AM 39.5°F4.2°C 33.5°F0.8°C 79% 18.6 mph NW29.9 kmh NW 22.0 mph35.4 kmh 29.90 in1012.5 mb 0.00 in0.0 mm 0.00 in0.0 mm 0.10 in2.5 mm
11:15 AM 39.5°F4.2°C 33.9°F1.1°C 80% 19.5 mph NW31.4 kmh NW 22.0 mph35.4 kmh 29.90 in1012.5 mb 0.00 in0.0 mm 0.00 in0.0 mm 0.10 in2.5 mm
11:14 AM 39.5°F4.2°C 33.9°F1.1°C 80% 19.8 mph NW31.9 kmh NW 22.0 mph35.4 kmh 29.90 in1012.5 mb 0.00 in0.0 mm 0.00 in0.0 mm 0.10 in2.5 mm
11:13 AM 39.5°F4.2°C 33.9°F1.1°C 80% 19.2 mph NW30.9 kmh NW 22.0 mph35.4 kmh 29.90 in1012.5 mb 0.00 in0.0 mm 0.00 in0.0 mm 0.10 in2.5 mm
11:12 AM 39.5°F4.2°C 33.9°F1.1°C 80% 19.5 mph NW31.4 kmh NW 22.0 mph35.4 kmh 29.90 in1012.5 mb 0.00 in0.0 mm 0.00 in0.0 mm 0.10 in2.5 mm
11:11 AM 39.5°F4.2°C 33.5°F0.8°C 79% 18.8 mph NW30.3 kmh NW 22.0 mph35.4 kmh 29.90 in1012.5 mb 0.00 in0.0 mm 0.00 in0.0 mm 0.10 in2.5 mm
11:10 AM 39.5°F4.2°C 33.5°F0.8°C 79% 19.3 mph NW31.1 kmh NW 23.0 mph37.0 kmh 29.90 in1012.5 mb 0.00 in0.0 mm 0.00 in0.0 mm 0.10 in2.5 mm
11:09 AM 39.5°F4.2°C 33.5°F0.8°C 79% 20.1 mph NW32.3 kmh NW 23.0 mph37.0 kmh 29.90 in1012.5 mb 0.00 in0.0 mm 0.00 in0.0 mm 0.10 in2.5 mm
11:08 AM 39.5°F4.2°C 33.9°F1.1°C 80% 20.1 mph NW32.3 kmh NW 22.0 mph35.4 kmh 29.90 in1012.5 mb 0.00 in0.0 mm 0.00 in0.0 mm 0.10 in2.5 mm
11:07 AM 39.5°F4.2°C 33.5°F0.8°C 79% 19.0 mph NW30.6 kmh NW 22.0 mph35.4 kmh 29.90 in1012.5 mb 0.00 in0.0 mm 0.00 in0.0 mm 0.10 in2.5 mm
11:06 AM 39.5°F4.2°C 33.5°F0.8°C 79% 18.6 mph NW29.9 kmh NW 21.0 mph33.8 kmh 29.90 in1012.5 mb 0.00 in0.0 mm 0.00 in0.0 mm 0.10 in2.5 mm
11:05 AM 39.5°F4.2°C 33.5°F0.8°C 79% 18.1 mph NW29.1 kmh NW 19.0 mph30.6 kmh 29.90 in1012.5 mb 0.00 in0.0 mm 0.00 in0.0 mm 0.10 in2.5 mm
11:04 AM 39.5°F4.2°C 33.5°F0.8°C 79% 22.0 mph WNW35.4 kmh WNW 24.0 mph38.6 kmh 29.90 in1012.5 mb 0.00 in0.0 mm 0.00 in0.0 mm 0.10 in2.5 mm
11:03 AM 39.4°F4.1°C 33.4°F0.8°C 79% 20.0 mph WNW32.2 kmh WNW 23.0 mph37.0 kmh 29.90 in1012.5 mb 0.00 in0.0 mm 0.00 in0.0 mm 0.10 in2.5 mm
11:02 AM 39.4°F4.1°C 33.4°F0.8°C 79% 17.8 mph NW28.6 kmh NW 22.0 mph35.4 kmh 29.90 in1012.5 mb 0.00 in0.0 mm 0.00 in0.0 mm 0.10 in2.5 mm
11:01 AM 39.4°F4.1°C 33.4°F0.8°C 79% 19.8 mph NW31.9 kmh NW 22.0 mph35.4 kmh 29.90 in1012.5 mb 0.00 in0.0 mm 0.00 in0.0 mm 0.10 in2.5 mm
11:00 AM 39.4°F4.1°C 33.4°F0.8°C 79% 20.0 mph NW32.2 kmh NW 22.0 mph35.4 kmh 29.90 in1012.5 mb 0.00 in0.0 mm 0.00 in0.0 mm 0.10 in2.5 mm
10:59 AM 39.3°F4.1°C 33.3°F0.7°C 79% 19.9 mph NW32.0 kmh NW 22.0 mph35.4 kmh 29.90 in1012.5 mb 0.00 in0.0 mm 0.00 in0.0 mm 0.10 in2.5 mm
10:58 AM 39.3°F4.1°C 33.3°F0.7°C 79% 19.3 mph NW31.1 kmh NW 22.0 mph35.4 kmh 29.90 in1012.5 mb 0.00 in0.0 mm 0.00 in0.0 mm 0.10 in2.5 mm
10:57 AM 39.4°F4.1°C 33.4°F0.8°C 79% 19.1 mph NW30.7 kmh NW 23.0 mph37.0 kmh 29.90 in1012.5 mb 0.00 in0.0 mm 0.00 in0.0 mm 0.10 in2.5 mm
10:56 AM 39.4°F4.1°C 33.4°F0.8°C 79% 20.3 mph NW32.7 kmh NW 25.0 mph40.2 kmh 29.90 in1012.5 mb 0.00 in0.0 mm 0.00 in0.0 mm 0.10 in2.5 mm
10:55 AM 39.4°F4.1°C 33.4°F0.8°C 79% 20.5 mph NW33.0 kmh NW 25.0 mph40.2 kmh 29.90 in1012.5 mb 0.00 in0.0 mm 0.00 in0.0 mm 0.10 in2.5 mm
10:54 AM 39.4°F4.1°C 33.4°F0.8°C 79% 20.4 mph NW32.8 kmh NW 27.0 mph43.5 kmh 29.90 in1012.5 mb 0.00 in0.0 mm 0.00 in0.0 mm 0.10 in2.5 mm
10:53 AM 39.4°F4.1°C 33.1°F0.6°C 78% 23.6 mph NW38.0 kmh NW 27.0 mph43.5 kmh 29.90 in1012.5 mb 0.00 in0.0 mm 0.00 in0.0 mm 0.10 in2.5 mm
10:52 AM 39.3°F4.1°C 33.3°F0.7°C 79% 20.8 mph NW33.5 kmh NW 24.0 mph38.6 kmh 29.90 in1012.5 mb 0.00 in0.0 mm 0.00 in0.0 mm 0.10 in2.5 mm
10:51 AM 39.3°F4.1°C 33.3°F0.7°C 79% 20.2 mph NW32.5 kmh NW 22.0 mph35.4 kmh 29.90 in1012.5 mb 0.00 in0.0 mm 0.00 in0.0 mm 0.10 in2.5 mm
10:50 AM 39.4°F4.1°C 33.1°F0.6°C 78% 19.1 mph NW30.7 kmh NW 24.0 mph38.6 kmh 29.90 in1012.5 mb 0.00 in0.0 mm 0.00 in0.0 mm 0.10 in2.5 mm
10:49 AM 39.3°F4.1°C 33.3°F0.7°C 79% 21.5 mph NW34.6 kmh NW 24.0 mph38.6 kmh 29.90 in1012.5 mb 0.00 in0.0 mm 0.00 in0.0 mm 0.10 in2.5 mm
10:48 AM 39.4°F4.1°C 33.4°F0.8°C 79% 19.8 mph NW31.9 kmh NW 28.0 mph45.1 kmh 29.90 in1012.5 mb 0.00 in0.0 mm 0.00 in0.0 mm 0.10 in2.5 mm
10:47 AM 39.3°F4.1°C 33.3°F0.7°C 79% 24.2 mph NW38.9 kmh NW 28.0 mph45.1 kmh 29.90 in1012.5 mb 0.00 in0.0 mm 0.00 in0.0 mm 0.10 in2.5 mm
10:46 AM 39.2°F4.0°C 33.2°F0.7°C 79% 20.7 mph NW33.3 kmh NW 25.0 mph40.2 kmh 29.90 in1012.5 mb 0.00 in0.0 mm 0.00 in0.0 mm 0.10 in2.5 mm
10:45 AM 39.1°F3.9°C 33.5°F0.8°C 80% 21.0 mph NW33.8 kmh NW 25.0 mph40.2 kmh 29.90 in1012.5 mb 0.00 in0.0 mm 0.00 in0.0 mm 0.10 in2.5 mm
10:44 AM 39.2°F4.0°C 33.2°F0.7°C 79% 17.3 mph NW27.8 kmh NW 22.0 mph35.4 kmh 29.90 in1012.5 mb 0.00 in0.0 mm 0.00 in0.0 mm 0.10 in2.5 mm
10:43 AM 39.1°F3.9°C 33.1°F0.6°C 79% 19.4 mph NW31.2 kmh NW 22.0 mph35.4 kmh 29.90 in1012.5 mb 0.00 in0.0 mm 0.00 in0.0 mm 0.10 in2.5 mm
10:42 AM 39.2°F4.0°C 33.2°F0.7°C 79% 18.0 mph NW29.0 kmh NW 18.0 mph29.0 kmh 29.90 in1012.5 mb 0.00 in0.0 mm 0.00 in0.0 mm 0.10 in2.5 mm
10:41 AM 39.2°F4.0°C 33.2°F0.7°C 79% 19.0 mph WNW30.6 kmh WNW 22.0 mph35.4 kmh 29.90 in1012.5 mb 0.00 in0.0 mm 0.00 in0.0 mm 0.10 in2.5 mm
10:40 AM 39.1°F3.9°C 33.1°F0.6°C 79% 19.0 mph WNW30.6 kmh WNW 21.0 mph33.8 kmh 29.90 in1012.5 mb 0.00 in0.0 mm 0.00 in0.0 mm 0.10 in2.5 mm
10:39 AM 39.1°F3.9°C 33.5°F0.8°C 80% 20.3 mph NW32.7 kmh NW 24.0 mph38.6 kmh 29.90 in1012.5 mb 0.00 in0.0 mm 0.00 in0.0 mm 0.10 in2.5 mm
10:38 AM 39.0°F3.9°C 33.4°F0.8°C 80% 20.9 mph NW33.6 kmh NW 24.0 mph38.6 kmh 29.90 in1012.5 mb 0.00 in0.0 mm 0.00 in0.0 mm 0.10 in2.5 mm
10:37 AM 38.9°F3.8°C 33.3°F0.7°C 80% 19.6 mph NW31.5 kmh NW 22.0 mph35.4 kmh 29.90 in1012.5 mb 0.00 in0.0 mm 0.00 in0.0 mm 0.10 in2.5 mm
10:36 AM 39.0°F3.9°C 33.4°F0.8°C 80% 18.6 mph NW29.9 kmh NW 22.0 mph35.4 kmh 29.90 in1012.5 mb 0.00 in0.0 mm 0.00 in0.0 mm 0.10 in2.5 mm
10:35 AM 38.9°F3.8°C 33.3°F0.7°C 80% 20.1 mph NW32.3 kmh NW 23.0 mph37.0 kmh 29.90 in1012.5 mb 0.00 in0.0 mm 0.00 in0.0 mm 0.10 in2.5 mm
10:34 AM 38.9°F3.8°C 33.3°F0.7°C 80% 19.2 mph NW30.9 kmh NW 23.0 mph37.0 kmh 29.90 in1012.5 mb 0.00 in0.0 mm 0.00 in0.0 mm 0.10 in2.5 mm
10:33 AM 38.9°F3.8°C 33.6°F0.9°C 81% 19.6 mph NW31.5 kmh NW 23.0 mph37.0 kmh 29.90 in1012.5 mb 0.00 in0.0 mm 0.00 in0.0 mm 0.10 in2.5 mm
10:32 AM 38.9°F3.8°C 33.6°F0.9°C 81% 19.4 mph NW31.2 kmh NW 26.0 mph41.8 kmh 29.90 in1012.5 mb 0.00 in0.0 mm 0.00 in0.0 mm 0.10 in2.5 mm
10:31 AM 38.8°F3.8°C 33.5°F0.8°C 81% 22.9 mph NW36.9 kmh NW 26.0 mph41.8 kmh 29.89 in1012.2 mb 0.00 in0.0 mm 0.00 in0.0 mm 0.10 in2.5 mm
10:30 AM 38.8°F3.8°C 33.5°F0.8°C 81% 20.9 mph NW33.6 kmh NW 26.0 mph41.8 kmh 29.89 in1012.2 mb 0.00 in0.0 mm 0.00 in0.0 mm 0.10 in2.5 mm
10:29 AM 38.8°F3.8°C 33.8°F1.0°C 82% 19.0 mph NW30.6 kmh NW 24.0 mph38.6 kmh 29.89 in1012.2 mb 0.00 in0.0 mm 0.00 in0.0 mm 0.10 in2.5 mm
10:28 AM 38.7°F3.7°C 33.7°F0.9°C 82% 20.4 mph NW32.8 kmh NW 24.0 mph38.6 kmh 29.89 in1012.2 mb 0.00 in0.0 mm 0.00 in0.0 mm 0.10 in2.5 mm
10:27 AM 38.7°F3.7°C 33.7°F0.9°C 82% 18.7 mph WNW30.1 kmh WNW 22.0 mph35.4 kmh 29.89 in1012.2 mb 0.00 in0.0 mm 0.00 in0.0 mm 0.10 in2.5 mm
10:26 AM 38.8°F3.8°C 33.8°F1.0°C 82% 18.9 mph NW30.4 kmh NW 22.0 mph35.4 kmh 29.89 in1012.2 mb 0.00 in0.0 mm 0.00 in0.0 mm 0.10 in2.5 mm
10:25 AM 38.7°F3.7°C 33.7°F0.9°C 82% 18.7 mph WNW30.1 kmh WNW 22.0 mph35.4 kmh 29.89 in1012.2 mb 0.00 in0.0 mm 0.00 in0.0 mm 0.10 in2.5 mm
10:24 AM 38.8°F3.8°C 33.8°F1.0°C 82% 17.9 mph WNW28.8 kmh WNW 22.0 mph35.4 kmh 29.89 in1012.2 mb 0.00 in0.0 mm 0.00 in0.0 mm 0.10 in2.5 mm
10:23 AM 38.8°F3.8°C 33.8°F1.0°C 82% 19.8 mph WNW31.9 kmh WNW 22.0 mph35.4 kmh 29.89 in1012.2 mb 0.00 in0.0 mm 0.00 in0.0 mm 0.10 in2.5 mm
10:22 AM 38.8°F3.8°C 33.5°F0.8°C 81% 18.5 mph WNW29.8 kmh WNW 23.0 mph37.0 kmh 29.89 in1012.2 mb 0.00 in0.0 mm 0.00 in0.0 mm 0.10 in2.5 mm
10:21 AM 38.9°F3.8°C 33.6°F0.9°C 81% 19.4 mph WNW31.2 kmh WNW 23.0 mph37.0 kmh 29.89 in1012.2 mb 0.00 in0.0 mm 0.00 in0.0 mm 0.10 in2.5 mm
10:20 AM 38.9°F3.8°C 33.9°F1.1°C 82% 20.4 mph NW32.8 kmh NW 24.0 mph38.6 kmh 29.89 in1012.2 mb 0.00 in0.0 mm 0.00 in0.0 mm 0.10 in2.5 mm
10:19 AM 38.9°F3.8°C 33.9°F1.1°C 82% 20.5 mph WNW33.0 kmh WNW 24.0 mph38.6 kmh 29.89 in1012.2 mb 0.00 in0.0 mm 0.00 in0.0 mm 0.10 in2.5 mm
10:18 AM 38.9°F3.8°C 33.9°F1.1°C 82% 20.7 mph NW33.3 kmh NW 23.0 mph37.0 kmh 29.89 in1012.2 mb 0.00 in0.0 mm 0.00 in0.0 mm 0.10 in2.5 mm
10:17 AM 38.9°F3.8°C 33.9°F1.1°C 82% 20.1 mph WNW32.3 kmh WNW 25.0 mph40.2 kmh 29.89 in1012.2 mb 0.00 in0.0 mm 0.00 in0.0 mm 0.10 in2.5 mm
10:16 AM 38.9°F3.8°C 33.9°F1.1°C 82% 20.7 mph WNW33.3 kmh WNW 25.0 mph40.2 kmh 29.89 in1012.2 mb 0.00 in0.0 mm 0.00 in0.0 mm 0.10 in2.5 mm
10:15 AM 38.9°F3.8°C 33.9°F1.1°C 82% 20.6 mph NW33.2 kmh NW 24.0 mph38.6 kmh 29.89 in1012.2 mb 0.00 in0.0 mm 0.00 in0.0 mm 0.10 in2.5 mm
10:14 AM 39.0°F3.9°C 34.0°F1.1°C 82% 20.9 mph WNW33.6 kmh WNW 24.0 mph38.6 kmh 29.89 in1012.2 mb 0.00 in0.0 mm 0.00 in0.0 mm 0.10 in2.5 mm
10:13 AM 38.9°F3.8°C 33.9°F1.1°C 82% 21.6 mph WNW34.8 kmh WNW 25.0 mph40.2 kmh 29.89 in1012.2 mb 0.00 in0.0 mm 0.00 in0.0 mm 0.10 in2.5 mm
10:12 AM 38.9°F3.8°C 33.9°F1.1°C 82% 21.2 mph WNW34.1 kmh WNW 25.0 mph40.2 kmh 29.89 in1012.2 mb 0.00 in0.0 mm 0.00 in0.0 mm 0.10 in2.5 mm
10:11 AM 38.9°F3.8°C 33.9°F1.1°C 82% 19.6 mph WNW31.5 kmh WNW 26.0 mph41.8 kmh 29.89 in1012.2 mb 0.00 in0.0 mm 0.00 in0.0 mm 0.10 in2.5 mm
10:10 AM 38.9°F3.8°C 33.9°F1.1°C 82% 19.5 mph WNW31.4 kmh WNW 26.0 mph41.8 kmh 29.89 in1012.2 mb 0.00 in0.0 mm 0.00 in0.0 mm 0.10 in2.5 mm
10:09 AM 38.9°F3.8°C 33.9°F1.1°C 82% 18.3 mph WNW29.5 kmh WNW 20.0 mph32.2 kmh 29.89 in1012.2 mb 0.00 in0.0 mm 0.00 in0.0 mm 0.10 in2.5 mm
10:08 AM 38.9°F3.8°C 33.9°F1.1°C 82% 16.9 mph WNW27.2 kmh WNW 20.0 mph32.2 kmh 29.89 in1012.2 mb 0.00 in0.0 mm 0.00 in0.0 mm 0.10 in2.5 mm
10:07 AM 39.0°F3.9°C 34.0°F1.1°C 82% 18.6 mph WNW29.9 kmh WNW 20.0 mph32.2 kmh 29.89 in1012.2 mb 0.00 in0.0 mm 0.00 in0.0 mm 0.10 in2.5 mm
10:06 AM 38.9°F3.8°C 33.9°F1.1°C 82% 19.0 mph WNW30.6 kmh WNW 22.0 mph35.4 kmh 29.89 in1012.2 mb 0.00 in0.0 mm 0.00 in0.0 mm 0.10 in2.5 mm
10:05 AM 38.9°F3.8°C 33.9°F1.1°C 82% 21.0 mph WNW33.8 kmh WNW 23.0 mph37.0 kmh 29.89 in1012.2 mb 0.00 in0.0 mm 0.00 in0.0 mm 0.10 in2.5 mm
10:04 AM 38.9°F3.8°C 33.9°F1.1°C 82% 21.2 mph WNW34.1 kmh WNW 26.0 mph41.8 kmh 29.89 in1012.2 mb 0.00 in0.0 mm 0.00 in0.0 mm 0.10 in2.5 mm
10:03 AM 38.9°F3.8°C 33.9°F1.1°C 82% 17.6 mph WNW28.3 kmh WNW 22.0 mph35.4 kmh 29.89 in1012.2 mb 0.00 in0.0 mm 0.00 in0.0 mm 0.10 in2.5 mm
10:02 AM 38.9°F3.8°C 33.9°F1.1°C 82% 20.2 mph WNW32.5 kmh WNW 25.0 mph40.2 kmh 29.89 in1012.2 mb 0.00 in0.0 mm 0.00 in0.0 mm 0.10 in2.5 mm
10:01 AM 38.9°F3.8°C 33.9°F1.1°C 82% 20.4 mph WNW32.8 kmh WNW 25.0 mph40.2 kmh 29.89 in1012.2 mb 0.00 in0.0 mm 0.00 in0.0 mm 0.10 in2.5 mm
10:00 AM 38.9°F3.8°C 33.9°F1.1°C 82% 20.0 mph WNW32.2 kmh WNW 24.0 mph38.6 kmh 29.89 in1012.2 mb 0.00 in0.0 mm 0.00 in0.0 mm 0.10 in2.5 mm
09:59 AM 38.9°F3.8°C 34.2°F1.2°C 83% 19.0 mph WNW30.6 kmh WNW 23.0 mph37.0 kmh 29.89 in1012.2 mb 0.00 in0.0 mm 0.00 in0.0 mm 0.10 in2.5 mm
09:58 AM 38.8°F3.8°C 34.1°F1.2°C 83% 21.0 mph WNW33.8 kmh WNW 25.0 mph40.2 kmh 29.89 in1012.2 mb 0.00 in0.0 mm 0.00 in0.0 mm 0.10 in2.5 mm
09:57 AM 38.8°F3.8°C 34.1°F1.2°C 83% 19.9 mph WNW32.0 kmh WNW 25.0 mph40.2 kmh 29.89 in1012.2 mb 0.00 in0.0 mm 0.00 in0.0 mm 0.10 in2.5 mm
09:56 AM 38.8°F3.8°C 34.1°F1.2°C 83% 18.4 mph WNW29.6 kmh WNW 22.0 mph35.4 kmh 29.89 in1012.2 mb 0.00 in0.0 mm 0.00 in0.0 mm 0.10 in2.5 mm
09:55 AM 38.8°F3.8°C 34.1°F1.2°C 83% 18.1 mph WNW29.1 kmh WNW 23.0 mph37.0 kmh 29.89 in1012.2 mb 0.00 in0.0 mm 0.00 in0.0 mm 0.10 in2.5 mm
09:54 AM 38.8°F3.8°C 34.1°F1.2°C 83% 17.9 mph WNW28.8 kmh WNW 23.0 mph37.0 kmh 29.89 in1012.2 mb 0.00 in0.0 mm 0.00 in0.0 mm 0.10 in2.5 mm
09:53 AM 38.8°F3.8°C 34.1°F1.2°C 83% 18.5 mph WNW29.8 kmh WNW 22.0 mph35.4 kmh 29.89 in1012.2 mb 0.00 in0.0 mm 0.00 in0.0 mm 0.10 in2.5 mm
09:52 AM 38.7°F3.7°C 34.0°F1.1°C 83% 17.2 mph WNW27.7 kmh WNW 23.0 mph37.0 kmh 29.89 in1012.2 mb 0.00 in0.0 mm 0.00 in0.0 mm 0.10 in2.5 mm
09:51 AM 38.8°F3.8°C 34.1°F1.2°C 83% 18.2 mph WNW29.3 kmh WNW 23.0 mph37.0 kmh 29.89 in1012.2 mb 0.00 in0.0 mm 0.00 in0.0 mm 0.10 in2.5 mm
09:50 AM 38.8°F3.8°C 34.1°F1.2°C 83% 17.0 mph WNW27.4 kmh WNW 18.0 mph29.0 kmh 29.89 in1012.2 mb 0.00 in0.0 mm 0.00 in0.0 mm 0.10 in2.5 mm
09:49 AM 38.7°F3.7°C 34.0°F1.1°C 83% 18.0 mph WNW29.0 kmh WNW 20.0 mph32.2 kmh 29.89 in1012.2 mb 0.00 in0.0 mm 0.00 in0.0 mm 0.10 in2.5 mm
09:48 AM 38.7°F3.7°C 34.0°F1.1°C 83% 19.0 mph WNW30.6 kmh WNW 22.0 mph35.4 kmh 29.89 in1012.2 mb 0.00 in0.0 mm 0.00 in0.0 mm 0.10 in2.5 mm
09:47 AM 38.7°F3.7°C 34.0°F1.1°C 83% 17.1 mph WNW27.5 kmh WNW 21.0 mph33.8 kmh 29.89 in1012.2 mb 0.00 in0.0 mm 0.00 in0.0 mm 0.10 in2.5 mm
09:46 AM 38.6°F3.7°C 34.2°F1.2°C 84% 18.7 mph WNW30.1 kmh WNW 22.0 mph35.4 kmh 29.89 in1012.2 mb 0.00 in0.0 mm 0.00 in0.0 mm 0.10 in2.5 mm
09:45 AM 38.6°F3.7°C 34.2°F1.2°C 84% 18.9 mph WNW30.4 kmh WNW 23.0 mph37.0 kmh 29.89 in1012.2 mb 0.00 in0.0 mm 0.00 in0.0 mm 0.10 in2.5 mm
09:44 AM 38.6°F3.7°C 34.2°F1.2°C 84% 19.0 mph WNW30.6 kmh WNW 23.0 mph37.0 kmh 29.89 in1012.2 mb 0.00 in0.0 mm 0.00 in0.0 mm 0.10 in2.5 mm
09:43 AM 38.6°F3.7°C 34.2°F1.2°C 84% 17.3 mph WNW27.8 kmh WNW 23.0 mph37.0 kmh 29.89 in1012.2 mb 0.00 in0.0 mm 0.00 in0.0 mm 0.10 in2.5 mm
09:42 AM 38.6°F3.7°C 34.2°F1.2°C 84% 19.8 mph WNW31.9 kmh WNW 23.0 mph37.0 kmh 29.89 in1012.2 mb 0.00 in0.0 mm 0.00 in0.0 mm 0.10 in2.5 mm
09:41 AM 38.6°F3.7°C 34.2°F1.2°C 84% 18.1 mph WNW29.1 kmh WNW 25.0 mph40.2 kmh 29.89 in1012.2 mb 0.00 in0.0 mm 0.00 in0.0 mm 0.10 in2.5 mm
09:40 AM 38.6°F3.7°C 34.2°F1.2°C 84% 18.6 mph WNW29.9 kmh WNW 25.0 mph40.2 kmh 29.89 in1012.2 mb 0.00 in0.0 mm 0.00 in0.0 mm 0.10 in2.5 mm
09:39 AM 38.6°F3.7°C 34.2°F1.2°C 84% 17.4 mph WNW28.0 kmh WNW 20.0 mph32.2 kmh 29.89 in1012.2 mb 0.00 in0.0 mm 0.00 in0.0 mm 0.10 in2.5 mm
09:38 AM 38.7°F3.7°C 34.3°F1.3°C 84% 17.5 mph WNW28.2 kmh WNW 23.0 mph37.0 kmh 29.89 in1012.2 mb 0.00 in0.0 mm 0.00 in0.0 mm 0.10 in2.5 mm
09:37 AM 38.7°F3.7°C 34.3°F1.3°C 84% 19.5 mph WNW31.4 kmh WNW 23.0 mph37.0 kmh 29.89 in1012.2 mb 0.00 in0.0 mm 0.00 in0.0 mm 0.10 in2.5 mm
09:36 AM 38.6°F3.7°C 34.2°F1.2°C 84% 19.0 mph WNW30.6 kmh WNW 23.0 mph37.0 kmh 29.89 in1012.2 mb 0.00 in0.0 mm 0.00 in0.0 mm 0.10 in2.5 mm
09:35 AM 38.6°F3.7°C 34.2°F1.2°C 84% 18.0 mph WNW29.0 kmh WNW 22.0 mph35.4 kmh 29.89 in1012.2 mb 0.00 in0.0 mm 0.00 in0.0 mm 0.10 in2.5 mm
09:34 AM 38.6°F3.7°C 34.5°F1.4°C 85% 17.1 mph WNW27.5 kmh WNW 23.0 mph37.0 kmh 29.89 in1012.2 mb 0.00 in0.0 mm 0.00 in0.0 mm 0.10 in2.5 mm
09:33 AM 38.6°F3.7°C 34.5°F1.4°C 85% 18.9 mph WNW30.4 kmh WNW 23.0 mph37.0 kmh 29.89 in1012.2 mb 0.00 in0.0 mm 0.00 in0.0 mm 0.10 in2.5 mm
09:32 AM 38.5°F3.6°C 34.4°F1.3°C 85% 18.7 mph WNW30.1 kmh WNW 23.0 mph37.0 kmh 29.89 in1012.2 mb 0.00 in0.0 mm 0.00 in0.0 mm 0.10 in2.5 mm
09:31 AM 38.5°F3.6°C 34.4°F1.3°C 85% 16.2 mph WNW26.1 kmh WNW 20.0 mph32.2 kmh 29.89 in1012.2 mb 0.00 in0.0 mm 0.00 in0.0 mm 0.10 in2.5 mm
09:30 AM 38.5°F3.6°C 34.4°F1.3°C 85% 15.9 mph WNW25.6 kmh WNW 18.0 mph29.0 kmh 29.89 in1012.2 mb 0.00 in0.0 mm 0.00 in0.0 mm 0.10 in2.5 mm
09:29 AM 38.5°F3.6°C 34.4°F1.3°C 85% 15.9 mph W25.6 kmh W 19.0 mph30.6 kmh 29.89 in1012.2 mb 0.00 in0.0 mm 0.00 in0.0 mm 0.10 in2.5 mm
09:28 AM 38.6°F3.7°C 34.5°F1.4°C 85% 16.6 mph WNW26.7 kmh WNW 19.0 mph30.6 kmh 29.89 in1012.2 mb 0.00 in0.0 mm 0.00 in0.0 mm 0.10 in2.5 mm
09:27 AM 38.6°F3.7°C 34.5°F1.4°C 85% 15.0 mph WNW24.1 kmh WNW 18.0 mph29.0 kmh 29.89 in1012.2 mb 0.00 in0.0 mm 0.00 in0.0 mm 0.10 in2.5 mm
09:26 AM 38.6°F3.7°C 34.5°F1.4°C 85% 17.0 mph WNW27.4 kmh WNW 20.0 mph32.2 kmh 29.89 in1012.2 mb 0.00 in0.0 mm 0.00 in0.0 mm 0.10 in2.5 mm
09:25 AM 38.7°F3.7°C 34.6°F1.4°C 85% 15.9 mph W25.6 kmh W 20.0 mph32.2 kmh 29.89 in1012.2 mb 0.00 in0.0 mm 0.00 in0.0 mm 0.10 in2.5 mm
09:24 AM 38.7°F3.7°C 34.6°F1.4°C 85% 18.3 mph WNW29.5 kmh WNW 20.0 mph32.2 kmh 29.89 in1012.2 mb 0.00 in0.0 mm 0.00 in0.0 mm 0.10 in2.5 mm
09:23 AM 38.8°F3.8°C 34.7°F1.5°C 85% 16.7 mph WNW26.9 kmh WNW 20.0 mph32.2 kmh 29.89 in1012.2 mb 0.00 in0.0 mm 0.00 in0.0 mm 0.10 in2.5 mm
09:22 AM 38.8°F3.8°C 34.7°F1.5°C 85% 17.6 mph WNW28.3 kmh WNW 22.0 mph35.4 kmh 29.89 in1012.2 mb 0.00 in0.0 mm 0.00 in0.0 mm 0.10 in2.5 mm
09:21 AM 38.8°F3.8°C 34.7°F1.5°C 85% 18.4 mph W29.6 kmh W 28.0 mph45.1 kmh 29.89 in1012.2 mb 0.00 in0.0 mm 0.00 in0.0 mm 0.10 in2.5 mm
09:20 AM 38.9°F3.8°C 34.8°F1.6°C 85% 22.3 mph W35.9 kmh W 28.0 mph45.1 kmh 29.89 in1012.2 mb 0.00 in0.0 mm 0.00 in0.0 mm 0.10 in2.5 mm
09:19 AM 38.7°F3.7°C 34.6°F1.4°C 85% 19.0 mph W30.6 kmh W 25.0 mph40.2 kmh 29.89 in1012.2 mb 0.00 in0.0 mm 0.00 in0.0 mm 0.10 in2.5 mm
09:18 AM 38.7°F3.7°C 34.6°F1.4°C 85% 15.8 mph W25.4 kmh W 22.0 mph35.4 kmh 29.89 in1012.2 mb 0.00 in0.0 mm 0.00 in0.0 mm 0.10 in2.5 mm
09:17 AM 38.7°F3.7°C 34.6°F1.4°C 85% 19.2 mph W30.9 kmh W 22.0 mph35.4 kmh 29.89 in1012.2 mb 0.00 in0.0 mm 0.00 in0.0 mm 0.10 in2.5 mm
09:16 AM 38.7°F3.7°C 34.9°F1.6°C 86% 15.6 mph W25.1 kmh W 18.0 mph29.0 kmh 29.89 in1012.2 mb 0.00 in0.0 mm 0.00 in0.0 mm 0.10 in2.5 mm
09:15 AM 38.7°F3.7°C 34.6°F1.4°C 85% 15.0 mph W24.1 kmh W 18.0 mph29.0 kmh 29.89 in1012.2 mb 0.00 in0.0 mm 0.00 in0.0 mm 0.10 in2.5 mm
09:14 AM 38.8°F3.8°C 34.7°F1.5°C 85% 17.0 mph W27.4 kmh W 19.0 mph30.6 kmh 29.89 in1012.2 mb 0.00 in0.0 mm 0.00 in0.0 mm 0.10 in2.5 mm
09:13 AM 38.8°F3.8°C 34.7°F1.5°C 85% 15.6 mph W25.1 kmh W 20.0 mph32.2 kmh 29.89 in1012.2 mb 0.00 in0.0 mm 0.00 in0.0 mm 0.10 in2.5 mm
09:12 AM 38.8°F3.8°C 35.0°F1.7°C 86% 17.5 mph W28.2 kmh W 20.0 mph32.2 kmh 29.89 in1012.2 mb 0.01 in0.3 mm 0.00 in0.0 mm 0.10 in2.5 mm
09:11 AM 38.9°F3.8°C 35.1°F1.7°C 86% 17.5 mph W28.2 kmh W 20.0 mph32.2 kmh 29.89 in1012.2 mb 0.01 in0.3 mm 0.00 in0.0 mm 0.10 in2.5 mm
09:10 AM 38.8°F3.8°C 35.0°F1.7°C 86% 16.6 mph W26.7 kmh W 20.0 mph32.2 kmh 29.89 in1012.2 mb 0.01 in0.3 mm 0.00 in0.0 mm 0.10 in2.5 mm
09:09 AM 38.8°F3.8°C 34.7°F1.5°C 85% 17.1 mph W27.5 kmh W 21.0 mph33.8 kmh 29.89 in1012.2 mb 0.01 in0.3 mm 0.00 in0.0 mm 0.10 in2.5 mm
09:08 AM 38.9°F3.8°C 35.1°F1.7°C 86% 18.4 mph W29.6 kmh W 21.0 mph33.8 kmh 29.89 in1012.2 mb 0.01 in0.3 mm 0.00 in0.0 mm 0.10 in2.5 mm
09:07 AM 38.9°F3.8°C 34.8°F1.6°C 85% 16.1 mph W25.9 kmh W 18.0 mph29.0 kmh 29.89 in1012.2 mb 0.01 in0.3 mm 0.00 in0.0 mm 0.10 in2.5 mm
09:06 AM 38.8°F3.8°C 34.7°F1.5°C 85% 16.9 mph W27.2 kmh W 18.0 mph29.0 kmh 29.89 in1012.2 mb 0.01 in0.3 mm 0.00 in0.0 mm 0.10 in2.5 mm
09:05 AM 38.8°F3.8°C 34.7°F1.5°C 85% 18.0 mph W29.0 kmh W 20.0 mph32.2 kmh 29.89 in1012.2 mb 0.01 in0.3 mm 0.00 in0.0 mm 0.10 in2.5 mm
09:04 AM 38.9°F3.8°C 34.8°F1.6°C 85% 16.0 mph W25.7 kmh W 18.0 mph29.0 kmh 29.89 in1012.2 mb 0.01 in0.3 mm 0.00 in0.0 mm 0.10 in2.5 mm
09:03 AM 38.9°F3.8°C 34.8°F1.6°C 85% 16.8 mph W27.0 kmh W 21.0 mph33.8 kmh 29.89 in1012.2 mb 0.01 in0.3 mm 0.00 in0.0 mm 0.10 in2.5 mm
09:02 AM 38.9°F3.8°C 35.1°F1.7°C 86% 18.0 mph W29.0 kmh W 21.0 mph33.8 kmh 29.89 in1012.2 mb 0.01 in0.3 mm 0.00 in0.0 mm 0.10 in2.5 mm
09:01 AM 38.8°F3.8°C 34.7°F1.5°C 85% 17.6 mph W28.3 kmh W 22.0 mph35.4 kmh 29.89 in1012.2 mb 0.01 in0.3 mm 0.00 in0.0 mm 0.10 in2.5 mm
09:00 AM 38.8°F3.8°C 35.0°F1.7°C 86% 18.5 mph W29.8 kmh W 22.0 mph35.4 kmh 29.89 in1012.2 mb 0.01 in0.3 mm 0.00 in0.0 mm 0.10 in2.5 mm
08:59 AM 38.8°F3.8°C 34.7°F1.5°C 85% 18.4 mph W29.6 kmh W 22.0 mph35.4 kmh 29.89 in1012.2 mb 0.01 in0.3 mm 0.00 in0.0 mm 0.10 in2.5 mm
08:58 AM 38.8°F3.8°C 35.0°F1.7°C 86% 17.9 mph W28.8 kmh W 22.0 mph35.4 kmh 29.89 in1012.2 mb 0.01 in0.3 mm 0.00 in0.0 mm 0.10 in2.5 mm
08:57 AM 38.8°F3.8°C 34.7°F1.5°C 85% 18.2 mph W29.3 kmh W 22.0 mph35.4 kmh 29.89 in1012.2 mb 0.01 in0.3 mm 0.00 in0.0 mm 0.10 in2.5 mm
08:56 AM 38.7°F3.7°C 34.9°F1.6°C 86% 18.0 mph W29.0 kmh W 22.0 mph35.4 kmh 29.89 in1012.2 mb 0.01 in0.3 mm 0.00 in0.0 mm 0.10 in2.5 mm
08:55 AM 38.7°F3.7°C 34.9°F1.6°C 86% 16.7 mph W26.9 kmh W 21.0 mph33.8 kmh 29.89 in1012.2 mb 0.01 in0.3 mm 0.00 in0.0 mm 0.10 in2.5 mm
08:54 AM 38.6°F3.7°C 34.8°F1.6°C 86% 17.3 mph W27.8 kmh W 22.0 mph35.4 kmh 29.89 in1012.2 mb 0.01 in0.3 mm 0.00 in0.0 mm 0.10 in2.5 mm
08:53 AM 38.6°F3.7°C 34.8°F1.6°C 86% 18.6 mph W29.9 kmh W 22.0 mph35.4 kmh 29.89 in1012.2 mb 0.01 in0.3 mm 0.00 in0.0 mm 0.10 in2.5 mm
08:52 AM 38.6°F3.7°C 34.8°F1.6°C 86% 17.2 mph W27.7 kmh W 21.0 mph33.8 kmh 29.89 in1012.2 mb 0.01 in0.3 mm 0.00 in0.0 mm 0.10 in2.5 mm
08:51 AM 38.6°F3.7°C 34.8°F1.6°C 86% 17.1 mph W27.5 kmh W 20.0 mph32.2 kmh 29.89 in1012.2 mb 0.01 in0.3 mm 0.00 in0.0 mm 0.10 in2.5 mm
08:50 AM 38.5°F3.6°C 34.7°F1.5°C 86% 15.4 mph W24.8 kmh W 20.0 mph32.2 kmh 29.89 in1012.2 mb 0.01 in0.3 mm 0.00 in0.0 mm 0.10 in2.5 mm
08:49 AM 38.5°F3.6°C 34.7°F1.5°C 86% 16.5 mph W26.6 kmh W 20.0 mph32.2 kmh 29.89 in1012.2 mb 0.01 in0.3 mm 0.00 in0.0 mm 0.10 in2.5 mm
08:48 AM 38.5°F3.6°C 34.7°F1.5°C 86% 17.0 mph W27.4 kmh W 20.0 mph32.2 kmh 29.89 in1012.2 mb 0.01 in0.3 mm 0.00 in0.0 mm 0.10 in2.5 mm
08:47 AM 38.5°F3.6°C 34.7°F1.5°C 86% 18.0 mph W29.0 kmh W 19.0 mph30.6 kmh 29.89 in1012.2 mb 0.01 in0.3 mm 0.00 in0.0 mm 0.10 in2.5 mm
08:46 AM 38.5°F3.6°C 34.7°F1.5°C 86% 19.0 mph W30.6 kmh W 22.0 mph35.4 kmh 29.89 in1012.2 mb 0.01 in0.3 mm 0.00 in0.0 mm 0.10 in2.5 mm
08:45 AM 38.4°F3.6°C 34.6°F1.4°C 86% 17.0 mph W27.4 kmh W 20.0 mph32.2 kmh 29.89 in1012.2 mb 0.01 in0.3 mm 0.00 in0.0 mm 0.10 in2.5 mm
08:44 AM 38.4°F3.6°C 34.6°F1.4°C 86% 18.4 mph W29.6 kmh W 21.0 mph33.8 kmh 29.89 in1012.2 mb 0.01 in0.3 mm 0.00 in0.0 mm 0.10 in2.5 mm
08:43 AM 38.4°F3.6°C 34.6°F1.4°C 86% 17.4 mph W28.0 kmh W 20.0 mph32.2 kmh 29.89 in1012.2 mb 0.01 in0.3 mm 0.00 in0.0 mm 0.10 in2.5 mm
08:42 AM 38.3°F3.5°C 34.5°F1.4°C 86% 17.7 mph W28.5 kmh W 20.0 mph32.2 kmh 29.89 in1012.2 mb 0.01 in0.3 mm 0.00 in0.0 mm 0.10 in2.5 mm
08:41 AM 38.4°F3.6°C 34.6°F1.4°C 86% 16.8 mph W27.0 kmh W 20.0 mph32.2 kmh 29.89 in1012.2 mb 0.01 in0.3 mm 0.00 in0.0 mm 0.10 in2.5 mm
08:40 AM 38.3°F3.5°C 34.5°F1.4°C 86% 15.7 mph W25.3 kmh W 23.0 mph37.0 kmh 29.89 in1012.2 mb 0.01 in0.3 mm 0.00 in0.0 mm 0.10 in2.5 mm
08:39 AM 38.3°F3.5°C 34.5°F1.4°C 86% 17.5 mph W28.2 kmh W 23.0 mph37.0 kmh 29.89 in1012.2 mb 0.01 in0.3 mm 0.00 in0.0 mm 0.10 in2.5 mm
08:38 AM 38.3°F3.5°C 34.5°F1.4°C 86% 17.6 mph W28.3 kmh W 21.0 mph33.8 kmh 29.89 in1012.2 mb 0.01 in0.3 mm 0.00 in0.0 mm 0.10 in2.5 mm
08:37 AM 38.2°F3.4°C 34.4°F1.3°C 86% 15.9 mph W25.6 kmh W 20.0 mph32.2 kmh 29.89 in1012.2 mb 0.01 in0.3 mm 0.00 in0.0 mm 0.10 in2.5 mm
08:36 AM 38.2°F3.4°C 34.4°F1.3°C 86% 16.5 mph W26.6 kmh W 20.0 mph32.2 kmh 29.89 in1012.2 mb 0.01 in0.3 mm 0.00 in0.0 mm 0.10 in2.5 mm
08:35 AM 38.3°F3.5°C 34.5°F1.4°C 86% 17.7 mph W28.5 kmh W 20.0 mph32.2 kmh 29.89 in1012.2 mb 0.01 in0.3 mm 0.00 in0.0 mm 0.10 in2.5 mm
08:34 AM 38.2°F3.4°C 34.4°F1.3°C 86% 17.2 mph W27.7 kmh W 20.0 mph32.2 kmh 29.89 in1012.2 mb 0.01 in0.3 mm 0.00 in0.0 mm 0.10 in2.5 mm
08:33 AM 38.2°F3.4°C 34.4°F1.3°C 86% 17.6 mph W28.3 kmh W 20.0 mph32.2 kmh 29.89 in1012.2 mb 0.01 in0.3 mm 0.00 in0.0 mm 0.10 in2.5 mm
08:32 AM 38.2°F3.4°C 34.4°F1.3°C 86% 18.0 mph W29.0 kmh W 20.0 mph32.2 kmh 29.89 in1012.2 mb 0.01 in0.3 mm 0.00 in0.0 mm 0.10 in2.5 mm
08:31 AM 38.2°F3.4°C 34.4°F1.3°C 86% 18.5 mph W29.8 kmh W 20.0 mph32.2 kmh 29.89 in1012.2 mb 0.01 in0.3 mm 0.00 in0.0 mm 0.10 in2.5 mm
08:30 AM 38.2°F3.4°C 34.4°F1.3°C 86% 17.2 mph WSW27.7 kmh WSW 20.0 mph32.2 kmh 29.89 in1012.2 mb 0.01 in0.3 mm 0.00 in0.0 mm 0.10 in2.5 mm
08:29 AM 38.2°F3.4°C 34.4°F1.3°C 86% 19.0 mph W30.6 kmh W 20.0 mph32.2 kmh 29.89 in1012.2 mb 0.01 in0.3 mm 0.00 in0.0 mm 0.10 in2.5 mm
08:28 AM 38.1°F3.4°C 34.3°F1.3°C 86% 18.0 mph W29.0 kmh W 22.0 mph35.4 kmh 29.89 in1012.2 mb 0.01 in0.3 mm 0.00 in0.0 mm 0.10 in2.5 mm
08:27 AM 38.1°F3.4°C 34.3°F1.3°C 86% 18.0 mph W29.0 kmh W 20.0 mph32.2 kmh 29.89 in1012.2 mb 0.01 in0.3 mm 0.00 in0.0 mm 0.10 in2.5 mm
08:26 AM 38.1°F3.4°C 34.3°F1.3°C 86% 17.8 mph WSW28.6 kmh WSW 22.0 mph35.4 kmh 29.89 in1012.2 mb 0.01 in0.3 mm 0.00 in0.0 mm 0.10 in2.5 mm
08:25 AM 38.0°F3.3°C 34.2°F1.2°C 86% 19.2 mph W30.9 kmh W 22.0 mph35.4 kmh 29.89 in1012.2 mb 0.01 in0.3 mm 0.00 in0.0 mm 0.10 in2.5 mm
08:24 AM 38.0°F3.3°C 34.2°F1.2°C 86% 16.7 mph WSW26.9 kmh WSW 19.0 mph30.6 kmh 29.89 in1012.2 mb 0.01 in0.3 mm 0.00 in0.0 mm 0.10 in2.5 mm
08:23 AM 38.0°F3.3°C 34.2°F1.2°C 86% 16.7 mph WSW26.9 kmh WSW 19.0 mph30.6 kmh 29.89 in1012.2 mb 0.01 in0.3 mm 0.00 in0.0 mm 0.10 in2.5 mm
08:22 AM 38.0°F3.3°C 34.2°F1.2°C 86% 17.9 mph WSW28.8 kmh WSW 20.0 mph32.2 kmh 29.89 in1012.2 mb 0.01 in0.3 mm 0.00 in0.0 mm 0.10 in2.5 mm
08:21 AM 38.0°F3.3°C 34.2°F1.2°C 86% 18.5 mph WSW29.8 kmh WSW 20.0 mph32.2 kmh 29.89 in1012.2 mb 0.01 in0.3 mm 0.00 in0.0 mm 0.10 in2.5 mm
08:20 AM 37.9°F3.3°C 34.1°F1.2°C 86% 17.2 mph WSW27.7 kmh WSW 20.0 mph32.2 kmh 29.89 in1012.2 mb 0.01 in0.3 mm 0.00 in0.0 mm 0.10 in2.5 mm
08:19 AM 37.9°F3.3°C 34.1°F1.2°C 86% 17.7 mph WSW28.5 kmh WSW 20.0 mph32.2 kmh 29.89 in1012.2 mb 0.01 in0.3 mm 0.00 in0.0 mm 0.10 in2.5 mm
08:18 AM 37.9°F3.3°C 34.1°F1.2°C 86% 16.8 mph WSW27.0 kmh WSW 21.0 mph33.8 kmh 29.89 in1012.2 mb 0.01 in0.3 mm 0.00 in0.0 mm 0.10 in2.5 mm
08:17 AM 37.9°F3.3°C 34.1°F1.2°C 86% 18.9 mph WSW30.4 kmh WSW 21.0 mph33.8 kmh 29.89 in1012.2 mb 0.01 in0.3 mm 0.00 in0.0 mm 0.10 in2.5 mm
08:16 AM 37.9°F3.3°C 34.1°F1.2°C 86% 17.1 mph WSW27.5 kmh WSW 19.0 mph30.6 kmh 29.89 in1012.2 mb 0.01 in0.3 mm 0.00 in0.0 mm 0.10 in2.5 mm
08:15 AM 37.8°F3.2°C 34.0°F1.1°C 86% 17.0 mph WSW27.4 kmh WSW 21.0 mph33.8 kmh 29.89 in1012.2 mb 0.01 in0.3 mm 0.00 in0.0 mm 0.10 in2.5 mm
08:14 AM 37.8°F3.2°C 34.0°F1.1°C 86% 18.7 mph WSW30.1 kmh WSW 21.0 mph33.8 kmh 29.89 in1012.2 mb 0.01 in0.3 mm 0.00 in0.0 mm 0.10 in2.5 mm
08:13 AM 37.8°F3.2°C 34.0°F1.1°C 86% 17.3 mph WSW27.8 kmh WSW 23.0 mph37.0 kmh 29.89 in1012.2 mb 0.01 in0.3 mm 0.60 in15.2 mm 0.10 in2.5 mm
08:12 AM 37.7°F3.2°C 33.9°F1.1°C 86% 16.8 mph WSW27.0 kmh WSW 23.0 mph37.0 kmh 29.89 in1012.2 mb 0.00 in0.0 mm 0.00 in0.0 mm 0.09 in2.3 mm
08:11 AM 37.7°F3.2°C 33.9°F1.1°C 86% 16.7 mph WSW26.9 kmh WSW 18.0 mph29.0 kmh 29.89 in1012.2 mb 0.00 in0.0 mm 0.00 in0.0 mm 0.09 in2.3 mm
08:10 AM 37.7°F3.2°C 33.9°F1.1°C 86% 17.0 mph WSW27.4 kmh WSW 18.0 mph29.0 kmh 29.88 in1011.9 mb 0.00 in0.0 mm 0.00 in0.0 mm 0.09 in2.3 mm
08:09 AM 37.6°F3.1°C 33.8°F1.0°C 86% 17.0 mph W27.4 kmh W 19.0 mph30.6 kmh 29.89 in1012.2 mb 0.00 in0.0 mm 0.00 in0.0 mm 0.09 in2.3 mm
08:08 AM 37.6°F3.1°C 33.8°F1.0°C 86% 17.0 mph W27.4 kmh W 19.0 mph30.6 kmh 29.89 in1012.2 mb 0.00 in0.0 mm 0.00 in0.0 mm 0.09 in2.3 mm
08:07 AM 37.6°F3.1°C 34.1°F1.2°C 87% 15.4 mph WSW24.8 kmh WSW 19.0 mph30.6 kmh 29.88 in1011.9 mb 0.00 in0.0 mm 0.00 in0.0 mm 0.09 in2.3 mm
08:06 AM 37.6°F3.1°C 34.1°F1.2°C 87% 16.7 mph WSW26.9 kmh WSW 19.0 mph30.6 kmh 29.88 in1011.9 mb 0.00 in0.0 mm 0.00 in0.0 mm 0.09 in2.3 mm
08:05 AM 37.5°F3.1°C 34.0°F1.1°C 87% 16.3 mph WSW26.2 kmh WSW 19.0 mph30.6 kmh 29.88 in1011.9 mb 0.00 in0.0 mm 0.00 in0.0 mm 0.09 in2.3 mm
08:04 AM 37.5°F3.1°C 34.0°F1.1°C 87% 16.0 mph WSW25.7 kmh WSW 18.0 mph29.0 kmh 29.89 in1012.2 mb 0.00 in0.0 mm 0.00 in0.0 mm 0.09 in2.3 mm
08:03 AM 37.5°F3.1°C 34.0°F1.1°C 87% 16.0 mph WSW25.7 kmh WSW 18.0 mph29.0 kmh 29.89 in1012.2 mb 0.00 in0.0 mm 0.00 in0.0 mm 0.09 in2.3 mm
08:02 AM 37.4°F3.0°C 33.9°F1.1°C 87% 18.0 mph WSW29.0 kmh WSW 20.0 mph32.2 kmh 29.89 in1012.2 mb 0.00 in0.0 mm 0.00 in0.0 mm 0.09 in2.3 mm
08:01 AM 37.4°F3.0°C 33.9°F1.1°C 87% 15.6 mph WSW25.1 kmh WSW 19.0 mph30.6 kmh 29.88 in1011.9 mb 0.00 in0.0 mm 0.00 in0.0 mm 0.09 in2.3 mm
08:00 AM 37.4°F3.0°C 33.9°F1.1°C 87% 15.1 mph WSW24.3 kmh WSW 18.0 mph29.0 kmh 29.89 in1012.2 mb 0.00 in0.0 mm 0.00 in0.0 mm 0.09 in2.3 mm
07:59 AM 37.3°F2.9°C 33.8°F1.0°C 87% 16.5 mph WSW26.6 kmh WSW 19.0 mph30.6 kmh 29.89 in1012.2 mb 0.00 in0.0 mm 0.00 in0.0 mm 0.09 in2.3 mm
07:58 AM 37.3°F2.9°C 33.8°F1.0°C 87% 16.2 mph WSW26.1 kmh WSW 19.0 mph30.6 kmh 29.89 in1012.2 mb 0.00 in0.0 mm 0.00 in0.0 mm 0.09 in2.3 mm
07:57 AM 37.3°F2.9°C 33.8°F1.0°C 87% 15.7 mph WSW25.3 kmh WSW 18.0 mph29.0 kmh 29.89 in1012.2 mb 0.00 in0.0 mm 0.00 in0.0 mm 0.09 in2.3 mm
07:56 AM 37.3°F2.9°C 33.8°F1.0°C 87% 15.1 mph WSW24.3 kmh WSW 18.0 mph29.0 kmh 29.89 in1012.2 mb 0.00 in0.0 mm 0.00 in0.0 mm 0.09 in2.3 mm
07:55 AM 37.3°F2.9°C 33.8°F1.0°C 87% 15.6 mph WSW25.1 kmh WSW 18.0 mph29.0 kmh 29.89 in1012.2 mb 0.00 in0.0 mm 0.00 in0.0 mm 0.09 in2.3 mm
07:54 AM 37.3°F2.9°C 33.8°F1.0°C 87% 14.3 mph WSW23.0 kmh WSW 17.0 mph27.4 kmh 29.89 in1012.2 mb 0.00 in0.0 mm 0.00 in0.0 mm 0.09 in2.3 mm
07:53 AM 37.4°F3.0°C 33.9°F1.1°C 87% 15.7 mph WSW25.3 kmh WSW 17.0 mph27.4 kmh 29.89 in1012.2 mb 0.00 in0.0 mm 0.00 in0.0 mm 0.09 in2.3 mm
07:52 AM 37.4°F3.0°C 33.9°F1.1°C 87% 14.5 mph WSW23.3 kmh WSW 17.0 mph27.4 kmh 29.89 in1012.2 mb 0.00 in0.0 mm 0.00 in0.0 mm 0.09 in2.3 mm
07:51 AM 37.4°F3.0°C 33.9°F1.1°C 87% 14.8 mph WSW23.8 kmh WSW 17.0 mph27.4 kmh 29.89 in1012.2 mb 0.00 in0.0 mm 0.00 in0.0 mm 0.09 in2.3 mm
07:50 AM 37.4°F3.0°C 33.9°F1.1°C 87% 15.8 mph WSW25.4 kmh WSW 17.0 mph27.4 kmh 29.89 in1012.2 mb 0.00 in0.0 mm 0.00 in0.0 mm 0.09 in2.3 mm
07:49 AM 37.5°F3.1°C 34.0°F1.1°C 87% 15.1 mph WSW24.3 kmh WSW 17.0 mph27.4 kmh 29.89 in1012.2 mb 0.00 in0.0 mm 0.00 in0.0 mm 0.09 in2.3 mm
07:48 AM 37.5°F3.1°C 34.0°F1.1°C 87% 15.5 mph WSW24.9 kmh WSW 18.0 mph29.0 kmh 29.89 in1012.2 mb 0.00 in0.0 mm 0.00 in0.0 mm 0.09 in2.3 mm
07:47 AM 37.5°F3.1°C 34.0°F1.1°C 87% 15.4 mph WSW24.8 kmh WSW 19.0 mph30.6 kmh 29.89 in1012.2 mb 0.00 in0.0 mm 0.00 in0.0 mm 0.09 in2.3 mm
07:46 AM 37.5°F3.1°C 34.0°F1.1°C 87% 16.0 mph WSW25.7 kmh WSW 19.0 mph30.6 kmh 29.89 in1012.2 mb 0.00 in0.0 mm 0.00 in0.0 mm 0.09 in2.3 mm
07:45 AM 37.5°F3.1°C 34.0°F1.1°C 87% 15.3 mph WSW24.6 kmh WSW 17.0 mph27.4 kmh 29.89 in1012.2 mb 0.00 in0.0 mm 0.00 in0.0 mm 0.09 in2.3 mm
07:44 AM 37.5°F3.1°C 34.0°F1.1°C 87% 15.8 mph W25.4 kmh W 17.0 mph27.4 kmh 29.89 in1012.2 mb 0.00 in0.0 mm 0.00 in0.0 mm 0.09 in2.3 mm
07:43 AM 37.4°F3.0°C 33.9°F1.1°C 87% 15.6 mph WSW25.1 kmh WSW 17.0 mph27.4 kmh 29.89 in1012.2 mb 0.00 in0.0 mm 0.00 in0.0 mm 0.09 in2.3 mm
07:42 AM 37.4°F3.0°C 33.9°F1.1°C 87% 15.0 mph W24.1 kmh W 16.0 mph25.7 kmh 29.89 in1012.2 mb 0.00 in0.0 mm 0.00 in0.0 mm 0.09 in2.3 mm
07:41 AM 37.4°F3.0°C 33.9°F1.1°C 87% 16.0 mph W25.7 kmh W 18.0 mph29.0 kmh 29.89 in1012.2 mb 0.00 in0.0 mm 0.00 in0.0 mm 0.09 in2.3 mm
07:40 AM 37.4°F3.0°C 33.9°F1.1°C 87% 15.3 mph WSW24.6 kmh WSW 18.0 mph29.0 kmh 29.89 in1012.2 mb 0.00 in0.0 mm 0.00 in0.0 mm 0.09 in2.3 mm
07:39 AM 37.4°F3.0°C 33.9°F1.1°C 87% 14.5 mph W23.3 kmh W 18.0 mph29.0 kmh 29.89 in1012.2 mb 0.00 in0.0 mm 0.00 in0.0 mm 0.09 in2.3 mm
07:38 AM 37.3°F2.9°C 33.8°F1.0°C 87% 15.3 mph WSW24.6 kmh WSW 17.0 mph27.4 kmh 29.89 in1012.2 mb 0.00 in0.0 mm 0.00 in0.0 mm 0.09 in2.3 mm
07:37 AM 37.3°F2.9°C 33.8°F1.0°C 87% 14.4 mph W23.2 kmh W 16.0 mph25.7 kmh 29.89 in1012.2 mb 0.00 in0.0 mm 0.00 in0.0 mm 0.09 in2.3 mm
07:36 AM 37.3°F2.9°C 33.8°F1.0°C 87% 15.0 mph W24.1 kmh W 16.0 mph25.7 kmh 29.89 in1012.2 mb 0.00 in0.0 mm 0.00 in0.0 mm 0.09 in2.3 mm
07:35 AM 37.4°F3.0°C 33.9°F1.1°C 87% 15.0 mph W24.1 kmh W 17.0 mph27.4 kmh 29.89 in1012.2 mb 0.00 in0.0 mm 0.00 in0.0 mm 0.09 in2.3 mm
07:34 AM 37.4°F3.0°C 33.9°F1.1°C 87% 15.7 mph WSW25.3 kmh WSW 17.0 mph27.4 kmh 29.89 in1012.2 mb 0.00 in0.0 mm 0.00 in0.0 mm 0.09 in2.3 mm
07:33 AM 37.4°F3.0°C 33.9°F1.1°C 87% 14.2 mph WSW22.9 kmh WSW 20.0 mph32.2 kmh 29.89 in1012.2 mb 0.00 in0.0 mm 0.00 in0.0 mm 0.09 in2.3 mm
07:32 AM 37.4°F3.0°C 33.9°F1.1°C 87% 16.4 mph W26.4 kmh W 20.0 mph32.2 kmh 29.89 in1012.2 mb 0.00 in0.0 mm 0.00 in0.0 mm 0.09 in2.3 mm
07:31 AM 37.4°F3.0°C 33.9°F1.1°C 87% 16.0 mph W25.7 kmh W 18.0 mph29.0 kmh 29.89 in1012.2 mb 0.00 in0.0 mm 0.00 in0.0 mm 0.09 in2.3 mm
07:30 AM 37.4°F3.0°C 33.9°F1.1°C 87% 16.6 mph WSW26.7 kmh WSW 18.0 mph29.0 kmh 29.89 in1012.2 mb 0.00 in0.0 mm 0.00 in0.0 mm 0.09 in2.3 mm
07:29 AM 37.4°F3.0°C 33.9°F1.1°C 87% 15.3 mph WSW24.6 kmh WSW 18.0 mph29.0 kmh 29.89 in1012.2 mb 0.00 in0.0 mm 0.00 in0.0 mm 0.09 in2.3 mm
07:28 AM 37.4°F3.0°C 33.9°F1.1°C 87% 15.5 mph WSW24.9 kmh WSW 18.0 mph29.0 kmh 29.89 in1012.2 mb 0.00 in0.0 mm 0.00 in0.0 mm 0.09 in2.3 mm
07:27 AM 37.4°F3.0°C 33.9°F1.1°C 87% 15.6 mph WSW25.1 kmh WSW 18.0 mph29.0 kmh 29.89 in1012.2 mb 0.00 in0.0 mm 0.00 in0.0 mm 0.09 in2.3 mm
07:26 AM 37.4°F3.0°C 33.9°F1.1°C 87% 15.7 mph WSW25.3 kmh WSW 17.0 mph27.4 kmh 29.89 in1012.2 mb 0.00 in0.0 mm 0.00 in0.0 mm 0.09 in2.3 mm
07:25 AM 37.5°F3.1°C 34.0°F1.1°C 87% 16.0 mph WSW25.7 kmh WSW 18.0 mph29.0 kmh 29.89 in1012.2 mb 0.00 in0.0 mm 0.00 in0.0 mm 0.09 in2.3 mm
07:24 AM 37.5°F3.1°C 34.0°F1.1°C 87% 16.0 mph WSW25.7 kmh WSW 20.0 mph32.2 kmh 29.89 in1012.2 mb 0.00 in0.0 mm 0.00 in0.0 mm 0.09 in2.3 mm
07:23 AM 37.5°F3.1°C 34.0°F1.1°C 87% 16.8 mph WSW27.0 kmh WSW 20.0 mph32.2 kmh 29.89 in1012.2 mb 0.00 in0.0 mm 0.00 in0.0 mm 0.09 in2.3 mm
07:22 AM 37.5°F3.1°C 34.0°F1.1°C 87% 16.8 mph WSW27.0 kmh WSW 19.0 mph30.6 kmh 29.89 in1012.2 mb 0.00 in0.0 mm 0.00 in0.0 mm 0.09 in2.3 mm
07:21 AM 37.5°F3.1°C 34.0°F1.1°C 87% 16.4 mph WSW26.4 kmh WSW 19.0 mph30.6 kmh 29.89 in1012.2 mb 0.00 in0.0 mm 0.00 in0.0 mm 0.09 in2.3 mm
07:20 AM 37.5°F3.1°C 34.0°F1.1°C 87% 15.0 mph WSW24.1 kmh WSW 18.0 mph29.0 kmh 29.89 in1012.2 mb 0.00 in0.0 mm 0.00 in0.0 mm 0.09 in2.3 mm
07:19 AM 37.5°F3.1°C 33.7°F0.9°C 86% 16.3 mph WSW26.2 kmh WSW 18.0 mph29.0 kmh 29.89 in1012.2 mb 0.00 in0.0 mm 0.00 in0.0 mm 0.09 in2.3 mm
07:18 AM 37.6°F3.1°C 33.8°F1.0°C 86% 16.1 mph WSW25.9 kmh WSW 18.0 mph29.0 kmh 29.89 in1012.2 mb 0.00 in0.0 mm 0.00 in0.0 mm 0.09 in2.3 mm
07:17 AM 37.6°F3.1°C 33.8°F1.0°C 86% 14.5 mph WSW23.3 kmh WSW 17.0 mph27.4 kmh 29.89 in1012.2 mb 0.00 in0.0 mm 0.00 in0.0 mm 0.09 in2.3 mm
07:16 AM 37.7°F3.2°C 33.9°F1.1°C 86% 15.3 mph WSW24.6 kmh WSW 17.0 mph27.4 kmh 29.89 in1012.2 mb 0.00 in0.0 mm 0.00 in0.0 mm 0.09 in2.3 mm
07:15 AM 37.7°F3.2°C 33.9°F1.1°C 86% 14.0 mph W22.5 kmh W 16.0 mph25.7 kmh 29.89 in1012.2 mb 0.00 in0.0 mm 0.00 in0.0 mm 0.09 in2.3 mm
07:14 AM 37.7°F3.2°C 34.2°F1.2°C 87% 14.8 mph W23.8 kmh W 16.0 mph25.7 kmh 29.89 in1012.2 mb 0.00 in0.0 mm 0.00 in0.0 mm 0.09 in2.3 mm
07:13 AM 37.7°F3.2°C 34.2°F1.2°C 87% 16.0 mph W25.7 kmh W 17.0 mph27.4 kmh 29.89 in1012.2 mb 0.00 in0.0 mm 0.00 in0.0 mm 0.09 in2.3 mm
07:12 AM 37.7°F3.2°C 33.9°F1.1°C 86% 13.0 mph W20.9 kmh W 16.0 mph25.7 kmh 29.90 in1012.5 mb 0.00 in0.0 mm 0.00 in0.0 mm 0.09 in2.3 mm
07:11 AM 37.8°F3.2°C 34.3°F1.3°C 87% 14.0 mph W22.5 kmh W 16.0 mph25.7 kmh 29.89 in1012.2 mb 0.00 in0.0 mm 0.00 in0.0 mm 0.09 in2.3 mm
07:10 AM 37.7°F3.2°C 34.2°F1.2°C 87% 14.1 mph W22.7 kmh W 17.0 mph27.4 kmh 29.89 in1012.2 mb 0.00 in0.0 mm 0.00 in0.0 mm 0.09 in2.3 mm
07:09 AM 37.7°F3.2°C 34.2°F1.2°C 87% 13.2 mph W21.2 kmh W 17.0 mph27.4 kmh 29.89 in1012.2 mb 0.00 in0.0 mm 0.00 in0.0 mm 0.09 in2.3 mm
07:08 AM 37.7°F3.2°C 34.2°F1.2°C 87% 14.5 mph W23.3 kmh W 17.0 mph27.4 kmh 29.89 in1012.2 mb 0.00 in0.0 mm 0.00 in0.0 mm 0.09 in2.3 mm
07:07 AM 37.7°F3.2°C 34.2°F1.2°C 87% 15.0 mph W24.1 kmh W 16.0 mph25.7 kmh 29.89 in1012.2 mb 0.00 in0.0 mm 0.00 in0.0 mm 0.09 in2.3 mm
07:06 AM 37.6°F3.1°C 34.1°F1.2°C 87% 13.4 mph W21.6 kmh W 16.0 mph25.7 kmh 29.89 in1012.2 mb 0.00 in0.0 mm 0.00 in0.0 mm 0.09 in2.3 mm
07:05 AM 37.6°F3.1°C 34.1°F1.2°C 87% 14.0 mph W22.5 kmh W 16.0 mph25.7 kmh 29.89 in1012.2 mb 0.00 in0.0 mm 0.00 in0.0 mm 0.09 in2.3 mm
07:04 AM 37.5°F3.1°C 34.0°F1.1°C 87% 13.1 mph W21.1 kmh W 16.0 mph25.7 kmh 29.90 in1012.5 mb 0.00 in0.0 mm 0.00 in0.0 mm 0.09 in2.3 mm
07:03 AM 37.6°F3.1°C 34.4°F1.3°C 88% 14.0 mph W22.5 kmh W 17.0 mph27.4 kmh 29.90 in1012.5 mb 0.00 in0.0 mm 0.00 in0.0 mm 0.09 in2.3 mm
07:02 AM 37.5°F3.1°C 34.3°F1.3°C 88% 14.7 mph W23.7 kmh W 17.0 mph27.4 kmh 29.90 in1012.5 mb 0.00 in0.0 mm 0.00 in0.0 mm 0.09 in2.3 mm
07:01 AM 37.5°F3.1°C 34.3°F1.3°C 88% 13.6 mph W21.9 kmh W 17.0 mph27.4 kmh 29.90 in1012.5 mb 0.00 in0.0 mm 0.00 in0.0 mm 0.09 in2.3 mm
07:00 AM 37.5°F3.1°C 34.3°F1.3°C 88% 14.7 mph W23.7 kmh W 19.0 mph30.6 kmh 29.89 in1012.2 mb 0.00 in0.0 mm 0.00 in0.0 mm 0.09 in2.3 mm
06:59 AM 37.5°F3.1°C 34.3°F1.3°C 88% 14.7 mph W23.7 kmh W 19.0 mph30.6 kmh 29.89 in1012.2 mb 0.00 in0.0 mm 0.00 in0.0 mm 0.09 in2.3 mm
06:58 AM 37.3°F2.9°C 34.4°F1.3°C 89% 15.6 mph W25.1 kmh W 18.0 mph29.0 kmh 29.89 in1012.2 mb 0.00 in0.0 mm 0.00 in0.0 mm 0.09 in2.3 mm
06:57 AM 37.2°F2.9°C 34.3°F1.3°C 89% 14.9 mph W24.0 kmh W 17.0 mph27.4 kmh 29.89 in1012.2 mb 0.00 in0.0 mm 0.00 in0.0 mm 0.09 in2.3 mm
06:56 AM 37.1°F2.8°C 34.2°F1.2°C 89% 15.0 mph WSW24.1 kmh WSW 18.0 mph29.0 kmh 29.89 in1012.2 mb 0.00 in0.0 mm 0.00 in0.0 mm 0.09 in2.3 mm
06:55 AM 37.0°F2.8°C 34.1°F1.2°C 89% 15.7 mph WSW25.3 kmh WSW 18.0 mph29.0 kmh 29.89 in1012.2 mb 0.00 in0.0 mm 0.00 in0.0 mm 0.09 in2.3 mm
06:54 AM 36.9°F2.7°C 34.0°F1.1°C 89% 14.1 mph WSW22.7 kmh WSW 17.0 mph27.4 kmh 29.89 in1012.2 mb 0.00 in0.0 mm 0.00 in0.0 mm 0.09 in2.3 mm
06:53 AM 36.9°F2.7°C 34.0°F1.1°C 89% 12.9 mph WSW20.8 kmh WSW 16.0 mph25.7 kmh 29.89 in1012.2 mb 0.00 in0.0 mm 0.00 in0.0 mm 0.09 in2.3 mm
06:52 AM 36.8°F2.7°C 33.9°F1.1°C 89% 13.9 mph WSW22.4 kmh WSW 16.0 mph25.7 kmh 29.89 in1012.2 mb 0.00 in0.0 mm 0.00 in0.0 mm 0.09 in2.3 mm
06:51 AM 36.8°F2.7°C 33.9°F1.1°C 89% 13.7 mph WSW22.0 kmh WSW 16.0 mph25.7 kmh 29.89 in1012.2 mb 0.00 in0.0 mm 0.00 in0.0 mm 0.09 in2.3 mm
06:50 AM 36.8°F2.7°C 33.9°F1.1°C 89% 14.1 mph WSW22.7 kmh WSW 16.0 mph25.7 kmh 29.89 in1012.2 mb 0.00 in0.0 mm 0.00 in0.0 mm 0.09 in2.3 mm
06:49 AM 36.8°F2.7°C 33.9°F1.1°C 89% 13.3 mph WSW21.4 kmh WSW 16.0 mph25.7 kmh 29.89 in1012.2 mb 0.00 in0.0 mm 0.00 in0.0 mm 0.09 in2.3 mm
06:48 AM 36.7°F2.6°C 33.8°F1.0°C 89% 13.7 mph WSW22.0 kmh WSW 15.0 mph24.1 kmh 29.89 in1012.2 mb 0.00 in0.0 mm 0.00 in0.0 mm 0.09 in2.3 mm
06:47 AM 36.8°F2.7°C 33.9°F1.1°C 89% 13.1 mph WSW21.1 kmh WSW 15.0 mph24.1 kmh 29.90 in1012.5 mb 0.00 in0.0 mm 0.00 in0.0 mm 0.09 in2.3 mm
06:46 AM 36.8°F2.7°C 33.9°F1.1°C 89% 12.9 mph WSW20.8 kmh WSW 15.0 mph24.1 kmh 29.89 in1012.2 mb 0.00 in0.0 mm 0.00 in0.0 mm 0.09 in2.3 mm
06:45 AM 36.8°F2.7°C 33.9°F1.1°C 89% 12.8 mph WSW20.6 kmh WSW 14.0 mph22.5 kmh 29.89 in1012.2 mb 0.00 in0.0 mm 0.00 in0.0 mm 0.09 in2.3 mm
06:44 AM 36.8°F2.7°C 33.9°F1.1°C 89% 13.0 mph WSW20.9 kmh WSW 14.0 mph22.5 kmh 29.90 in1012.5 mb 0.00 in0.0 mm 0.00 in0.0 mm 0.09 in2.3 mm
06:43 AM 36.8°F2.7°C 33.9°F1.1°C 89% 12.0 mph WSW19.3 kmh WSW 14.0 mph22.5 kmh 29.89 in1012.2 mb 0.00 in0.0 mm 0.00 in0.0 mm 0.09 in2.3 mm
06:42 AM 36.8°F2.7°C 33.9°F1.1°C 89% 15.0 mph WSW24.1 kmh WSW 17.0 mph27.4 kmh 29.90 in1012.5 mb 0.00 in0.0 mm 0.00 in0.0 mm 0.09 in2.3 mm
06:41 AM 36.9°F2.7°C 34.0°F1.1°C 89% 14.0 mph WSW22.5 kmh WSW 16.0 mph25.7 kmh 29.90 in1012.5 mb 0.00 in0.0 mm 0.00 in0.0 mm 0.09 in2.3 mm
06:40 AM 37.0°F2.8°C 34.3°F1.3°C 90% 14.8 mph WSW23.8 kmh WSW 16.0 mph25.7 kmh 29.90 in1012.5 mb 0.00 in0.0 mm 0.00 in0.0 mm 0.09 in2.3 mm
06:39 AM 36.9°F2.7°C 34.2°F1.2°C 90% 14.1 mph WSW22.7 kmh WSW 19.0 mph30.6 kmh 29.90 in1012.5 mb 0.00 in0.0 mm 0.00 in0.0 mm 0.09 in2.3 mm
06:38 AM 37.0°F2.8°C 34.3°F1.3°C 90% 15.7 mph WSW25.3 kmh WSW 19.0 mph30.6 kmh 29.90 in1012.5 mb 0.00 in0.0 mm 0.00 in0.0 mm 0.09 in2.3 mm
06:37 AM 37.0°F2.8°C 34.3°F1.3°C 90% 15.0 mph WSW24.1 kmh WSW 18.0 mph29.0 kmh 29.90 in1012.5 mb 0.00 in0.0 mm 0.00 in0.0 mm 0.09 in2.3 mm
06:36 AM 37.0°F2.8°C 34.3°F1.3°C 90% 15.0 mph WSW24.1 kmh WSW 18.0 mph29.0 kmh 29.90 in1012.5 mb 0.00 in0.0 mm 0.00 in0.0 mm 0.09 in2.3 mm
06:35 AM 36.9°F2.7°C 34.2°F1.2°C 90% 15.4 mph WSW24.8 kmh WSW 17.0 mph27.4 kmh 29.90 in1012.5 mb 0.00 in0.0 mm 0.00 in0.0 mm 0.09 in2.3 mm
06:34 AM 36.9°F2.7°C 34.2°F1.2°C 90% 15.7 mph WSW25.3 kmh WSW 17.0 mph27.4 kmh 29.90 in1012.5 mb 0.00 in0.0 mm 0.00 in0.0 mm 0.09 in2.3 mm
06:33 AM 36.9°F2.7°C 34.2°F1.2°C 90% 15.6 mph WSW25.1 kmh WSW 18.0 mph29.0 kmh 29.90 in1012.5 mb 0.00 in0.0 mm 0.00 in0.0 mm 0.09 in2.3 mm
06:32 AM 36.9°F2.7°C 34.2°F1.2°C 90% 16.6 mph WSW26.7 kmh WSW 18.0 mph29.0 kmh 29.90 in1012.5 mb 0.00 in0.0 mm 0.00 in0.0 mm 0.09 in2.3 mm
06:31 AM 37.0°F2.8°C 34.3°F1.3°C 90% 17.0 mph WSW27.4 kmh WSW 18.0 mph29.0 kmh 29.90 in1012.5 mb 0.00 in0.0 mm 0.00 in0.0 mm 0.09 in2.3 mm
06:30 AM 37.0°F2.8°C 34.3°F1.3°C 90% 15.6 mph WSW25.1 kmh WSW 18.0 mph29.0 kmh 29.90 in1012.5 mb 0.00 in0.0 mm 0.00 in0.0 mm 0.09 in2.3 mm
06:29 AM 37.0°F2.8°C 34.3°F1.3°C 90% 16.2 mph WSW26.1 kmh WSW 19.0 mph30.6 kmh 29.90 in1012.5 mb 0.00 in0.0 mm 0.00 in0.0 mm 0.09 in2.3 mm
06:28 AM 36.8°F2.7°C 34.4°F1.3°C 91% 16.1 mph WSW25.9 kmh WSW 19.0 mph30.6 kmh 29.90 in1012.5 mb 0.00 in0.0 mm 0.00 in0.0 mm 0.09 in2.3 mm
06:27 AM 36.8°F2.7°C 34.1°F1.2°C 90% 15.5 mph WSW24.9 kmh WSW 18.0 mph29.0 kmh 29.90 in1012.5 mb 0.00 in0.0 mm 0.00 in0.0 mm 0.09 in2.3 mm
06:26 AM 36.7°F2.6°C 34.0°F1.1°C 90% 15.2 mph WSW24.5 kmh WSW 17.0 mph27.4 kmh 29.90 in1012.5 mb 0.00 in0.0 mm 0.00 in0.0 mm 0.09 in2.3 mm
06:25 AM 36.6°F2.6°C 33.9°F1.1°C 90% 14.3 mph WSW23.0 kmh WSW 17.0 mph27.4 kmh 29.90 in1012.5 mb 0.00 in0.0 mm 0.00 in0.0 mm 0.09 in2.3 mm
06:24 AM 36.5°F2.5°C 33.9°F1.1°C 90% 13.3 mph WSW21.4 kmh WSW 16.0 mph25.7 kmh 29.90 in1012.5 mb 0.00 in0.0 mm 0.00 in0.0 mm 0.09 in2.3 mm
06:23 AM 36.5°F2.5°C 34.1°F1.2°C 91% 12.5 mph WSW20.1 kmh WSW 16.0 mph25.7 kmh 29.90 in1012.5 mb 0.00 in0.0 mm 0.00 in0.0 mm 0.09 in2.3 mm
06:22 AM 36.4°F2.4°C 34.0°F1.1°C 91% 12.9 mph WSW20.8 kmh WSW 15.0 mph24.1 kmh 29.90 in1012.5 mb 0.00 in0.0 mm 0.00 in0.0 mm 0.09 in2.3 mm
06:21 AM 36.4°F2.4°C 34.0°F1.1°C 91% 11.7 mph WSW18.8 kmh WSW 13.0 mph20.9 kmh 29.90 in1012.5 mb 0.00 in0.0 mm 0.00 in0.0 mm 0.09 in2.3 mm
06:20 AM 36.3°F2.4°C 33.9°F1.1°C 91% 11.8 mph WSW19.0 kmh WSW 13.0 mph20.9 kmh 29.90 in1012.5 mb 0.00 in0.0 mm 0.00 in0.0 mm 0.09 in2.3 mm
06:19 AM 36.3°F2.4°C 33.9°F1.1°C 91% 11.4 mph WSW18.3 kmh WSW 13.0 mph20.9 kmh 29.90 in1012.5 mb 0.00 in0.0 mm 0.00 in0.0 mm 0.09 in2.3 mm
06:18 AM 36.3°F2.4°C 33.7°F0.9°C 90% 10.9 mph WSW17.5 kmh WSW 13.0 mph20.9 kmh 29.90 in1012.5 mb 0.00 in0.0 mm 0.00 in0.0 mm 0.09 in2.3 mm
06:17 AM 36.2°F2.3°C 33.8°F1.0°C 91% 11.6 mph WSW18.7 kmh WSW 13.0 mph20.9 kmh 29.90 in1012.5 mb 0.00 in0.0 mm 0.00 in0.0 mm 0.09 in2.3 mm
06:16 AM 36.2°F2.3°C 33.6°F0.9°C 90% 12.1 mph WSW19.5 kmh WSW 13.0 mph20.9 kmh 29.90 in1012.5 mb 0.00 in0.0 mm 0.00 in0.0 mm 0.09 in2.3 mm
06:15 AM 36.2°F2.3°C 33.6°F0.9°C 90% 11.0 mph WSW17.7 kmh WSW 12.0 mph19.3 kmh 29.90 in1012.5 mb 0.00 in0.0 mm 0.00 in0.0 mm 0.09 in2.3 mm
06:14 AM 36.2°F2.3°C 33.6°F0.9°C 90% 11.0 mph WSW17.7 kmh WSW 13.0 mph20.9 kmh 29.90 in1012.5 mb 0.00 in0.0 mm 0.00 in0.0 mm 0.09 in2.3 mm
06:13 AM 36.2°F2.3°C 33.6°F0.9°C 90% 12.0 mph WSW19.3 kmh WSW 14.0 mph22.5 kmh 29.90 in1012.5 mb 0.00 in0.0 mm 0.00 in0.0 mm 0.09 in2.3 mm
06:12 AM 36.2°F2.3°C 33.6°F0.9°C 90% 10.9 mph SW17.5 kmh SW 13.0 mph20.9 kmh 29.90 in1012.5 mb 0.00 in0.0 mm 0.00 in0.0 mm 0.09 in2.3 mm
06:11 AM 36.2°F2.3°C 33.6°F0.9°C 90% 10.4 mph SW16.7 kmh SW 13.0 mph20.9 kmh 29.91 in1012.9 mb 0.00 in0.0 mm 0.00 in0.0 mm 0.09 in2.3 mm
06:10 AM 36.2°F2.3°C 33.8°F1.0°C 91% 10.6 mph SW17.1 kmh SW 13.0 mph20.9 kmh 29.91 in1012.9 mb 0.00 in0.0 mm 0.00 in0.0 mm 0.09 in2.3 mm
06:09 AM 36.2°F2.3°C 33.6°F0.9°C 90% 11.3 mph SW18.2 kmh SW 14.0 mph22.5 kmh 29.90 in1012.5 mb 0.00 in0.0 mm 0.00 in0.0 mm 0.09 in2.3 mm
06:08 AM 36.2°F2.3°C 33.6°F0.9°C 90% 13.8 mph SW22.2 kmh SW 14.0 mph22.5 kmh 29.91 in1012.9 mb 0.00 in0.0 mm 0.00 in0.0 mm 0.09 in2.3 mm
06:07 AM 36.2°F2.3°C 33.6°F0.9°C 90% 11.0 mph SW17.7 kmh SW 12.0 mph19.3 kmh 29.91 in1012.9 mb 0.00 in0.0 mm 0.00 in0.0 mm 0.09 in2.3 mm
06:06 AM 36.2°F2.3°C 33.6°F0.9°C 90% 11.0 mph SW17.7 kmh SW 13.0 mph20.9 kmh 29.91 in1012.9 mb 0.00 in0.0 mm 0.00 in0.0 mm 0.09 in2.3 mm
06:05 AM 36.2°F2.3°C 33.6°F0.9°C 90% 10.3 mph SW16.6 kmh SW 12.0 mph19.3 kmh 29.91 in1012.9 mb 0.00 in0.0 mm 0.00 in0.0 mm 0.09 in2.3 mm
06:04 AM 36.2°F2.3°C 33.6°F0.9°C 90% 9.3 mph SW15.0 kmh SW 12.0 mph19.3 kmh 29.91 in1012.9 mb 0.00 in0.0 mm 0.00 in0.0 mm 0.09 in2.3 mm
06:03 AM 36.2°F2.3°C 33.8°F1.0°C 91% 9.6 mph SW15.4 kmh SW 14.0 mph22.5 kmh 29.91 in1012.9 mb 0.00 in0.0 mm 0.00 in0.0 mm 0.09 in2.3 mm
06:02 AM 36.2°F2.3°C 33.8°F1.0°C 91% 10.6 mph SW17.1 kmh SW 14.0 mph22.5 kmh 29.91 in1012.9 mb 0.00 in0.0 mm 0.00 in0.0 mm 0.09 in2.3 mm
06:01 AM 36.2°F2.3°C 33.8°F1.0°C 91% 10.4 mph SW16.7 kmh SW 13.0 mph20.9 kmh 29.91 in1012.9 mb 0.00 in0.0 mm 0.00 in0.0 mm 0.09 in2.3 mm
06:00 AM 36.2°F2.3°C 33.8°F1.0°C 91% 11.1 mph SW17.9 kmh SW 14.0 mph22.5 kmh 29.91 in1012.9 mb 0.00 in0.0 mm 0.00 in0.0 mm 0.09 in2.3 mm
05:59 AM 36.2°F2.3°C 33.6°F0.9°C 90% 11.2 mph SW18.0 kmh SW 14.0 mph22.5 kmh 29.91 in1012.9 mb 0.00 in0.0 mm 0.00 in0.0 mm 0.09 in2.3 mm
05:58 AM 36.2°F2.3°C 33.8°F1.0°C 91% 10.9 mph SW17.5 kmh SW 12.0 mph19.3 kmh 29.91 in1012.9 mb 0.01 in0.3 mm 0.00 in0.0 mm 0.09 in2.3 mm
05:57 AM 36.2°F2.3°C 33.8°F1.0°C 91% 10.0 mph SW16.1 kmh SW 12.0 mph19.3 kmh 29.91 in1012.9 mb 0.01 in0.3 mm 0.00 in0.0 mm 0.09 in2.3 mm
05:56 AM 36.2°F2.3°C 33.8°F1.0°C 91% 10.0 mph SW16.1 kmh SW 13.0 mph20.9 kmh 29.91 in1012.9 mb 0.01 in0.3 mm 0.00 in0.0 mm 0.09 in2.3 mm
05:55 AM 36.1°F2.3°C 33.7°F0.9°C 91% 9.7 mph SW15.6 kmh SW 12.0 mph19.3 kmh 29.91 in1012.9 mb 0.01 in0.3 mm 0.00 in0.0 mm 0.09 in2.3 mm
05:54 AM 36.1°F2.3°C 33.5°F0.8°C 90% 8.5 mph SW13.7 kmh SW 12.0 mph19.3 kmh 29.91 in1012.9 mb 0.01 in0.3 mm 0.00 in0.0 mm 0.09 in2.3 mm
05:53 AM 36.1°F2.3°C 33.5°F0.8°C 90% 8.2 mph SW13.2 kmh SW 10.0 mph16.1 kmh 29.91 in1012.9 mb 0.01 in0.3 mm 0.00 in0.0 mm 0.09 in2.3 mm
05:52 AM 36.1°F2.3°C 33.5°F0.8°C 90% 7.7 mph SW12.4 kmh SW 10.0 mph16.1 kmh 29.91 in1012.9 mb 0.01 in0.3 mm 0.00 in0.0 mm 0.09 in2.3 mm
05:51 AM 36.1°F2.3°C 33.5°F0.8°C 90% 8.0 mph SW12.9 kmh SW 10.0 mph16.1 kmh 29.91 in1012.9 mb 0.01 in0.3 mm 0.00 in0.0 mm 0.09 in2.3 mm
05:50 AM 36.1°F2.3°C 33.5°F0.8°C 90% 9.0 mph SW14.5 kmh SW 11.0 mph17.7 kmh 29.91 in1012.9 mb 0.01 in0.3 mm 0.00 in0.0 mm 0.09 in2.3 mm
05:49 AM 36.1°F2.3°C 33.5°F0.8°C 90% 8.2 mph SW13.2 kmh SW 11.0 mph17.7 kmh 29.91 in1012.9 mb 0.02 in0.5 mm 0.00 in0.0 mm 0.09 in2.3 mm
05:48 AM 36.1°F2.3°C 33.5°F0.8°C 90% 8.3 mph SW13.4 kmh SW 10.0 mph16.1 kmh 29.91 in1012.9 mb 0.02 in0.5 mm 0.00 in0.0 mm 0.09 in2.3 mm
05:47 AM 36.2°F2.3°C 33.6°F0.9°C 90% 8.4 mph SW13.5 kmh SW 10.0 mph16.1 kmh 29.91 in1012.9 mb 0.02 in0.5 mm 0.00 in0.0 mm 0.09 in2.3 mm
05:46 AM 36.2°F2.3°C 33.6°F0.9°C 90% 8.6 mph SW13.8 kmh SW 10.0 mph16.1 kmh 29.91 in1012.9 mb 0.02 in0.5 mm 0.00 in0.0 mm 0.09 in2.3 mm
05:45 AM 36.1°F2.3°C 33.5°F0.8°C 90% 8.2 mph SW13.2 kmh SW 10.0 mph16.1 kmh 29.91 in1012.9 mb 0.02 in0.5 mm 0.00 in0.0 mm 0.09 in2.3 mm
05:44 AM 36.1°F2.3°C 33.5°F0.8°C 90% 9.3 mph SW15.0 kmh SW 12.0 mph19.3 kmh 29.91 in1012.9 mb 0.02 in0.5 mm 0.00 in0.0 mm 0.09 in2.3 mm
05:43 AM 36.2°F2.3°C 33.6°F0.9°C 90% 9.7 mph SW15.6 kmh SW 12.0 mph19.3 kmh 29.91 in1012.9 mb 0.02 in0.5 mm 0.00 in0.0 mm 0.09 in2.3 mm
05:42 AM 36.2°F2.3°C 33.6°F0.9°C 90% 9.7 mph SW15.6 kmh SW 11.0 mph17.7 kmh 29.91 in1012.9 mb 0.02 in0.5 mm 0.00 in0.0 mm 0.09 in2.3 mm
05:41 AM 36.3°F2.4°C 33.7°F0.9°C 90% 9.3 mph SW15.0 kmh SW 11.0 mph17.7 kmh 29.92 in1013.2 mb 0.03 in0.8 mm 0.00 in0.0 mm 0.09 in2.3 mm
05:40 AM 36.2°F2.3°C 33.6°F0.9°C 90% 8.9 mph WSW14.3 kmh WSW 10.0 mph16.1 kmh 29.92 in1013.2 mb 0.03 in0.8 mm 0.00 in0.0 mm 0.09 in2.3 mm
05:39 AM 36.3°F2.4°C 33.7°F0.9°C 90% 10.0 mph WSW16.1 kmh WSW 11.0 mph17.7 kmh 29.92 in1013.2 mb 0.03 in0.8 mm 0.00 in0.0 mm 0.09 in2.3 mm
05:38 AM 36.3°F2.4°C 33.7°F0.9°C 90% 10.0 mph WSW16.1 kmh WSW 11.0 mph17.7 kmh 29.92 in1013.2 mb 0.03 in0.8 mm 0.00 in0.0 mm 0.09 in2.3 mm
05:37 AM 36.3°F2.4°C 33.7°F0.9°C 90% 9.0 mph WSW14.5 kmh WSW 11.0 mph17.7 kmh 29.92 in1013.2 mb 0.03 in0.8 mm 0.00 in0.0 mm 0.09 in2.3 mm
05:36 AM 36.3°F2.4°C 33.7°F0.9°C 90% 8.5 mph WSW13.7 kmh WSW 10.0 mph16.1 kmh 29.92 in1013.2 mb 0.03 in0.8 mm 0.00 in0.0 mm 0.09 in2.3 mm
05:35 AM 36.3°F2.4°C 33.7°F0.9°C 90% 8.9 mph WSW14.3 kmh WSW 11.0 mph17.7 kmh 29.92 in1013.2 mb 0.03 in0.8 mm 0.00 in0.0 mm 0.09 in2.3 mm
05:34 AM 36.3°F2.4°C 33.7°F0.9°C 90% 9.1 mph WSW14.6 kmh WSW 11.0 mph17.7 kmh 29.92 in1013.2 mb 0.03 in0.8 mm 0.00 in0.0 mm 0.09 in2.3 mm
05:33 AM 36.3°F2.4°C 33.7°F0.9°C 90% 8.4 mph WSW13.5 kmh WSW 10.0 mph16.1 kmh 29.92 in1013.2 mb 0.03 in0.8 mm 0.00 in0.0 mm 0.09 in2.3 mm
05:32 AM 36.3°F2.4°C 33.7°F0.9°C 90% 8.4 mph WSW13.5 kmh WSW 9.0 mph14.5 kmh 29.92 in1013.2 mb 0.03 in0.8 mm 0.00 in0.0 mm 0.09 in2.3 mm
05:31 AM 36.2°F2.3°C 33.6°F0.9°C 90% 8.1 mph WSW13.0 kmh WSW 9.0 mph14.5 kmh 29.92 in1013.2 mb 0.03 in0.8 mm 0.00 in0.0 mm 0.09 in2.3 mm
05:30 AM 36.2°F2.3°C 33.6°F0.9°C 90% 8.0 mph WSW12.9 kmh WSW 9.0 mph14.5 kmh 29.92 in1013.2 mb 0.03 in0.8 mm 0.00 in0.0 mm 0.09 in2.3 mm
05:29 AM 36.2°F2.3°C 33.6°F0.9°C 90% 8.0 mph WSW12.9 kmh WSW 9.0 mph14.5 kmh 29.92 in1013.2 mb 0.03 in0.8 mm 0.00 in0.0 mm 0.09 in2.3 mm
05:28 AM 36.2°F2.3°C 33.6°F0.9°C 90% 7.7 mph WSW12.4 kmh WSW 9.0 mph14.5 kmh 29.92 in1013.2 mb 0.03 in0.8 mm 0.00 in0.0 mm 0.09 in2.3 mm
05:27 AM 36.2°F2.3°C 33.6°F0.9°C 90% 7.9 mph SW12.7 kmh SW 9.0 mph14.5 kmh 29.92 in1013.2 mb 0.03 in0.8 mm 0.00 in0.0 mm 0.09 in2.3 mm
05:26 AM 36.3°F2.4°C 33.7°F0.9°C 90% 7.2 mph SW11.6 kmh SW 9.0 mph14.5 kmh 29.92 in1013.2 mb 0.03 in0.8 mm 0.00 in0.0 mm 0.09 in2.3 mm
05:25 AM 36.2°F2.3°C 33.6°F0.9°C 90% 5.5 mph SW8.9 kmh SW 10.0 mph16.1 kmh 29.92 in1013.2 mb 0.03 in0.8 mm 0.00 in0.0 mm 0.09 in2.3 mm
05:24 AM 36.2°F2.3°C 33.6°F0.9°C 90% 6.8 mph WSW10.9 kmh WSW 10.0 mph16.1 kmh 29.92 in1013.2 mb 0.03 in0.8 mm 0.00 in0.0 mm 0.09 in2.3 mm
05:23 AM 36.2°F2.3°C 33.6°F0.9°C 90% 6.2 mph SW10.0 kmh SW 9.0 mph14.5 kmh 29.92 in1013.2 mb 0.03 in0.8 mm 0.00 in0.0 mm 0.09 in2.3 mm
05:22 AM 36.3°F2.4°C 33.7°F0.9°C 90% 6.6 mph WSW10.6 kmh WSW 9.0 mph14.5 kmh 29.92 in1013.2 mb 0.03 in0.8 mm 0.00 in0.0 mm 0.09 in2.3 mm
05:21 AM 36.3°F2.4°C 33.7°F0.9°C 90% 6.9 mph WSW11.1 kmh WSW 8.0 mph12.9 kmh 29.92 in1013.2 mb 0.03 in0.8 mm 0.00 in0.0 mm 0.09 in2.3 mm
05:20 AM 36.3°F2.4°C 33.7°F0.9°C 90% 6.5 mph WSW10.5 kmh WSW 9.0 mph14.5 kmh 29.92 in1013.2 mb 0.03 in0.8 mm 0.00 in0.0 mm 0.09 in2.3 mm
05:19 AM 36.3°F2.4°C 33.7°F0.9°C 90% 7.3 mph WSW11.7 kmh WSW 9.0 mph14.5 kmh 29.92 in1013.2 mb 0.03 in0.8 mm 0.00 in0.0 mm 0.09 in2.3 mm
05:18 AM 36.3°F2.4°C 33.7°F0.9°C 90% 7.3 mph WSW11.7 kmh WSW 8.0 mph12.9 kmh 29.92 in1013.2 mb 0.03 in0.8 mm 0.00 in0.0 mm 0.09 in2.3 mm
05:17 AM 36.3°F2.4°C 33.7°F0.9°C 90% 6.9 mph WSW11.1 kmh WSW 8.0 mph12.9 kmh 29.92 in1013.2 mb 0.03 in0.8 mm 0.00 in0.0 mm 0.09 in2.3 mm
05:16 AM 36.3°F2.4°C 33.7°F0.9°C 90% 8.0 mph WSW12.9 kmh WSW 8.0 mph12.9 kmh 29.93 in1013.5 mb 0.03 in0.8 mm 0.00 in0.0 mm 0.09 in2.3 mm
05:15 AM 36.3°F2.4°C 33.7°F0.9°C 90% 8.0 mph W12.9 kmh W 9.0 mph14.5 kmh 29.93 in1013.5 mb 0.03 in0.8 mm 0.00 in0.0 mm 0.09 in2.3 mm
05:14 AM 36.3°F2.4°C 33.7°F0.9°C 90% 8.0 mph WSW12.9 kmh WSW 10.0 mph16.1 kmh 29.93 in1013.5 mb 0.03 in0.8 mm 0.00 in0.0 mm 0.09 in2.3 mm
05:13 AM 36.3°F2.4°C 33.7°F0.9°C 90% 8.3 mph WSW13.4 kmh WSW 10.0 mph16.1 kmh 29.93 in1013.5 mb 0.03 in0.8 mm 0.00 in0.0 mm 0.09 in2.3 mm
05:12 AM 36.3°F2.4°C 33.7°F0.9°C 90% 8.3 mph WSW13.4 kmh WSW 10.0 mph16.1 kmh 29.93 in1013.5 mb 0.04 in1.0 mm 0.00 in0.0 mm 0.09 in2.3 mm
05:11 AM 36.2°F2.3°C 33.6°F0.9°C 90% 9.2 mph WSW14.8 kmh WSW 11.0 mph17.7 kmh 29.93 in1013.5 mb 0.04 in1.0 mm 0.00 in0.0 mm 0.09 in2.3 mm
05:10 AM 36.2°F2.3°C 33.6°F0.9°C 90% 10.1 mph WSW16.3 kmh WSW 11.0 mph17.7 kmh 29.93 in1013.5 mb 0.04 in1.0 mm 0.00 in0.0 mm 0.09 in2.3 mm
05:09 AM 36.2°F2.3°C 33.6°F0.9°C 90% 8.7 mph W14.0 kmh W 10.0 mph16.1 kmh 29.93 in1013.5 mb 0.04 in1.0 mm 0.00 in0.0 mm 0.09 in2.3 mm
05:08 AM 36.2°F2.3°C 33.6°F0.9°C 90% 8.9 mph W14.3 kmh W 11.0 mph17.7 kmh 29.93 in1013.5 mb 0.04 in1.0 mm 0.00 in0.0 mm 0.09 in2.3 mm
05:07 AM 36.2°F2.3°C 33.6°F0.9°C 90% 9.5 mph W15.3 kmh W 11.0 mph17.7 kmh 29.93 in1013.5 mb 0.04 in1.0 mm 0.00 in0.0 mm 0.09 in2.3 mm
05:06 AM 36.2°F2.3°C 33.6°F0.9°C 90% 9.3 mph W15.0 kmh W 11.0 mph17.7 kmh 29.93 in1013.5 mb 0.04 in1.0 mm 0.00 in0.0 mm 0.09 in2.3 mm
05:05 AM 36.3°F2.4°C 33.7°F0.9°C 90% 9.5 mph W15.3 kmh W 12.0 mph19.3 kmh 29.93 in1013.5 mb 0.04 in1.0 mm 0.00 in0.0 mm 0.09 in2.3 mm
05:04 AM 36.3°F2.4°C 33.7°F0.9°C 90% 10.4 mph W16.7 kmh W 12.0 mph19.3 kmh 29.93 in1013.5 mb 0.04 in1.0 mm 0.00 in0.0 mm 0.09 in2.3 mm
05:03 AM 36.3°F2.4°C 33.7°F0.9°C 90% 10.6 mph W17.1 kmh W 13.0 mph20.9 kmh 29.93 in1013.5 mb 0.04 in1.0 mm 0.00 in0.0 mm 0.09 in2.3 mm
05:02 AM 36.3°F2.4°C 33.7°F0.9°C 90% 11.1 mph W17.9 kmh W 14.0 mph22.5 kmh 29.93 in1013.5 mb 0.04 in1.0 mm 0.00 in0.0 mm 0.09 in2.3 mm
05:01 AM 36.3°F2.4°C 33.7°F0.9°C 90% 12.0 mph W19.3 kmh W 15.0 mph24.1 kmh 29.93 in1013.5 mb 0.04 in1.0 mm 0.00 in0.0 mm 0.09 in2.3 mm
05:00 AM 36.2°F2.3°C 33.6°F0.9°C 90% 12.0 mph W19.3 kmh W 15.0 mph24.1 kmh 29.93 in1013.5 mb 0.04 in1.0 mm 0.00 in0.0 mm 0.09 in2.3 mm
04:59 AM 36.3°F2.4°C 33.7°F0.9°C 90% 12.2 mph W19.6 kmh W 15.0 mph24.1 kmh 29.93 in1013.5 mb 0.04 in1.0 mm 0.00 in0.0 mm 0.09 in2.3 mm
04:58 AM 36.3°F2.4°C 33.7°F0.9°C 90% 12.8 mph W20.6 kmh W 21.0 mph33.8 kmh 29.93 in1013.5 mb 0.04 in1.0 mm 0.00 in0.0 mm 0.09 in2.3 mm
04:57 AM 36.2°F2.3°C 33.8°F1.0°C 91% 17.2 mph WNW27.7 kmh WNW 23.0 mph37.0 kmh 29.93 in1013.5 mb 0.04 in1.0 mm 0.00 in0.0 mm 0.09 in2.3 mm
04:56 AM 36.2°F2.3°C 33.6°F0.9°C 90% 17.6 mph W28.3 kmh W 23.0 mph37.0 kmh 29.93 in1013.5 mb 0.04 in1.0 mm 0.00 in0.0 mm 0.09 in2.3 mm
04:55 AM 36.1°F2.3°C 33.5°F0.8°C 90% 17.3 mph W27.8 kmh W 20.0 mph32.2 kmh 29.93 in1013.5 mb 0.04 in1.0 mm 0.00 in0.0 mm 0.09 in2.3 mm
04:54 AM 36.1°F2.3°C 33.5°F0.8°C 90% 14.9 mph W24.0 kmh W 19.0 mph30.6 kmh 29.93 in1013.5 mb 0.05 in1.3 mm 0.00 in0.0 mm 0.09 in2.3 mm
04:53 AM 36.0°F2.2°C 33.4°F0.8°C 90% 14.4 mph W23.2 kmh W 16.0 mph25.7 kmh 29.93 in1013.5 mb 0.05 in1.3 mm 0.00 in0.0 mm 0.09 in2.3 mm
04:52 AM 35.9°F2.2°C 33.3°F0.7°C 90% 17.0 mph W27.4 kmh W 20.0 mph32.2 kmh 29.93 in1013.5 mb 0.05 in1.3 mm 0.00 in0.0 mm 0.09 in2.3 mm
04:51 AM 36.0°F2.2°C 33.4°F0.8°C 90% 14.0 mph W22.5 kmh W 17.0 mph27.4 kmh 29.93 in1013.5 mb 0.05 in1.3 mm 0.00 in0.0 mm 0.09 in2.3 mm
04:50 AM 35.9°F2.2°C 33.3°F0.7°C 90% 16.5 mph W26.6 kmh W 18.0 mph29.0 kmh 29.93 in1013.5 mb 0.05 in1.3 mm 0.60 in15.2 mm 0.09 in2.3 mm
04:49 AM 36.0°F2.2°C 33.4°F0.8°C 90% 15.6 mph W25.1 kmh W 18.0 mph29.0 kmh 29.93 in1013.5 mb 0.04 in1.0 mm 0.00 in0.0 mm 0.08 in2.0 mm
04:48 AM 36.0°F2.2°C 33.4°F0.8°C 90% 14.2 mph W22.9 kmh W 18.0 mph29.0 kmh 29.93 in1013.5 mb 0.04 in1.0 mm 0.00 in0.0 mm 0.08 in2.0 mm
04:47 AM 36.0°F2.2°C 33.4°F0.8°C 90% 15.8 mph W25.4 kmh W 18.0 mph29.0 kmh 29.93 in1013.5 mb 0.04 in1.0 mm 0.00 in0.0 mm 0.08 in2.0 mm
04:46 AM 35.9°F2.2°C 33.3°F0.7°C 90% 17.3 mph WSW27.8 kmh WSW 22.0 mph35.4 kmh 29.93 in1013.5 mb 0.05 in1.3 mm 0.00 in0.0 mm 0.08 in2.0 mm
04:45 AM 36.0°F2.2°C 33.4°F0.8°C 90% 19.0 mph WSW30.6 kmh WSW 24.0 mph38.6 kmh 29.93 in1013.5 mb 0.05 in1.3 mm 0.60 in15.2 mm 0.08 in2.0 mm
04:44 AM 35.9°F2.2°C 33.3°F0.7°C 90% 17.4 mph WSW28.0 kmh WSW 24.0 mph38.6 kmh 29.93 in1013.5 mb 0.04 in1.0 mm 0.00 in0.0 mm 0.07 in1.8 mm
04:43 AM 35.9°F2.2°C 33.3°F0.7°C 90% 13.3 mph WSW21.4 kmh WSW 15.0 mph24.1 kmh 29.93 in1013.5 mb 0.04 in1.0 mm 0.00 in0.0 mm 0.07 in1.8 mm
04:42 AM 35.9°F2.2°C 33.3°F0.7°C 90% 13.0 mph WSW20.9 kmh WSW 15.0 mph24.1 kmh 29.93 in1013.5 mb 0.04 in1.0 mm 0.60 in15.2 mm 0.07 in1.8 mm
04:41 AM 35.9°F2.2°C 33.3°F0.7°C 90% 11.0 mph WSW17.7 kmh WSW 12.0 mph19.3 kmh 29.93 in1013.5 mb 0.03 in0.8 mm 0.00 in0.0 mm 0.06 in1.5 mm
04:40 AM 35.8°F2.1°C 33.2°F0.7°C 90% 11.3 mph WSW18.2 kmh WSW 14.0 mph22.5 kmh 29.93 in1013.5 mb 0.03 in0.8 mm 0.00 in0.0 mm 0.06 in1.5 mm
04:39 AM 35.9°F2.2°C 33.3°F0.7°C 90% 12.2 mph SW19.6 kmh SW 14.0 mph22.5 kmh 29.93 in1013.5 mb 0.04 in1.0 mm 0.00 in0.0 mm 0.06 in1.5 mm
04:38 AM 35.9°F2.2°C 33.3°F0.7°C 90% 10.4 mph SW16.7 kmh SW 14.0 mph22.5 kmh 29.93 in1013.5 mb 0.04 in1.0 mm 0.00 in0.0 mm 0.06 in1.5 mm
04:37 AM 35.9°F2.2°C 33.3°F0.7°C 90% 10.4 mph SW16.7 kmh SW 14.0 mph22.5 kmh 29.93 in1013.5 mb 0.04 in1.0 mm 0.00 in0.0 mm 0.06 in1.5 mm
04:36 AM 35.9°F2.2°C 33.3°F0.7°C 90% 12.5 mph SW20.1 kmh SW 14.0 mph22.5 kmh 29.93 in1013.5 mb 0.04 in1.0 mm 0.00 in0.0 mm 0.06 in1.5 mm
04:35 AM 35.9°F2.2°C 33.3°F0.7°C 90% 12.1 mph SW19.5 kmh SW 14.0 mph22.5 kmh 29.93 in1013.5 mb 0.04 in1.0 mm 0.00 in0.0 mm 0.06 in1.5 mm
04:34 AM 35.9°F2.2°C 33.3°F0.7°C 90% 11.8 mph SW19.0 kmh SW 14.0 mph22.5 kmh 29.93 in1013.5 mb 0.05 in1.3 mm 0.00 in0.0 mm 0.06 in1.5 mm
04:33 AM 35.8°F2.1°C 33.2°F0.7°C 90% 10.5 mph SW16.9 kmh SW 13.0 mph20.9 kmh 29.93 in1013.5 mb 0.05 in1.3 mm 0.00 in0.0 mm 0.06 in1.5 mm
04:32 AM 35.8°F2.1°C 33.2°F0.7°C 90% 8.7 mph SW14.0 kmh SW 15.0 mph24.1 kmh 29.93 in1013.5 mb 0.05 in1.3 mm 0.00 in0.0 mm 0.06 in1.5 mm
04:31 AM 35.8°F2.1°C 33.2°F0.7°C 90% 12.5 mph SW20.1 kmh SW 15.0 mph24.1 kmh 29.93 in1013.5 mb 0.05 in1.3 mm 0.00 in0.0 mm 0.06 in1.5 mm
04:30 AM 35.8°F2.1°C 33.2°F0.7°C 90% 9.5 mph SW15.3 kmh SW 14.0 mph22.5 kmh 29.93 in1013.5 mb 0.05 in1.3 mm 0.00 in0.0 mm 0.06 in1.5 mm
04:29 AM 35.8°F2.1°C 33.2°F0.7°C 90% 11.1 mph SW17.9 kmh SW 13.0 mph20.9 kmh 29.93 in1013.5 mb 0.05 in1.3 mm 0.00 in0.0 mm 0.06 in1.5 mm
04:28 AM 35.8°F2.1°C 33.2°F0.7°C 90% 10.6 mph SW17.1 kmh SW 14.0 mph22.5 kmh 29.93 in1013.5 mb 0.05 in1.3 mm 0.00 in0.0 mm 0.06 in1.5 mm
04:27 AM 35.8°F2.1°C 33.2°F0.7°C 90% 9.8 mph SW15.8 kmh SW 14.0 mph22.5 kmh 29.93 in1013.5 mb 0.05 in1.3 mm 0.00 in0.0 mm 0.06 in1.5 mm
04:26 AM 35.8°F2.1°C 33.2°F0.7°C 90% 9.6 mph SW15.4 kmh SW 15.0 mph24.1 kmh 29.93 in1013.5 mb 0.06 in1.5 mm 0.00 in0.0 mm 0.06 in1.5 mm
04:25 AM 35.8°F2.1°C 33.2°F0.7°C 90% 9.8 mph SW15.8 kmh SW 15.0 mph24.1 kmh 29.93 in1013.5 mb 0.06 in1.5 mm 0.00 in0.0 mm 0.06 in1.5 mm
04:24 AM 35.8°F2.1°C 33.2°F0.7°C 90% 10.6 mph SW17.1 kmh SW 14.0 mph22.5 kmh 29.93 in1013.5 mb 0.06 in1.5 mm 0.00 in0.0 mm 0.06 in1.5 mm
04:23 AM 35.7°F2.1°C 33.1°F0.6°C 90% 9.2 mph SW14.8 kmh SW 14.0 mph22.5 kmh 29.93 in1013.5 mb 0.06 in1.5 mm 0.00 in0.0 mm 0.06 in1.5 mm
04:22 AM 35.8°F2.1°C 33.2°F0.7°C 90% 11.1 mph SW17.9 kmh SW 14.0 mph22.5 kmh 29.93 in1013.5 mb 0.06 in1.5 mm 0.00 in0.0 mm 0.06 in1.5 mm
04:21 AM 35.8°F2.1°C 33.2°F0.7°C 90% 8.7 mph SW14.0 kmh SW 14.0 mph22.5 kmh 29.93 in1013.5 mb 0.06 in1.5 mm 0.00 in0.0 mm 0.06 in1.5 mm
04:20 AM 35.8°F2.1°C 33.2°F0.7°C 90% 11.0 mph SW17.7 kmh SW 14.0 mph22.5 kmh 29.93 in1013.5 mb 0.06 in1.5 mm 0.00 in0.0 mm 0.06 in1.5 mm
04:19 AM 35.7°F2.1°C 33.1°F0.6°C 90% 10.1 mph SW16.3 kmh SW 12.0 mph19.3 kmh 29.93 in1013.5 mb 0.06 in1.5 mm 0.00 in0.0 mm 0.06 in1.5 mm
04:18 AM 35.7°F2.1°C 33.1°F0.6°C 90% 10.7 mph SW17.2 kmh SW 12.0 mph19.3 kmh 29.93 in1013.5 mb 0.06 in1.5 mm 0.00 in0.0 mm 0.06 in1.5 mm
04:17 AM 35.7°F2.1°C 33.1°F0.6°C 90% 10.0 mph SW16.1 kmh SW 12.0 mph19.3 kmh 29.93 in1013.5 mb 0.06 in1.5 mm 0.00 in0.0 mm 0.06 in1.5 mm
04:16 AM 35.8°F2.1°C 33.2°F0.7°C 90% 10.0 mph SW16.1 kmh SW 11.0 mph17.7 kmh 29.93 in1013.5 mb 0.06 in1.5 mm 0.00 in0.0 mm 0.06 in1.5 mm
04:15 AM 35.8°F2.1°C 33.2°F0.7°C 90% 10.0 mph SW16.1 kmh SW 13.0 mph20.9 kmh 29.93 in1013.5 mb 0.06 in1.5 mm 0.00 in0.0 mm 0.06 in1.5 mm
04:14 AM 35.8°F2.1°C 33.2°F0.7°C 90% 11.4 mph SW18.3 kmh SW 16.0 mph25.7 kmh 29.93 in1013.5 mb 0.06 in1.5 mm 0.00 in0.0 mm 0.06 in1.5 mm
04:13 AM 35.7°F2.1°C 32.8°F0.4°C 89% 11.7 mph SW18.8 kmh SW 15.0 mph24.1 kmh 29.93 in1013.5 mb 0.06 in1.5 mm 0.00 in0.0 mm 0.06 in1.5 mm
04:12 AM 35.8°F2.1°C 33.2°F0.7°C 90% 11.2 mph SW18.0 kmh SW 14.0 mph22.5 kmh 29.93 in1013.5 mb 0.06 in1.5 mm 0.00 in0.0 mm 0.06 in1.5 mm
04:11 AM 35.8°F2.1°C 32.9°F0.5°C 89% 11.4 mph SW18.3 kmh SW 15.0 mph24.1 kmh 29.93 in1013.5 mb 0.06 in1.5 mm 0.00 in0.0 mm 0.06 in1.5 mm
04:10 AM 35.9°F2.2°C 33.0°F0.6°C 89% 10.4 mph SW16.7 kmh SW 15.0 mph24.1 kmh 29.93 in1013.5 mb 0.06 in1.5 mm 0.00 in0.0 mm 0.06 in1.5 mm
04:09 AM 35.9°F2.2°C 33.0°F0.6°C 89% 11.7 mph SW18.8 kmh SW 15.0 mph24.1 kmh 29.93 in1013.5 mb 0.06 in1.5 mm 0.00 in0.0 mm 0.06 in1.5 mm
04:08 AM 35.9°F2.2°C 33.0°F0.6°C 89% 12.0 mph SW19.3 kmh SW 14.0 mph22.5 kmh 29.93 in1013.5 mb 0.06 in1.5 mm 0.00 in0.0 mm 0.06 in1.5 mm
04:07 AM 35.9°F2.2°C 33.0°F0.6°C 89% 11.3 mph SW18.2 kmh SW 14.0 mph22.5 kmh 29.93 in1013.5 mb 0.06 in1.5 mm 0.00 in0.0 mm 0.06 in1.5 mm
04:06 AM 36.0°F2.2°C 33.1°F0.6°C 89% 13.0 mph SW20.9 kmh SW 15.0 mph24.1 kmh 29.93 in1013.5 mb 0.06 in1.5 mm 0.00 in0.0 mm 0.06 in1.5 mm
04:05 AM 36.0°F2.2°C 33.1°F0.6°C 89% 15.0 mph SW24.1 kmh SW 18.0 mph29.0 kmh 29.93 in1013.5 mb 0.06 in1.5 mm 0.00 in0.0 mm 0.06 in1.5 mm
04:04 AM 36.1°F2.3°C 33.2°F0.7°C 89% 15.1 mph SW24.3 kmh SW 17.0 mph27.4 kmh 29.93 in1013.5 mb 0.06 in1.5 mm 0.00 in0.0 mm 0.06 in1.5 mm
04:03 AM 36.2°F2.3°C 33.3°F0.7°C 89% 13.1 mph SW21.1 kmh SW 18.0 mph29.0 kmh 29.93 in1013.5 mb 0.06 in1.5 mm 0.00 in0.0 mm 0.06 in1.5 mm
04:02 AM 36.2°F2.3°C 33.3°F0.7°C 89% 15.2 mph SW24.5 kmh SW 19.0 mph30.6 kmh 29.94 in1013.9 mb 0.06 in1.5 mm 0.00 in0.0 mm 0.06 in1.5 mm
04:01 AM 36.2°F2.3°C 33.3°F0.7°C 89% 15.1 mph SW24.3 kmh SW 19.0 mph30.6 kmh 29.94 in1013.9 mb 0.06 in1.5 mm 0.00 in0.0 mm 0.06 in1.5 mm
04:00 AM 36.3°F2.4°C 33.4°F0.8°C 89% 16.0 mph SW25.7 kmh SW 18.0 mph29.0 kmh 29.94 in1013.9 mb 0.06 in1.5 mm 0.00 in0.0 mm 0.06 in1.5 mm
03:59 AM 36.3°F2.4°C 33.4°F0.8°C 89% 18.0 mph SW29.0 kmh SW 21.0 mph33.8 kmh 29.94 in1013.9 mb 0.06 in1.5 mm 0.60 in15.2 mm 0.06 in1.5 mm
03:58 AM 36.3°F2.4°C 33.4°F0.8°C 89% 15.0 mph SW24.1 kmh SW 17.0 mph27.4 kmh 29.94 in1013.9 mb 0.05 in1.3 mm 0.00 in0.0 mm 0.05 in1.3 mm
03:57 AM 36.3°F2.4°C 33.4°F0.8°C 89% 16.0 mph SW25.7 kmh SW 18.0 mph29.0 kmh 29.94 in1013.9 mb 0.05 in1.3 mm 0.00 in0.0 mm 0.05 in1.3 mm
03:56 AM 36.4°F2.4°C 33.5°F0.8°C 89% 18.5 mph SW29.8 kmh SW 21.0 mph33.8 kmh 29.94 in1013.9 mb 0.05 in1.3 mm 0.00 in0.0 mm 0.05 in1.3 mm
03:55 AM 36.4°F2.4°C 33.5°F0.8°C 89% 18.0 mph SW29.0 kmh SW 21.0 mph33.8 kmh 29.94 in1013.9 mb 0.05 in1.3 mm 0.60 in15.2 mm 0.05 in1.3 mm
03:54 AM 36.4°F2.4°C 33.5°F0.8°C 89% 16.9 mph SW27.2 kmh SW 21.0 mph33.8 kmh 29.94 in1013.9 mb 0.04 in1.0 mm 0.00 in0.0 mm 0.04 in1.0 mm
03:53 AM 36.4°F2.4°C 33.5°F0.8°C 89% 17.7 mph SW28.5 kmh SW 21.0 mph33.8 kmh 29.94 in1013.9 mb 0.04 in1.0 mm 0.00 in0.0 mm 0.04 in1.0 mm
03:52 AM 36.4°F2.4°C 33.5°F0.8°C 89% 18.2 mph SW29.3 kmh SW 22.0 mph35.4 kmh 29.94 in1013.9 mb 0.04 in1.0 mm 0.00 in0.0 mm 0.04 in1.0 mm
03:51 AM 36.4°F2.4°C 33.5°F0.8°C 89% 18.1 mph SW29.1 kmh SW 22.0 mph35.4 kmh 29.94 in1013.9 mb 0.04 in1.0 mm 0.00 in0.0 mm 0.04 in1.0 mm
03:50 AM 36.4°F2.4°C 33.5°F0.8°C 89% 14.8 mph SW23.8 kmh SW 19.0 mph30.6 kmh 29.94 in1013.9 mb 0.04 in1.0 mm 0.00 in0.0 mm 0.04 in1.0 mm
03:49 AM 36.4°F2.4°C 33.5°F0.8°C 89% 16.4 mph SW26.4 kmh SW 19.0 mph30.6 kmh 29.94 in1013.9 mb 0.04 in1.0 mm 0.00 in0.0 mm 0.04 in1.0 mm
03:48 AM 36.4°F2.4°C 33.5°F0.8°C 89% 15.0 mph SW24.1 kmh SW 19.0 mph30.6 kmh 29.95 in1014.2 mb 0.04 in1.0 mm 0.00 in0.0 mm 0.04 in1.0 mm
03:47 AM 36.4°F2.4°C 33.5°F0.8°C 89% 14.0 mph SW22.5 kmh SW 14.0 mph22.5 kmh 29.94 in1013.9 mb 0.04 in1.0 mm 0.60 in15.2 mm 0.04 in1.0 mm
03:46 AM 36.4°F2.4°C 33.5°F0.8°C 89% 12.0 mph SW19.3 kmh SW 15.0 mph24.1 kmh 29.94 in1013.9 mb 0.03 in0.8 mm 0.00 in0.0 mm 0.03 in0.8 mm
03:45 AM 36.4°F2.4°C 33.5°F0.8°C 89% 13.0 mph SW20.9 kmh SW 16.0 mph25.7 kmh 29.95 in1014.2 mb 0.03 in0.8 mm 0.00 in0.0 mm 0.03 in0.8 mm
03:44 AM 36.3°F2.4°C 33.1°F0.6°C 88% 12.3 mph SW19.8 kmh SW 16.0 mph25.7 kmh 29.95 in1014.2 mb 0.03 in0.8 mm 0.00 in0.0 mm 0.03 in0.8 mm
03:43 AM 36.3°F2.4°C 33.1°F0.6°C 88% 11.8 mph SW19.0 kmh SW 15.0 mph24.1 kmh 29.95 in1014.2 mb 0.03 in0.8 mm 0.00 in0.0 mm 0.03 in0.8 mm
03:42 AM 36.3°F2.4°C 33.4°F0.8°C 89% 11.8 mph SW19.0 kmh SW 15.0 mph24.1 kmh 29.95 in1014.2 mb 0.03 in0.8 mm 0.00 in0.0 mm 0.03 in0.8 mm
03:41 AM 36.3°F2.4°C 33.4°F0.8°C 89% 11.3 mph SW18.2 kmh SW 15.0 mph24.1 kmh 29.95 in1014.2 mb 0.03 in0.8 mm 0.00 in0.0 mm 0.03 in0.8 mm
03:40 AM 36.2°F2.3°C 33.0°F0.6°C 88% 11.9 mph SW19.2 kmh SW 16.0 mph25.7 kmh 29.95 in1014.2 mb 0.03 in0.8 mm 0.60 in15.2 mm 0.03 in0.8 mm
03:39 AM 36.2°F2.3°C 33.0°F0.6°C 88% 13.2 mph SW21.2 kmh SW 16.0 mph25.7 kmh 29.95 in1014.2 mb 0.02 in0.5 mm 0.00 in0.0 mm 0.02 in0.5 mm
03:38 AM 36.2°F2.3°C 33.0°F0.6°C 88% 10.7 mph SW17.2 kmh SW 15.0 mph24.1 kmh 29.95 in1014.2 mb 0.02 in0.5 mm 0.00 in0.0 mm 0.02 in0.5 mm
03:37 AM 36.2°F2.3°C 33.0°F0.6°C 88% 12.5 mph SW20.1 kmh SW 18.0 mph29.0 kmh 29.95 in1014.2 mb 0.02 in0.5 mm 0.00 in0.0 mm 0.02 in0.5 mm
03:36 AM 36.2°F2.3°C 33.0°F0.6°C 88% 11.7 mph SW18.8 kmh SW 18.0 mph29.0 kmh 29.95 in1014.2 mb 0.02 in0.5 mm 0.00 in0.0 mm 0.02 in0.5 mm
03:35 AM 36.2°F2.3°C 33.0°F0.6°C 88% 10.5 mph SW16.9 kmh SW 16.0 mph25.7 kmh 29.95 in1014.2 mb 0.02 in0.5 mm 0.00 in0.0 mm 0.02 in0.5 mm
03:34 AM 36.3°F2.4°C 32.8°F0.4°C 87% 11.8 mph SW19.0 kmh SW 16.0 mph25.7 kmh 29.95 in1014.2 mb 0.02 in0.5 mm 0.00 in0.0 mm 0.02 in0.5 mm
03:33 AM 36.3°F2.4°C 32.8°F0.4°C 87% 8.8 mph SW14.2 kmh SW 14.0 mph22.5 kmh 29.95 in1014.2 mb 0.02 in0.5 mm 0.00 in0.0 mm 0.02 in0.5 mm
03:32 AM 36.4°F2.4°C 32.9°F0.5°C 87% 10.4 mph SW16.7 kmh SW 14.0 mph22.5 kmh 29.95 in1014.2 mb 0.02 in0.5 mm 0.00 in0.0 mm 0.02 in0.5 mm
03:31 AM 36.4°F2.4°C 32.9°F0.5°C 87% 9.2 mph SW14.8 kmh SW 11.0 mph17.7 kmh 29.95 in1014.2 mb 0.02 in0.5 mm 0.00 in0.0 mm 0.02 in0.5 mm
03:30 AM 36.4°F2.4°C 32.9°F0.5°C 87% 7.9 mph SW12.7 kmh SW 11.0 mph17.7 kmh 29.95 in1014.2 mb 0.02 in0.5 mm 0.00 in0.0 mm 0.02 in0.5 mm
03:29 AM 36.4°F2.4°C 32.9°F0.5°C 87% 8.3 mph SW13.4 kmh SW 13.0 mph20.9 kmh 29.95 in1014.2 mb 0.02 in0.5 mm 0.00 in0.0 mm 0.02 in0.5 mm
03:28 AM 36.4°F2.4°C 32.9°F0.5°C 87% 8.5 mph SSW13.7 kmh SSW 14.0 mph22.5 kmh 29.95 in1014.2 mb 0.02 in0.5 mm 0.00 in0.0 mm 0.02 in0.5 mm
03:27 AM 36.4°F2.4°C 32.9°F0.5°C 87% 10.9 mph SSW17.5 kmh SSW 14.0 mph22.5 kmh 29.95 in1014.2 mb 0.02 in0.5 mm 0.60 in15.2 mm 0.02 in0.5 mm
03:26 AM 36.5°F2.5°C 33.0°F0.6°C 87% 7.0 mph SW11.3 kmh SW 11.0 mph17.7 kmh 29.95 in1014.2 mb 0.01 in0.3 mm 0.00 in0.0 mm 0.01 in0.3 mm
03:25 AM 36.5°F2.5°C 33.0°F0.6°C 87% 8.0 mph SW12.9 kmh SW 12.0 mph19.3 kmh 29.95 in1014.2 mb 0.01 in0.3 mm 0.00 in0.0 mm 0.01 in0.3 mm
03:24 AM 36.5°F2.5°C 33.0°F0.6°C 87% 9.0 mph SSW14.5 kmh SSW 12.0 mph19.3 kmh 29.95 in1014.2 mb 0.01 in0.3 mm 0.00 in0.0 mm 0.01 in0.3 mm
03:23 AM 36.5°F2.5°C 33.0°F0.6°C 87% 9.4 mph SSW15.1 kmh SSW 12.0 mph19.3 kmh 29.95 in1014.2 mb 0.01 in0.3 mm 0.00 in0.0 mm 0.01 in0.3 mm
03:22 AM 36.5°F2.5°C 33.0°F0.6°C 87% 8.9 mph SSW14.3 kmh SSW 12.0 mph19.3 kmh 29.95 in1014.2 mb 0.01 in0.3 mm 0.00 in0.0 mm 0.01 in0.3 mm
03:21 AM 36.5°F2.5°C 33.0°F0.6°C 87% 9.9 mph SSW15.9 kmh SSW 13.0 mph20.9 kmh 29.95 in1014.2 mb 0.01 in0.3 mm 0.00 in0.0 mm 0.01 in0.3 mm
03:20 AM 36.5°F2.5°C 33.0°F0.6°C 87% 9.2 mph SW14.8 kmh SW 14.0 mph22.5 kmh 29.95 in1014.2 mb 0.01 in0.3 mm 0.00 in0.0 mm 0.01 in0.3 mm
03:19 AM 36.5°F2.5°C 33.0°F0.6°C 87% 10.0 mph SW16.1 kmh SW 14.0 mph22.5 kmh 29.95 in1014.2 mb 0.01 in0.3 mm 0.00 in0.0 mm 0.01 in0.3 mm
03:18 AM 36.5°F2.5°C 33.0°F0.6°C 87% 9.8 mph SSW15.8 kmh SSW 12.0 mph19.3 kmh 29.95 in1014.2 mb 0.01 in0.3 mm 0.00 in0.0 mm 0.01 in0.3 mm
03:17 AM 36.5°F2.5°C 32.7°F0.4°C 86% 8.7 mph SSW14.0 kmh SSW 12.0 mph19.3 kmh 29.95 in1014.2 mb 0.01 in0.3 mm 0.00 in0.0 mm 0.01 in0.3 mm
03:16 AM 36.5°F2.5°C 32.7°F0.4°C 86% 9.1 mph SW14.6 kmh SW 15.0 mph24.1 kmh 29.95 in1014.2 mb 0.01 in0.3 mm 0.60 in15.2 mm 0.01 in0.3 mm
03:15 AM 36.5°F2.5°C 32.7°F0.4°C 86% 9.7 mph SSW15.6 kmh SSW 15.0 mph24.1 kmh 29.95 in1014.2 mb 0.00 in0.0 mm 0.00 in0.0 mm 0.00 in0.0 mm
03:14 AM 36.5°F2.5°C 32.7°F0.4°C 86% 10.1 mph S16.3 kmh S 14.0 mph22.5 kmh 29.95 in1014.2 mb 0.00 in0.0 mm 0.00 in0.0 mm 0.00 in0.0 mm
03:13 AM 36.5°F2.5°C 32.7°F0.4°C 86% 9.8 mph SSW15.8 kmh SSW 14.0 mph22.5 kmh 29.95 in1014.2 mb 0.00 in0.0 mm 0.00 in0.0 mm 0.00 in0.0 mm
03:12 AM 36.5°F2.5°C 32.7°F0.4°C 86% 8.3 mph SSW13.4 kmh SSW 14.0 mph22.5 kmh 29.95 in1014.2 mb 0.00 in0.0 mm 0.00 in0.0 mm 0.00 in0.0 mm
03:11 AM 36.5°F2.5°C 32.7°F0.4°C 86% 10.8 mph SSW17.4 kmh SSW 14.0 mph22.5 kmh 29.95 in1014.2 mb 0.00 in0.0 mm 0.00 in0.0 mm 0.00 in0.0 mm
03:10 AM 36.5°F2.5°C 32.7°F0.4°C 86% 9.0 mph SSW14.5 kmh SSW 13.0 mph20.9 kmh 29.95 in1014.2 mb 0.00 in0.0 mm 0.00 in0.0 mm 0.00 in0.0 mm
03:09 AM 36.4°F2.4°C 32.6°F0.3°C 86% 10.0 mph SSW16.1 kmh SSW 13.0 mph20.9 kmh 29.95 in1014.2 mb 0.00 in0.0 mm 0.00 in0.0 mm 0.00 in0.0 mm
03:08 AM 36.4°F2.4°C 32.6°F0.3°C 86% 9.2 mph SSW14.8 kmh SSW 10.0 mph16.1 kmh 29.95 in1014.2 mb 0.00 in0.0 mm 0.00 in0.0 mm 0.00 in0.0 mm
03:07 AM 36.4°F2.4°C 32.6°F0.3°C 86% 10.0 mph SSW16.1 kmh SSW 14.0 mph22.5 kmh 29.95 in1014.2 mb 0.00 in0.0 mm 0.00 in0.0 mm 0.00 in0.0 mm
03:06 AM 36.4°F2.4°C 32.6°F0.3°C 86% 9.0 mph SSW14.5 kmh SSW 11.0 mph17.7 kmh 29.95 in1014.2 mb 0.00 in0.0 mm 0.00 in0.0 mm 0.00 in0.0 mm
03:05 AM 36.4°F2.4°C 32.6°F0.3°C 86% 10.9 mph SSW17.5 kmh SSW 13.0 mph20.9 kmh 29.95 in1014.2 mb 0.00 in0.0 mm 0.00 in0.0 mm 0.00 in0.0 mm
03:04 AM 36.3°F2.4°C 32.5°F0.3°C 86% 9.9 mph SW15.9 kmh SW 13.0 mph20.9 kmh 29.95 in1014.2 mb 0.00 in0.0 mm 0.00 in0.0 mm 0.00 in0.0 mm
03:03 AM 36.3°F2.4°C 32.5°F0.3°C 86% 9.3 mph SSW15.0 kmh SSW 13.0 mph20.9 kmh 29.95 in1014.2 mb 0.00 in0.0 mm 0.00 in0.0 mm 0.00 in0.0 mm
03:02 AM 36.3°F2.4°C 32.5°F0.3°C 86% 10.0 mph SSW16.1 kmh SSW 14.0 mph22.5 kmh 29.95 in1014.2 mb 0.00 in0.0 mm 0.00 in0.0 mm 0.00 in0.0 mm
03:01 AM 36.3°F2.4°C 32.2°F0.1°C 85% 13.0 mph SSW20.9 kmh SSW 17.0 mph27.4 kmh 29.95 in1014.2 mb 0.00 in0.0 mm 0.00 in0.0 mm 0.00 in0.0 mm
03:00 AM 36.3°F2.4°C 32.2°F0.1°C 85% 7.0 mph SSW11.3 kmh SSW 11.0 mph17.7 kmh 29.96 in1014.6 mb 0.00 in0.0 mm 0.00 in0.0 mm 0.00 in0.0 mm
02:59 AM 36.3°F2.4°C 32.2°F0.1°C 85% 9.1 mph SSW14.6 kmh SSW 14.0 mph22.5 kmh 29.96 in1014.6 mb 0.00 in0.0 mm 0.00 in0.0 mm 0.00 in0.0 mm
02:58 AM 36.3°F2.4°C 32.2°F0.1°C 85% 8.9 mph SSW14.3 kmh SSW 14.0 mph22.5 kmh 29.96 in1014.6 mb 0.00 in0.0 mm 0.00 in0.0 mm 0.00 in0.0 mm
02:57 AM 36.3°F2.4°C 32.2°F0.1°C 85% 8.8 mph S14.2 kmh S 12.0 mph19.3 kmh 29.96 in1014.6 mb 0.00 in0.0 mm 0.00 in0.0 mm 0.00 in0.0 mm
02:56 AM 36.3°F2.4°C 32.2°F0.1°C 85% 9.1 mph SSW14.6 kmh SSW 14.0 mph22.5 kmh 29.96 in1014.6 mb 0.00 in0.0 mm 0.00 in0.0 mm 0.00 in0.0 mm
02:55 AM 36.4°F2.4°C 32.3°F0.2°C 85% 10.0 mph SSW16.1 kmh SSW 14.0 mph22.5 kmh 29.96 in1014.6 mb 0.00 in0.0 mm 0.00 in0.0 mm 0.00 in0.0 mm
02:54 AM 36.4°F2.4°C 32.3°F0.2°C 85% 9.4 mph S15.1 kmh S 13.0 mph20.9 kmh 29.96 in1014.6 mb 0.00 in0.0 mm 0.00 in0.0 mm 0.00 in0.0 mm
02:53 AM 36.3°F2.4°C 32.2°F0.1°C 85% 9.8 mph S15.8 kmh S 13.0 mph20.9 kmh 29.96 in1014.6 mb 0.00 in0.0 mm 0.00 in0.0 mm 0.00 in0.0 mm
02:52 AM 36.3°F2.4°C 32.2°F0.1°C 85% 13.0 mph SSW20.9 kmh SSW 16.0 mph25.7 kmh 29.96 in1014.6 mb 0.00 in0.0 mm 0.00 in0.0 mm 0.00 in0.0 mm
02:51 AM 36.3°F2.4°C 32.2°F0.1°C 85% 9.0 mph SSW14.5 kmh SSW 12.0 mph19.3 kmh 29.96 in1014.6 mb 0.00 in0.0 mm 0.00 in0.0 mm 0.00 in0.0 mm
02:50 AM 36.3°F2.4°C 32.2°F0.1°C 85% 9.6 mph S15.4 kmh S 16.0 mph25.7 kmh 29.96 in1014.6 mb 0.00 in0.0 mm 0.00 in0.0 mm 0.00 in0.0 mm
02:49 AM 36.3°F2.4°C 32.2°F0.1°C 85% 12.6 mph SSW20.3 kmh SSW 16.0 mph25.7 kmh 29.96 in1014.6 mb 0.00 in0.0 mm 0.00 in0.0 mm 0.00 in0.0 mm
02:48 AM 36.3°F2.4°C 32.2°F0.1°C 85% 9.6 mph SSW15.4 kmh SSW 16.0 mph25.7 kmh 29.96 in1014.6 mb 0.00 in0.0 mm 0.00 in0.0 mm 0.00 in0.0 mm
02:47 AM 36.3°F2.4°C 32.2°F0.1°C 85% 11.6 mph SSW18.7 kmh SSW 16.0 mph25.7 kmh 29.96 in1014.6 mb 0.00 in0.0 mm 0.00 in0.0 mm 0.00 in0.0 mm
02:46 AM 36.3°F2.4°C 31.9°F-0.1°C 84% 9.1 mph SSW14.6 kmh SSW 14.0 mph22.5 kmh 29.96 in1014.6 mb 0.00 in0.0 mm 0.00 in0.0 mm 0.00 in0.0 mm
02:45 AM 36.3°F2.4°C 31.9°F-0.1°C 84% 8.4 mph S13.5 kmh S 13.0 mph20.9 kmh 29.96 in1014.6 mb 0.00 in0.0 mm 0.00 in0.0 mm 0.00 in0.0 mm
02:44 AM 36.4°F2.4°C 32.0°F0.0°C 84% 9.6 mph SSW15.4 kmh SSW 14.0 mph22.5 kmh 29.96 in1014.6 mb 0.00 in0.0 mm 0.00 in0.0 mm 0.00 in0.0 mm
02:43 AM 36.3°F2.4°C 31.9°F-0.1°C 84% 9.3 mph SSW15.0 kmh SSW 14.0 mph22.5 kmh 29.96 in1014.6 mb 0.00 in0.0 mm 0.00 in0.0 mm 0.00 in0.0 mm
02:42 AM 36.3°F2.4°C 31.9°F-0.1°C 84% 10.5 mph SSW16.9 kmh SSW 15.0 mph24.1 kmh 29.96 in1014.6 mb 0.00 in0.0 mm 0.00 in0.0 mm 0.00 in0.0 mm
02:41 AM 36.4°F2.4°C 32.0°F0.0°C 84% 11.2 mph SSW18.0 kmh SSW 16.0 mph25.7 kmh 29.96 in1014.6 mb 0.00 in0.0 mm 0.00 in0.0 mm 0.00 in0.0 mm
02:40 AM 36.3°F2.4°C 31.9°F-0.1°C 84% 10.8 mph SSW17.4 kmh SSW 16.0 mph25.7 kmh 29.96 in1014.6 mb 0.00 in0.0 mm 0.00 in0.0 mm 0.00 in0.0 mm
02:39 AM 36.4°F2.4°C 32.0°F0.0°C 84% 9.6 mph SSW15.4 kmh SSW 16.0 mph25.7 kmh 29.96 in1014.6 mb 0.00 in0.0 mm 0.00 in0.0 mm 0.00 in0.0 mm
02:38 AM 36.3°F2.4°C 31.9°F-0.1°C 84% 11.4 mph SSW18.3 kmh SSW 16.0 mph25.7 kmh 29.96 in1014.6 mb 0.00 in0.0 mm 0.00 in0.0 mm 0.00 in0.0 mm
02:37 AM 36.3°F2.4°C 31.9°F-0.1°C 84% 11.2 mph SSW18.0 kmh SSW 16.0 mph25.7 kmh 29.96 in1014.6 mb 0.00 in0.0 mm 0.00 in0.0 mm 0.00 in0.0 mm
02:36 AM 36.3°F2.4°C 31.9°F-0.1°C 84% 11.7 mph SSW18.8 kmh SSW 14.0 mph22.5 kmh 29.96 in1014.6 mb 0.00 in0.0 mm 0.00 in0.0 mm 0.00 in0.0 mm
02:35 AM 36.3°F2.4°C 31.9°F-0.1°C 84% 10.2 mph SSW16.4 kmh SSW 14.0 mph22.5 kmh 29.97 in1014.9 mb 0.00 in0.0 mm 0.00 in0.0 mm 0.00 in0.0 mm
02:34 AM 36.3°F2.4°C 31.9°F-0.1°C 84% 9.7 mph SSW15.6 kmh SSW 14.0 mph22.5 kmh 29.97 in1014.9 mb 0.00 in0.0 mm 0.00 in0.0 mm 0.00 in0.0 mm
02:33 AM 36.3°F2.4°C 31.6°F-0.2°C 83% 9.2 mph SSW14.8 kmh SSW 13.0 mph20.9 kmh 29.97 in1014.9 mb 0.00 in0.0 mm 0.00 in0.0 mm 0.00 in0.0 mm
02:32 AM 36.3°F2.4°C 31.6°F-0.2°C 83% 9.7 mph SSW15.6 kmh SSW 13.0 mph20.9 kmh 29.97 in1014.9 mb 0.00 in0.0 mm 0.00 in0.0 mm 0.00 in0.0 mm
02:31 AM 36.4°F2.4°C 31.7°F-0.2°C 83% 9.0 mph SSW14.5 kmh SSW 11.0 mph17.7 kmh 29.97 in1014.9 mb 0.00 in0.0 mm 0.00 in0.0 mm 0.00 in0.0 mm
02:30 AM 36.3°F2.4°C 31.6°F-0.2°C 83% 9.0 mph SSW14.5 kmh SSW 14.0 mph22.5 kmh 29.97 in1014.9 mb 0.00 in0.0 mm 0.00 in0.0 mm 0.00 in0.0 mm
02:29 AM 36.3°F2.4°C 31.6°F-0.2°C 83% 11.0 mph SSW17.7 kmh SSW 15.0 mph24.1 kmh 29.97 in1014.9 mb 0.00 in0.0 mm 0.00 in0.0 mm 0.00 in0.0 mm
02:28 AM 36.3°F2.4°C 31.6°F-0.2°C 83% 10.0 mph SSW16.1 kmh SSW 15.0 mph24.1 kmh 29.97 in1014.9 mb 0.00 in0.0 mm 0.00 in0.0 mm 0.00 in0.0 mm
02:27 AM 36.2°F2.3°C 31.5°F-0.3°C 83% 8.8 mph SSW14.2 kmh SSW 15.0 mph24.1 kmh 29.97 in1014.9 mb 0.00 in0.0 mm 0.00 in0.0 mm 0.00 in0.0 mm
02:26 AM 36.2°F2.3°C 31.5°F-0.3°C 83% 8.5 mph SSW13.7 kmh SSW 16.0 mph25.7 kmh 29.97 in1014.9 mb 0.00 in0.0 mm 0.00 in0.0 mm 0.00 in0.0 mm
02:25 AM 36.2°F2.3°C 31.5°F-0.3°C 83% 11.5 mph SSW18.5 kmh SSW 16.0 mph25.7 kmh 29.97 in1014.9 mb 0.00 in0.0 mm 0.00 in0.0 mm 0.00 in0.0 mm
02:24 AM 36.1°F2.3°C 31.4°F-0.3°C 83% 9.1 mph SSW14.6 kmh SSW 16.0 mph25.7 kmh 29.97 in1014.9 mb 0.00 in0.0 mm 0.00 in0.0 mm 0.00 in0.0 mm
02:23 AM 36.1°F2.3°C 31.4°F-0.3°C 83% 10.5 mph SSW16.9 kmh SSW 16.0 mph25.7 kmh 29.97 in1014.9 mb 0.00 in0.0 mm 0.00 in0.0 mm 0.00 in0.0 mm
02:22 AM 36.1°F2.3°C 31.4°F-0.3°C 83% 10.4 mph SSW16.7 kmh SSW 17.0 mph27.4 kmh 29.97 in1014.9 mb 0.00 in0.0 mm 0.00 in0.0 mm 0.00 in0.0 mm
02:21 AM 36.1°F2.3°C 31.4°F-0.3°C 83% 10.8 mph SSW17.4 kmh SSW 17.0 mph27.4 kmh 29.97 in1014.9 mb 0.00 in0.0 mm 0.00 in0.0 mm 0.00 in0.0 mm
02:20 AM 36.0°F2.2°C 31.3°F-0.4°C 83% 10.4 mph SSW16.7 kmh SSW 15.0 mph24.1 kmh 29.97 in1014.9 mb 0.00 in0.0 mm 0.00 in0.0 mm 0.00 in0.0 mm
02:19 AM 36.0°F2.2°C 31.3°F-0.4°C 83% 11.4 mph SSW18.3 kmh SSW 16.0 mph25.7 kmh 29.98 in1015.2 mb 0.00 in0.0 mm 0.00 in0.0 mm 0.00 in0.0 mm
02:18 AM 36.0°F2.2°C 31.3°F-0.4°C 83% 9.2 mph SSW14.8 kmh SSW 16.0 mph25.7 kmh 29.98 in1015.2 mb 0.00 in0.0 mm 0.00 in0.0 mm 0.00 in0.0 mm
02:17 AM 36.0°F2.2°C 31.3°F-0.4°C 83% 9.3 mph SSW15.0 kmh SSW 18.0 mph29.0 kmh 29.98 in1015.2 mb 0.00 in0.0 mm 0.00 in0.0 mm 0.00 in0.0 mm
02:16 AM 36.0°F2.2°C 31.3°F-0.4°C 83% 13.2 mph SSW21.2 kmh SSW 18.0 mph29.0 kmh 29.98 in1015.2 mb 0.00 in0.0 mm 0.00 in0.0 mm 0.00 in0.0 mm
02:15 AM 36.0°F2.2°C 31.3°F-0.4°C 83% 11.2 mph SSW18.0 kmh SSW 15.0 mph24.1 kmh 29.98 in1015.2 mb 0.00 in0.0 mm 0.00 in0.0 mm 0.00 in0.0 mm
02:14 AM 35.9°F2.2°C 31.2°F-0.4°C 83% 10.5 mph SSW16.9 kmh SSW 15.0 mph24.1 kmh 29.98 in1015.2 mb 0.00 in0.0 mm 0.00 in0.0 mm 0.00 in0.0 mm
02:13 AM 35.9°F2.2°C 31.2°F-0.4°C 83% 10.3 mph SSW16.6 kmh SSW 15.0 mph24.1 kmh 29.98 in1015.2 mb 0.00 in0.0 mm 0.00 in0.0 mm 0.00 in0.0 mm
02:12 AM 35.9°F2.2°C 31.2°F-0.4°C 83% 8.7 mph SSW14.0 kmh SSW 14.0 mph22.5 kmh 29.98 in1015.2 mb 0.00 in0.0 mm 0.00 in0.0 mm 0.00 in0.0 mm
02:11 AM 36.0°F2.2°C 31.3°F-0.4°C 83% 8.7 mph SSW14.0 kmh SSW 12.0 mph19.3 kmh 29.98 in1015.2 mb 0.00 in0.0 mm 0.00 in0.0 mm 0.00 in0.0 mm
02:10 AM 36.0°F2.2°C 31.3°F-0.4°C 83% 9.0 mph SSW14.5 kmh SSW 13.0 mph20.9 kmh 29.98 in1015.2 mb 0.00 in0.0 mm 0.00 in0.0 mm 0.00 in0.0 mm
02:09 AM 36.0°F2.2°C 31.0°F-0.6°C 82% 10.0 mph SSW16.1 kmh SSW 13.0 mph20.9 kmh 29.98 in1015.2 mb 0.00 in0.0 mm 0.00 in0.0 mm 0.00 in0.0 mm
02:08 AM 36.0°F2.2°C 31.0°F-0.6°C 82% 7.0 mph SSW11.3 kmh SSW 9.0 mph14.5 kmh 29.98 in1015.2 mb 0.00 in0.0 mm 0.00 in0.0 mm 0.00 in0.0 mm
02:07 AM 36.0°F2.2°C 31.0°F-0.6°C 82% 9.0 mph SSW14.5 kmh SSW 13.0 mph20.9 kmh 29.98 in1015.2 mb 0.00 in0.0 mm 0.00 in0.0 mm 0.00 in0.0 mm
02:06 AM 36.0°F2.2°C 31.0°F-0.6°C 82% 9.3 mph SSW15.0 kmh SSW 14.0 mph22.5 kmh 29.98 in1015.2 mb 0.00 in0.0 mm 0.00 in0.0 mm 0.00 in0.0 mm
02:05 AM 36.0°F2.2°C 31.0°F-0.6°C 82% 10.9 mph SSW17.5 kmh SSW 14.0 mph22.5 kmh 29.98 in1015.2 mb 0.00 in0.0 mm 0.00 in0.0 mm 0.00 in0.0 mm
02:04 AM 36.0°F2.2°C 31.0°F-0.6°C 82% 10.1 mph SSW16.3 kmh SSW 13.0 mph20.9 kmh 29.98 in1015.2 mb 0.00 in0.0 mm 0.00 in0.0 mm 0.00 in0.0 mm
02:03 AM 36.0°F2.2°C 31.0°F-0.6°C 82% 11.0 mph S17.7 kmh S 17.0 mph27.4 kmh 29.98 in1015.2 mb 0.00 in0.0 mm 0.00 in0.0 mm 0.00 in0.0 mm
02:02 AM 36.0°F2.2°C 31.0°F-0.6°C 82% 10.0 mph SSW16.1 kmh SSW 15.0 mph24.1 kmh 29.98 in1015.2 mb 0.00 in0.0 mm 0.00 in0.0 mm 0.00 in0.0 mm
02:01 AM 36.0°F2.2°C 31.0°F-0.6°C 82% 11.0 mph SSW17.7 kmh SSW 15.0 mph24.1 kmh 29.98 in1015.2 mb 0.00 in0.0 mm 0.00 in0.0 mm 0.00 in0.0 mm
02:00 AM 36.0°F2.2°C 31.0°F-0.6°C 82% 9.9 mph SSW15.9 kmh SSW 15.0 mph24.1 kmh 29.98 in1015.2 mb 0.00 in0.0 mm 0.00 in0.0 mm 0.00 in0.0 mm
01:59 AM 36.0°F2.2°C 31.0°F-0.6°C 82% 9.9 mph SSW15.9 kmh SSW 15.0 mph24.1 kmh 29.98 in1015.2 mb 0.00 in0.0 mm 0.00 in0.0 mm 0.00 in0.0 mm
01:58 AM 36.0°F2.2°C 31.0°F-0.6°C 82% 9.6 mph SSW15.4 kmh SSW 13.0 mph20.9 kmh 29.98 in1015.2 mb 0.00 in0.0 mm 0.00 in0.0 mm 0.00 in0.0 mm
01:57 AM 36.0°F2.2°C 31.0°F-0.6°C 82% 10.9 mph SSW17.5 kmh SSW 13.0 mph20.9 kmh 29.98 in1015.2 mb 0.00 in0.0 mm 0.00 in0.0 mm 0.00 in0.0 mm
01:56 AM 36.0°F2.2°C 31.0°F-0.6°C 82% 9.8 mph SSW15.8 kmh SSW 13.0 mph20.9 kmh 29.98 in1015.2 mb 0.00 in0.0 mm 0.00 in0.0 mm 0.00 in0.0 mm
01:55 AM 36.0°F2.2°C 31.0°F-0.6°C 82% 9.8 mph SSW15.8 kmh SSW 16.0 mph25.7 kmh 29.98 in1015.2 mb 0.00 in0.0 mm 0.00 in0.0 mm 0.00 in0.0 mm
01:54 AM 35.9°F2.2°C 31.0°F-0.6°C 82% 9.9 mph SSW15.9 kmh SSW 16.0 mph25.7 kmh 29.98 in1015.2 mb 0.00 in0.0 mm 0.00 in0.0 mm 0.00 in0.0 mm
01:53 AM 35.9°F2.2°C 31.0°F-0.6°C 82% 9.4 mph SSW15.1 kmh SSW 15.0 mph24.1 kmh 29.99 in1015.6 mb 0.00 in0.0 mm 0.00 in0.0 mm 0.00 in0.0 mm
01:52 AM 35.9°F2.2°C 31.2°F-0.4°C 83% 10.1 mph SSW16.3 kmh SSW 15.0 mph24.1 kmh 29.99 in1015.6 mb 0.00 in0.0 mm 0.00 in0.0 mm 0.00 in0.0 mm
01:51 AM 35.9°F2.2°C 31.2°F-0.4°C 83% 10.7 mph SW17.2 kmh SW 15.0 mph24.1 kmh 29.99 in1015.6 mb 0.00 in0.0 mm 0.00 in0.0 mm 0.00 in0.0 mm
01:50 AM 35.9°F2.2°C 31.2°F-0.4°C 83% 13.0 mph SSW20.9 kmh SSW 15.0 mph24.1 kmh 29.99 in1015.6 mb 0.00 in0.0 mm 0.00 in0.0 mm 0.00 in0.0 mm
01:49 AM 35.8°F2.1°C 31.2°F-0.4°C 83% 10.0 mph SSW16.1 kmh SSW 13.0 mph20.9 kmh 29.99 in1015.6 mb 0.00 in0.0 mm 0.00 in0.0 mm 0.00 in0.0 mm
01:48 AM 35.7°F2.1°C 31.1°F-0.5°C 83% 10.0 mph SSW16.1 kmh SSW 14.0 mph22.5 kmh 29.99 in1015.6 mb 0.00 in0.0 mm 0.00 in0.0 mm 0.00 in0.0 mm
01:47 AM 35.8°F2.1°C 31.2°F-0.4°C 83% 10.2 mph SSW16.4 kmh SSW 13.0 mph20.9 kmh 29.99 in1015.6 mb 0.00 in0.0 mm 0.00 in0.0 mm 0.00 in0.0 mm
01:46 AM 35.8°F2.1°C 31.2°F-0.4°C 83% 10.0 mph SSW16.1 kmh SSW 13.0 mph20.9 kmh 29.99 in1015.6 mb 0.00 in0.0 mm 0.00 in0.0 mm 0.00 in0.0 mm
01:45 AM 35.7°F2.1°C 31.1°F-0.5°C 83% 10.5 mph SSW16.9 kmh SSW 15.0 mph24.1 kmh 29.99 in1015.6 mb 0.00 in0.0 mm 0.00 in0.0 mm 0.00 in0.0 mm
01:44 AM 35.7°F2.1°C 31.1°F-0.5°C 83% 11.7 mph SW18.8 kmh SW 17.0 mph27.4 kmh 29.99 in1015.6 mb 0.00 in0.0 mm 0.00 in0.0 mm 0.00 in0.0 mm
01:43 AM 35.7°F2.1°C 31.1°F-0.5°C 83% 10.2 mph SSW16.4 kmh SSW 17.0 mph27.4 kmh 29.99 in1015.6 mb 0.00 in0.0 mm 0.00 in0.0 mm 0.00 in0.0 mm
01:42 AM 35.7°F2.1°C 31.1°F-0.5°C 83% 10.4 mph SW16.7 kmh SW 14.0 mph22.5 kmh 29.99 in1015.6 mb 0.00 in0.0 mm 0.00 in0.0 mm 0.00 in0.0 mm
01:41 AM 35.7°F2.1°C 30.8°F-0.7°C 82% 9.1 mph SSW14.6 kmh SSW 15.0 mph24.1 kmh 29.99 in1015.6 mb 0.00 in0.0 mm 0.00 in0.0 mm 0.00 in0.0 mm
01:40 AM 35.8°F2.1°C 30.9°F-0.6°C 82% 10.2 mph SSW16.4 kmh SSW 15.0 mph24.1 kmh 29.99 in1015.6 mb 0.00 in0.0 mm 0.00 in0.0 mm 0.00 in0.0 mm
01:39 AM 35.7°F2.1°C 30.8°F-0.7°C 82% 10.0 mph SSW16.1 kmh SSW 15.0 mph24.1 kmh 29.99 in1015.6 mb 0.00 in0.0 mm 0.00 in0.0 mm 0.00 in0.0 mm
01:38 AM 35.8°F2.1°C 30.9°F-0.6°C 82% 11.4 mph SSW18.3 kmh SSW 15.0 mph24.1 kmh 29.99 in1015.6 mb 0.00 in0.0 mm 0.00 in0.0 mm 0.00 in0.0 mm
01:37 AM 35.8°F2.1°C 30.9°F-0.6°C 82% 9.8 mph SSW15.8 kmh SSW 15.0 mph24.1 kmh 29.99 in1015.6 mb 0.00 in0.0 mm 0.00 in0.0 mm 0.00 in0.0 mm
01:36 AM 35.8°F2.1°C 30.9°F-0.6°C 82% 10.1 mph SW16.3 kmh SW 13.0 mph20.9 kmh 29.99 in1015.6 mb 0.00 in0.0 mm 0.00 in0.0 mm 0.00 in0.0 mm
01:35 AM 35.8°F2.1°C 30.9°F-0.6°C 82% 11.5 mph SSW18.5 kmh SSW 13.0 mph20.9 kmh 29.99 in1015.6 mb 0.00 in0.0 mm 0.00 in0.0 mm 0.00 in0.0 mm
01:34 AM 35.8°F2.1°C 30.9°F-0.6°C 82% 11.0 mph SSW17.7 kmh SSW 13.0 mph20.9 kmh 29.99 in1015.6 mb 0.00 in0.0 mm 0.00 in0.0 mm 0.00 in0.0 mm
01:33 AM 35.8°F2.1°C 30.9°F-0.6°C 82% 11.0 mph SSW17.7 kmh SSW 14.0 mph22.5 kmh 29.99 in1015.6 mb 0.00 in0.0 mm 0.00 in0.0 mm 0.00 in0.0 mm
01:32 AM 35.8°F2.1°C 30.9°F-0.6°C 82% 10.5 mph SSW16.9 kmh SSW 15.0 mph24.1 kmh 30.00 in1015.9 mb 0.00 in0.0 mm 0.00 in0.0 mm 0.00 in0.0 mm
01:31 AM 35.8°F2.1°C 30.9°F-0.6°C 82% 10.8 mph SW17.4 kmh SW 16.0 mph25.7 kmh 30.00 in1015.9 mb 0.00 in0.0 mm 0.00 in0.0 mm 0.00 in0.0 mm
01:30 AM 35.8°F2.1°C 30.9°F-0.6°C 82% 10.8 mph SW17.4 kmh SW 16.0 mph25.7 kmh 30.00 in1015.9 mb 0.00 in0.0 mm 0.00 in0.0 mm 0.00 in0.0 mm
01:29 AM 35.8°F2.1°C 30.9°F-0.6°C 82% 7.8 mph SW12.6 kmh SW 11.0 mph17.7 kmh 30.00 in1015.9 mb 0.00 in0.0 mm 0.00 in0.0 mm 0.00 in0.0 mm
01:28 AM 35.9°F2.2°C 31.0°F-0.6°C 82% 8.7 mph SSW14.0 kmh SSW 13.0 mph20.9 kmh 30.00 in1015.9 mb 0.00 in0.0 mm 0.00 in0.0 mm 0.00 in0.0 mm
01:27 AM 35.8°F2.1°C 30.9°F-0.6°C 82% 8.9 mph SW14.3 kmh SW 14.0 mph22.5 kmh 30.00 in1015.9 mb 0.00 in0.0 mm 0.00 in0.0 mm 0.00 in0.0 mm
01:26 AM 35.8°F2.1°C 30.9°F-0.6°C 82% 9.6 mph SSW15.4 kmh SSW 14.0 mph22.5 kmh 30.00 in1015.9 mb 0.00 in0.0 mm 0.00 in0.0 mm 0.00 in0.0 mm
01:25 AM 35.9°F2.2°C 31.0°F-0.6°C 82% 11.7 mph SW18.8 kmh SW 14.0 mph22.5 kmh 30.00 in1015.9 mb 0.00 in0.0 mm 0.00 in0.0 mm 0.00 in0.0 mm
01:24 AM 35.9°F2.2°C 31.0°F-0.6°C 82% 10.3 mph SW16.6 kmh SW 14.0 mph22.5 kmh 30.00 in1015.9 mb 0.00 in0.0 mm 0.00 in0.0 mm 0.00 in0.0 mm
01:23 AM 35.9°F2.2°C 31.0°F-0.6°C 82% 8.8 mph SW14.2 kmh SW 14.0 mph22.5 kmh 30.00 in1015.9 mb 0.00 in0.0 mm 0.00 in0.0 mm 0.00 in0.0 mm
01:22 AM 35.9°F2.2°C 31.0°F-0.6°C 82% 9.3 mph SW15.0 kmh SW 15.0 mph24.1 kmh 30.00 in1015.9 mb 0.00 in0.0 mm 0.00 in0.0 mm 0.00 in0.0 mm
01:21 AM 35.9°F2.2°C 31.0°F-0.6°C 82% 10.9 mph SW17.5 kmh SW 15.0 mph24.1 kmh 30.00 in1015.9 mb 0.00 in0.0 mm 0.00 in0.0 mm 0.00 in0.0 mm
01:20 AM 35.9°F2.2°C 31.0°F-0.6°C 82% 9.4 mph SW15.1 kmh SW 12.0 mph19.3 kmh 30.00 in1015.9 mb 0.00 in0.0 mm 0.00 in0.0 mm 0.00 in0.0 mm
01:19 AM 35.9°F2.2°C 31.0°F-0.6°C 82% 10.0 mph SW16.1 kmh SW 11.0 mph17.7 kmh 30.00 in1015.9 mb 0.00 in0.0 mm 0.00 in0.0 mm 0.00 in0.0 mm
01:18 AM 35.9°F2.2°C 31.0°F-0.6°C 82% 10.0 mph SW16.1 kmh SW 12.0 mph19.3 kmh 30.00 in1015.9 mb 0.00 in0.0 mm 0.00 in0.0 mm 0.00 in0.0 mm
01:17 AM 36.0°F2.2°C 31.0°F-0.6°C 82% 8.0 mph SW12.9 kmh SW 12.0 mph19.3 kmh 30.00 in1015.9 mb 0.00 in0.0 mm 0.00 in0.0 mm 0.00 in0.0 mm
01:16 AM 36.0°F2.2°C 31.0°F-0.6°C 82% 10.6 mph SW17.1 kmh SW 14.0 mph22.5 kmh 30.00 in1015.9 mb 0.00 in0.0 mm 0.00 in0.0 mm 0.00 in0.0 mm
01:15 AM 36.1°F2.3°C 31.1°F-0.5°C 82% 12.0 mph SW19.3 kmh SW 13.0 mph20.9 kmh 30.00 in1015.9 mb 0.00 in0.0 mm 0.00 in0.0 mm 0.00 in0.0 mm
01:14 AM 36.0°F2.2°C 31.0°F-0.6°C 82% 10.0 mph SSW16.1 kmh SSW 13.0 mph20.9 kmh 30.00 in1015.9 mb 0.00 in0.0 mm 0.00 in0.0 mm 0.00 in0.0 mm
01:13 AM 36.1°F2.3°C 31.1°F-0.5°C 82% 9.0 mph SW14.5 kmh SW 16.0 mph25.7 kmh 30.00 in1015.9 mb 0.00 in0.0 mm 0.00 in0.0 mm 0.00 in0.0 mm
01:12 AM 36.0°F2.2°C 31.0°F-0.6°C 82% 9.7 mph SSW15.6 kmh SSW 14.0 mph22.5 kmh 30.00 in1015.9 mb 0.00 in0.0 mm 0.00 in0.0 mm 0.00 in0.0 mm
01:11 AM 36.1°F2.3°C 31.1°F-0.5°C 82% 9.8 mph SW15.8 kmh SW 14.0 mph22.5 kmh 30.00 in1015.9 mb 0.00 in0.0 mm 0.00 in0.0 mm 0.00 in0.0 mm
01:10 AM 36.1°F2.3°C 31.1°F-0.5°C 82% 9.3 mph SSW15.0 kmh SSW 14.0 mph22.5 kmh 30.00 in1015.9 mb 0.00 in0.0 mm 0.00 in0.0 mm 0.00 in0.0 mm
01:09 AM 36.1°F2.3°C 31.1°F-0.5°C 82% 10.9 mph SSW17.5 kmh SSW 13.0 mph20.9 kmh 30.00 in1015.9 mb 0.00 in0.0 mm 0.00 in0.0 mm 0.00 in0.0 mm
01:08 AM 36.1°F2.3°C 31.1°F-0.5°C 82% 10.0 mph SW16.1 kmh SW 12.0 mph19.3 kmh 30.00 in1015.9 mb 0.00 in0.0 mm 0.00 in0.0 mm 0.00 in0.0 mm
01:07 AM 36.0°F2.2°C 31.0°F-0.6°C 82% 8.8 mph SW14.2 kmh SW 12.0 mph19.3 kmh 30.00 in1015.9 mb 0.00 in0.0 mm 0.00 in0.0 mm 0.00 in0.0 mm
01:06 AM 36.1°F2.3°C 31.1°F-0.5°C 82% 9.5 mph SW15.3 kmh SW 12.0 mph19.3 kmh 30.00 in1015.9 mb 0.00 in0.0 mm 0.00 in0.0 mm 0.00 in0.0 mm
01:05 AM 36.1°F2.3°C 31.1°F-0.5°C 82% 10.0 mph SSW16.1 kmh SSW 17.0 mph27.4 kmh 30.00 in1015.9 mb 0.00 in0.0 mm 0.00 in0.0 mm 0.00 in0.0 mm
01:04 AM 36.0°F2.2°C 31.0°F-0.6°C 82% 10.0 mph SW16.1 kmh SW 13.0 mph20.9 kmh 30.01 in1016.3 mb 0.00 in0.0 mm 0.00 in0.0 mm 0.00 in0.0 mm
01:03 AM 36.0°F2.2°C 31.0°F-0.6°C 82% 9.5 mph SSW15.3 kmh SSW 16.0 mph25.7 kmh 30.01 in1016.3 mb 0.00 in0.0 mm 0.00 in0.0 mm 0.00 in0.0 mm
01:02 AM 36.0°F2.2°C 31.0°F-0.6°C 82% 5.3 mph SW8.5 kmh SW 13.0 mph20.9 kmh 30.01 in1016.3 mb 0.00 in0.0 mm 0.00 in0.0 mm 0.00 in0.0 mm
01:01 AM 36.0°F2.2°C 31.0°F-0.6°C 82% 9.9 mph SSW15.9 kmh SSW 13.0 mph20.9 kmh 30.01 in1016.3 mb 0.00 in0.0 mm 0.00 in0.0 mm 0.00 in0.0 mm
01:00 AM 36.0°F2.2°C 31.0°F-0.6°C 82% 8.3 mph SW13.4 kmh SW 14.0 mph22.5 kmh 30.01 in1016.3 mb 0.00 in0.0 mm 0.00 in0.0 mm 0.00 in0.0 mm
12:59 AM 36.0°F2.2°C 31.0°F-0.6°C 82% 10.8 mph SSW17.4 kmh SSW 15.0 mph24.1 kmh 30.01 in1016.3 mb 0.00 in0.0 mm 0.00 in0.0 mm 0.00 in0.0 mm
12:58 AM 35.9°F2.2°C 31.0°F-0.6°C 82% 9.5 mph SSW15.3 kmh SSW 15.0 mph24.1 kmh 30.01 in1016.3 mb 0.00 in0.0 mm 0.00 in0.0 mm 0.00 in0.0 mm
12:57 AM 36.0°F2.2°C 31.0°F-0.6°C 82% 9.1 mph SSW14.6 kmh SSW 14.0 mph22.5 kmh 30.01 in1016.3 mb 0.00 in0.0 mm 0.00 in0.0 mm 0.00 in0.0 mm
12:56 AM 35.9°F2.2°C 31.0°F-0.6°C 82% 9.9 mph SSW15.9 kmh SSW 14.0 mph22.5 kmh 30.01 in1016.3 mb 0.00 in0.0 mm 0.00 in0.0 mm 0.00 in0.0 mm
12:55 AM 35.9°F2.2°C 31.0°F-0.6°C 82% 8.4 mph SSW13.5 kmh SSW 11.0 mph17.7 kmh 30.01 in1016.3 mb 0.00 in0.0 mm 0.00 in0.0 mm 0.00 in0.0 mm
12:54 AM 35.9°F2.2°C 31.0°F-0.6°C 82% 8.8 mph SSW14.2 kmh SSW 15.0 mph24.1 kmh 30.01 in1016.3 mb 0.00 in0.0 mm 0.00 in0.0 mm 0.00 in0.0 mm
12:53 AM 35.9°F2.2°C 31.0°F-0.6°C 82% 11.6 mph SW18.7 kmh SW 15.0 mph24.1 kmh 30.01 in1016.3 mb 0.00 in0.0 mm 0.00 in0.0 mm 0.00 in0.0 mm
12:52 AM 35.9°F2.2°C 31.0°F-0.6°C 82% 7.9 mph SSW12.7 kmh SSW 13.0 mph20.9 kmh 30.01 in1016.3 mb 0.00 in0.0 mm 0.00 in0.0 mm 0.00 in0.0 mm
12:51 AM 35.9°F2.2°C 31.0°F-0.6°C 82% 8.7 mph SW14.0 kmh SW 13.0 mph20.9 kmh 30.01 in1016.3 mb 0.00 in0.0 mm 0.00 in0.0 mm 0.00 in0.0 mm
12:50 AM 35.9°F2.2°C 31.0°F-0.6°C 82% 9.4 mph SSW15.1 kmh SSW 15.0 mph24.1 kmh 30.01 in1016.3 mb 0.00 in0.0 mm 0.00 in0.0 mm 0.00 in0.0 mm
12:49 AM 35.9°F2.2°C 31.0°F-0.6°C 82% 11.6 mph SSW18.7 kmh SSW 15.0 mph24.1 kmh 30.01 in1016.3 mb 0.00 in0.0 mm 0.00 in0.0 mm 0.00 in0.0 mm
12:48 AM 35.9°F2.2°C 31.0°F-0.6°C 82% 9.6 mph SW15.4 kmh SW 15.0 mph24.1 kmh 30.01 in1016.3 mb 0.00 in0.0 mm 0.00 in0.0 mm 0.00 in0.0 mm
12:47 AM 35.9°F2.2°C 31.0°F-0.6°C 82% 10.2 mph SSW16.4 kmh SSW 15.0 mph24.1 kmh 30.01 in1016.3 mb 0.00 in0.0 mm 0.00 in0.0 mm 0.00 in0.0 mm
12:46 AM 35.9°F2.2°C 31.0°F-0.6°C 82% 9.4 mph SW15.1 kmh SW 16.0 mph25.7 kmh 30.01 in1016.3 mb 0.00 in0.0 mm 0.00 in0.0 mm 0.00 in0.0 mm
12:45 AM 35.9°F2.2°C 31.0°F-0.6°C 82% 12.0 mph SW19.3 kmh SW 16.0 mph25.7 kmh 30.01 in1016.3 mb 0.00 in0.0 mm 0.00 in0.0 mm 0.00 in0.0 mm
12:44 AM 36.0°F2.2°C 31.0°F-0.6°C 82% 8.0 mph SSW12.9 kmh SSW 12.0 mph19.3 kmh 30.01 in1016.3 mb 0.00 in0.0 mm 0.00 in0.0 mm 0.00 in0.0 mm
12:43 AM 35.9°F2.2°C 31.0°F-0.6°C 82% 8.8 mph SW14.2 kmh SW 12.0 mph19.3 kmh 30.01 in1016.3 mb 0.00 in0.0 mm 0.00 in0.0 mm 0.00 in0.0 mm
12:42 AM 35.9°F2.2°C 31.0°F-0.6°C 82% 9.0 mph SSW14.5 kmh SSW 14.0 mph22.5 kmh 30.02 in1016.6 mb 0.00 in0.0 mm 0.00 in0.0 mm 0.00 in0.0 mm
12:41 AM 36.0°F2.2°C 31.0°F-0.6°C 82% 11.0 mph SSW17.7 kmh SSW 15.0 mph24.1 kmh 30.02 in1016.6 mb 0.00 in0.0 mm 0.00 in0.0 mm 0.00 in0.0 mm
12:40 AM 36.0°F2.2°C 31.0°F-0.6°C 82% 8.7 mph SW14.0 kmh SW 15.0 mph24.1 kmh 30.02 in1016.6 mb 0.00 in0.0 mm 0.00 in0.0 mm 0.00 in0.0 mm
12:39 AM 36.0°F2.2°C 31.0°F-0.6°C 82% 8.2 mph SW13.2 kmh SW 15.0 mph24.1 kmh 30.02 in1016.6 mb 0.00 in0.0 mm 0.00 in0.0 mm 0.00 in0.0 mm
12:38 AM 36.0°F2.2°C 31.0°F-0.6°C 82% 9.3 mph SSW15.0 kmh SSW 15.0 mph24.1 kmh 30.02 in1016.6 mb 0.00 in0.0 mm 0.00 in0.0 mm 0.00 in0.0 mm
12:37 AM 36.0°F2.2°C 31.0°F-0.6°C 82% 10.3 mph SW16.6 kmh SW 17.0 mph27.4 kmh 30.02 in1016.6 mb 0.00 in0.0 mm 0.00 in0.0 mm 0.00 in0.0 mm
12:36 AM 36.0°F2.2°C 31.0°F-0.6°C 82% 10.8 mph SSW17.4 kmh SSW 17.0 mph27.4 kmh 30.02 in1016.6 mb 0.00 in0.0 mm 0.00 in0.0 mm 0.00 in0.0 mm
12:35 AM 36.0°F2.2°C 31.0°F-0.6°C 82% 11.7 mph SW18.8 kmh SW 14.0 mph22.5 kmh 30.02 in1016.6 mb 0.00 in0.0 mm 0.00 in0.0 mm 0.00 in0.0 mm
12:34 AM 36.0°F2.2°C 31.0°F-0.6°C 82% 9.1 mph SW14.6 kmh SW 15.0 mph24.1 kmh 30.02 in1016.6 mb 0.00 in0.0 mm 0.00 in0.0 mm 0.00 in0.0 mm
12:33 AM 36.0°F2.2°C 31.0°F-0.6°C 82% 10.5 mph SW16.9 kmh SW 15.0 mph24.1 kmh 30.02 in1016.6 mb 0.00 in0.0 mm 0.00 in0.0 mm 0.00 in0.0 mm
12:32 AM 36.0°F2.2°C 31.0°F-0.6°C 82% 9.4 mph SSW15.1 kmh SSW 15.0 mph24.1 kmh 30.02 in1016.6 mb 0.00 in0.0 mm 0.00 in0.0 mm 0.00 in0.0 mm
12:31 AM 36.0°F2.2°C 31.0°F-0.6°C 82% 12.0 mph SW19.3 kmh SW 15.0 mph24.1 kmh 30.02 in1016.6 mb 0.00 in0.0 mm 0.00 in0.0 mm 0.00 in0.0 mm
12:30 AM 36.0°F2.2°C 31.0°F-0.6°C 82% 10.5 mph SW16.9 kmh SW 13.0 mph20.9 kmh 30.02 in1016.6 mb 0.00 in0.0 mm 0.00 in0.0 mm 0.00 in0.0 mm
12:29 AM 36.0°F2.2°C 31.0°F-0.6°C 82% 9.4 mph SSW15.1 kmh SSW 13.0 mph20.9 kmh 30.02 in1016.6 mb 0.00 in0.0 mm 0.00 in0.0 mm 0.00 in0.0 mm
12:28 AM 36.0°F2.2°C 31.0°F-0.6°C 82% 8.7 mph SSW14.0 kmh SSW 14.0 mph22.5 kmh 30.02 in1016.6 mb 0.00 in0.0 mm 0.00 in0.0 mm 0.00 in0.0 mm
12:27 AM 36.0°F2.2°C 31.0°F-0.6°C 82% 9.7 mph SSW15.6 kmh SSW 14.0 mph22.5 kmh 30.02 in1016.6 mb 0.00 in0.0 mm 0.00 in0.0 mm 0.00 in0.0 mm
12:26 AM 36.0°F2.2°C 31.0°F-0.6°C 82% 8.3 mph SW13.4 kmh SW 11.0 mph17.7 kmh 30.02 in1016.6 mb 0.00 in0.0 mm 0.00 in0.0 mm 0.00 in0.0 mm
12:25 AM 36.0°F2.2°C 31.0°F-0.6°C 82% 8.2 mph SSW13.2 kmh SSW 13.0 mph20.9 kmh 30.02 in1016.6 mb 0.00 in0.0 mm 0.00 in0.0 mm 0.00 in0.0 mm
12:24 AM 36.0°F2.2°C 31.0°F-0.6°C 82% 9.3 mph SSW15.0 kmh SSW 13.0 mph20.9 kmh 30.02 in1016.6 mb 0.00 in0.0 mm 0.00 in0.0 mm 0.00 in0.0 mm
12:23 AM 36.1°F2.3°C 31.1°F-0.5°C 82% 8.5 mph SW13.7 kmh SW 11.0 mph17.7 kmh 30.02 in1016.6 mb 0.00 in0.0 mm 0.00 in0.0 mm 0.00 in0.0 mm
12:22 AM 36.0°F2.2°C 31.0°F-0.6°C 82% 9.4 mph SW15.1 kmh SW 10.0 mph16.1 kmh 30.02 in1016.6 mb 0.00 in0.0 mm 0.00 in0.0 mm 0.00 in0.0 mm
12:21 AM 36.0°F2.2°C 31.0°F-0.6°C 82% 10.0 mph SSW16.1 kmh SSW 13.0 mph20.9 kmh 30.02 in1016.6 mb 0.00 in0.0 mm 0.00 in0.0 mm 0.00 in0.0 mm
12:20 AM 36.0°F2.2°C 31.0°F-0.6°C 82% 9.0 mph SSW14.5 kmh SSW 12.0 mph19.3 kmh 30.02 in1016.6 mb 0.00 in0.0 mm 0.00 in0.0 mm 0.00 in0.0 mm
12:19 AM 36.1°F2.3°C 31.1°F-0.5°C 82% 9.5 mph SSW15.3 kmh SSW 13.0 mph20.9 kmh 30.02 in1016.6 mb 0.00 in0.0 mm 0.00 in0.0 mm 0.00 in0.0 mm
12:18 AM 36.0°F2.2°C 31.0°F-0.6°C 82% 10.2 mph SSW16.4 kmh SSW 13.0 mph20.9 kmh 30.02 in1016.6 mb 0.00 in0.0 mm 0.00 in0.0 mm 0.00 in0.0 mm
12:17 AM 36.0°F2.2°C 31.0°F-0.6°C 82% 9.0 mph SW14.5 kmh SW 13.0 mph20.9 kmh 30.02 in1016.6 mb 0.00 in0.0 mm 0.00 in0.0 mm 0.00 in0.0 mm
12:16 AM 36.0°F2.2°C 31.0°F-0.6°C 82% 9.9 mph SSW15.9 kmh SSW 15.0 mph24.1 kmh 30.02 in1016.6 mb 0.00 in0.0 mm 0.00 in0.0 mm 0.00 in0.0 mm
12:15 AM 36.0°F2.2°C 31.0°F-0.6°C 82% 9.3 mph SSW15.0 kmh SSW 15.0 mph24.1 kmh 30.02 in1016.6 mb 0.00 in0.0 mm 0.00 in0.0 mm 0.00 in0.0 mm
12:14 AM 36.1°F2.3°C 31.1°F-0.5°C 82% 9.1 mph SSW14.6 kmh SSW 11.0 mph17.7 kmh 30.03 in1016.9 mb 0.00 in0.0 mm 0.00 in0.0 mm 0.00 in0.0 mm
12:13 AM 36.0°F2.2°C 31.0°F-0.6°C 82% 6.6 mph SSW10.6 kmh SSW 9.0 mph14.5 kmh 30.03 in1016.9 mb 0.00 in0.0 mm 0.00 in0.0 mm 0.00 in0.0 mm
12:12 AM 36.0°F2.2°C 31.0°F-0.6°C 82% 7.4 mph SW11.9 kmh SW 12.0 mph19.3 kmh 30.03 in1016.9 mb 0.00 in0.0 mm 0.00 in0.0 mm 0.00 in0.0 mm
12:11 AM 36.0°F2.2°C 31.0°F-0.6°C 82% 9.8 mph SW15.8 kmh SW 14.0 mph22.5 kmh 30.03 in1016.9 mb 0.00 in0.0 mm 0.00 in0.0 mm 0.00 in0.0 mm
12:10 AM 36.0°F2.2°C 31.0°F-0.6°C 82% 9.0 mph SW14.5 kmh SW 14.0 mph22.5 kmh 30.03 in1016.9 mb 0.00 in0.0 mm 0.00 in0.0 mm 0.00 in0.0 mm
12:09 AM 36.0°F2.2°C 31.0°F-0.6°C 82% 8.6 mph SW13.8 kmh SW 12.0 mph19.3 kmh 30.03 in1016.9 mb 0.00 in0.0 mm 0.00 in0.0 mm 0.00 in0.0 mm
12:08 AM 36.0°F2.2°C 31.3°F-0.4°C 83% 7.8 mph SSW12.6 kmh SSW 12.0 mph19.3 kmh 30.03 in1016.9 mb 0.00 in0.0 mm 0.00 in0.0 mm 0.00 in0.0 mm
12:07 AM 36.0°F2.2°C 31.3°F-0.4°C 83% 6.9 mph SSW11.1 kmh SSW 11.0 mph17.7 kmh 30.03 in1016.9 mb 0.00 in0.0 mm 0.00 in0.0 mm 0.00 in0.0 mm
12:06 AM 35.9°F2.2°C 31.2°F-0.4°C 83% 9.2 mph SW14.8 kmh SW 12.0 mph19.3 kmh 30.03 in1016.9 mb 0.00 in0.0 mm 0.00 in0.0 mm 0.00 in0.0 mm
12:05 AM 35.9°F2.2°C 31.2°F-0.4°C 83% 8.9 mph SSW14.3 kmh SSW 12.0 mph19.3 kmh 30.03 in1016.9 mb 0.00 in0.0 mm 0.00 in0.0 mm 0.00 in0.0 mm
12:04 AM 36.0°F2.2°C 31.3°F-0.4°C 83% 7.2 mph SSW11.6 kmh SSW 12.0 mph19.3 kmh 30.03 in1016.9 mb 0.00 in0.0 mm 0.00 in0.0 mm 0.00 in0.0 mm
12:03 AM 35.9°F2.2°C 31.2°F-0.4°C 83% 9.2 mph SW14.8 kmh SW 13.0 mph20.9 kmh 30.03 in1016.9 mb 0.00 in0.0 mm 0.00 in0.0 mm 0.00 in0.0 mm
12:02 AM 35.9°F2.2°C 31.2°F-0.4°C 83% 9.5 mph SSW15.3 kmh SSW 13.0 mph20.9 kmh 30.03 in1016.9 mb 0.00 in0.0 mm 0.00 in0.0 mm 0.00 in0.0 mm
12:01 AM 35.8°F2.1°C 31.2°F-0.4°C 83% 9.0 mph SSW14.5 kmh SSW 13.0 mph20.9 kmh 30.03 in1016.9 mb 0.00 in0.0 mm 0.00 in0.0 mm 0.00 in0.0 mm
12:00 AM 35.8°F2.1°C 31.2°F-0.4°C 83% 7.0 mph SSW11.3 kmh SSW 10.0 mph16.1 kmh 30.03 in1016.9 mb 0.00 in0.0 mm 0.00 in0.0 mm 0.00 in0.0 mm